<?xml version="1.0" encoding="UTF-8" standalone="no" ?>
<gpx xmlns="http://www.topografix.com/GPX/1/1" xmlns:xsi="http://www.w3.org/2001/XMLSchema-instance" xsi:schemaLocation="http://www.topografix.com/GPX/1/1 http://www.topografix.com/GPX/1/1/gpx.xsd" version="1.1" creator="VisuGPX - https://www.visugpx.com">
  <metadata>
    <name>Sainte Lucie</name>
    <desc><![CDATA[départ Martinique Le marin
arrivée Sainte Lucie Soufrière bay
lipari 41 
9 équipiers
2 jours
]]></desc>
  </metadata>
  <trk>
    <name><![CDATA[Tracé actuel: 05 DEC 2016 08:08]]></name>
    <trkseg>
      <trkpt lat="14.46866" lon="-60.8659">
        <ele>8.79</ele>
        <time>2016-12-05T12:08:33Z</time>
      </trkpt>
      <trkpt lat="14.46864" lon="-60.8659">
        <ele>9.75</ele>
        <time>2016-12-05T12:08:41Z</time>
      </trkpt>
      <trkpt lat="14.46737" lon="-60.86653">
        <ele>25.61</ele>
        <time>2016-12-05T14:40:25Z</time>
      </trkpt>
      <trkpt lat="14.46717" lon="-60.86676">
        <ele>22.25</ele>
        <time>2016-12-05T14:40:44Z</time>
      </trkpt>
      <trkpt lat="14.46723" lon="-60.86695">
        <ele>18.88</ele>
        <time>2016-12-05T14:40:59Z</time>
      </trkpt>
      <trkpt lat="14.46734" lon="-60.86707">
        <ele>12.15</ele>
        <time>2016-12-05T14:41:15Z</time>
      </trkpt>
      <trkpt lat="14.46736" lon="-60.86715">
        <ele>12.15</ele>
        <time>2016-12-05T14:41:22Z</time>
      </trkpt>
      <trkpt lat="14.46755" lon="-60.8674">
        <ele>11.19</ele>
        <time>2016-12-05T14:41:43Z</time>
      </trkpt>
      <trkpt lat="14.46782" lon="-60.86734">
        <ele>11.67</ele>
        <time>2016-12-05T14:41:59Z</time>
      </trkpt>
      <trkpt lat="14.46788" lon="-60.86716">
        <ele>11.67</ele>
        <time>2016-12-05T14:42:11Z</time>
      </trkpt>
      <trkpt lat="14.46794" lon="-60.86709">
        <ele>13.12</ele>
        <time>2016-12-05T14:42:22Z</time>
      </trkpt>
      <trkpt lat="14.46793" lon="-60.86709">
        <ele>14.08</ele>
        <time>2016-12-05T14:42:37Z</time>
      </trkpt>
      <trkpt lat="14.46792" lon="-60.86711">
        <ele>14.56</ele>
        <time>2016-12-05T14:42:45Z</time>
      </trkpt>
      <trkpt lat="14.46791" lon="-60.86727">
        <ele>15.52</ele>
        <time>2016-12-05T14:42:54Z</time>
      </trkpt>
      <trkpt lat="14.4679" lon="-60.86739">
        <ele>15.52</ele>
        <time>2016-12-05T14:42:59Z</time>
      </trkpt>
      <trkpt lat="14.46782" lon="-60.86774">
        <ele>15.52</ele>
        <time>2016-12-05T14:43:12Z</time>
      </trkpt>
      <trkpt lat="14.46759" lon="-60.86813">
        <ele>14.08</ele>
        <time>2016-12-05T14:43:28Z</time>
      </trkpt>
      <trkpt lat="14.46744" lon="-60.86844">
        <ele>13.12</ele>
        <time>2016-12-05T14:43:40Z</time>
      </trkpt>
      <trkpt lat="14.46717" lon="-60.8689">
        <ele>12.63</ele>
        <time>2016-12-05T14:43:57Z</time>
      </trkpt>
      <trkpt lat="14.46688" lon="-60.86939">
        <ele>13.12</ele>
        <time>2016-12-05T14:44:16Z</time>
      </trkpt>
      <trkpt lat="14.46652" lon="-60.86973">
        <ele>13.12</ele>
        <time>2016-12-05T14:44:33Z</time>
      </trkpt>
      <trkpt lat="14.46616" lon="-60.87021">
        <ele>11.67</ele>
        <time>2016-12-05T14:44:53Z</time>
      </trkpt>
      <trkpt lat="14.4659" lon="-60.87066">
        <ele>11.67</ele>
        <time>2016-12-05T14:45:11Z</time>
      </trkpt>
      <trkpt lat="14.46564" lon="-60.87126">
        <ele>13.12</ele>
        <time>2016-12-05T14:45:33Z</time>
      </trkpt>
      <trkpt lat="14.46535" lon="-60.87179">
        <ele>13.12</ele>
        <time>2016-12-05T14:45:53Z</time>
      </trkpt>
      <trkpt lat="14.46514" lon="-60.87218">
        <ele>12.63</ele>
        <time>2016-12-05T14:46:08Z</time>
      </trkpt>
      <trkpt lat="14.46488" lon="-60.87266">
        <ele>13.6</ele>
        <time>2016-12-05T14:46:26Z</time>
      </trkpt>
      <trkpt lat="14.46453" lon="-60.87312">
        <ele>13.6</ele>
        <time>2016-12-05T14:46:45Z</time>
      </trkpt>
      <trkpt lat="14.46417" lon="-60.8735">
        <ele>12.63</ele>
        <time>2016-12-05T14:47:03Z</time>
      </trkpt>
      <trkpt lat="14.46397" lon="-60.87381">
        <ele>12.15</ele>
        <time>2016-12-05T14:47:15Z</time>
      </trkpt>
      <trkpt lat="14.46363" lon="-60.87422">
        <ele>12.15</ele>
        <time>2016-12-05T14:47:33Z</time>
      </trkpt>
      <trkpt lat="14.46335" lon="-60.87469">
        <ele>11.67</ele>
        <time>2016-12-05T14:47:51Z</time>
      </trkpt>
      <trkpt lat="14.46306" lon="-60.87488">
        <ele>12.15</ele>
        <time>2016-12-05T14:48:03Z</time>
      </trkpt>
      <trkpt lat="14.46267" lon="-60.87506">
        <ele>10.71</ele>
        <time>2016-12-05T14:48:17Z</time>
      </trkpt>
      <trkpt lat="14.46222" lon="-60.87548">
        <ele>11.67</ele>
        <time>2016-12-05T14:48:38Z</time>
      </trkpt>
      <trkpt lat="14.46182" lon="-60.87572">
        <ele>12.15</ele>
        <time>2016-12-05T14:48:55Z</time>
      </trkpt>
      <trkpt lat="14.46109" lon="-60.87606">
        <ele>10.71</ele>
        <time>2016-12-05T14:49:23Z</time>
      </trkpt>
      <trkpt lat="14.46046" lon="-60.87638">
        <ele>11.67</ele>
        <time>2016-12-05T14:49:47Z</time>
      </trkpt>
      <trkpt lat="14.45988" lon="-60.87696">
        <ele>12.63</ele>
        <time>2016-12-05T14:50:15Z</time>
      </trkpt>
      <trkpt lat="14.45921" lon="-60.87769">
        <ele>12.63</ele>
        <time>2016-12-05T14:50:48Z</time>
      </trkpt>
      <trkpt lat="14.45862" lon="-60.87834">
        <ele>12.63</ele>
        <time>2016-12-05T14:51:17Z</time>
      </trkpt>
      <trkpt lat="14.45798" lon="-60.87905">
        <ele>11.67</ele>
        <time>2016-12-05T14:51:48Z</time>
      </trkpt>
      <trkpt lat="14.45739" lon="-60.87972">
        <ele>12.63</ele>
        <time>2016-12-05T14:52:18Z</time>
      </trkpt>
      <trkpt lat="14.45679" lon="-60.88054">
        <ele>12.63</ele>
        <time>2016-12-05T14:52:52Z</time>
      </trkpt>
      <trkpt lat="14.45619" lon="-60.88123">
        <ele>13.12</ele>
        <time>2016-12-05T14:53:22Z</time>
      </trkpt>
      <trkpt lat="14.45546" lon="-60.88199">
        <ele>12.15</ele>
        <time>2016-12-05T14:53:57Z</time>
      </trkpt>
      <trkpt lat="14.45487" lon="-60.88259">
        <ele>10.71</ele>
        <time>2016-12-05T14:54:25Z</time>
      </trkpt>
      <trkpt lat="14.45421" lon="-60.88323">
        <ele>10.71</ele>
        <time>2016-12-05T14:54:56Z</time>
      </trkpt>
      <trkpt lat="14.45377" lon="-60.88372">
        <ele>10.23</ele>
        <time>2016-12-05T14:55:18Z</time>
      </trkpt>
      <trkpt lat="14.45321" lon="-60.88435">
        <ele>10.23</ele>
        <time>2016-12-05T14:55:46Z</time>
      </trkpt>
      <trkpt lat="14.45263" lon="-60.88497">
        <ele>10.23</ele>
        <time>2016-12-05T14:56:14Z</time>
      </trkpt>
      <trkpt lat="14.45203" lon="-60.88569">
        <ele>10.23</ele>
        <time>2016-12-05T14:56:45Z</time>
      </trkpt>
      <trkpt lat="14.45149" lon="-60.88625">
        <ele>10.23</ele>
        <time>2016-12-05T14:57:11Z</time>
      </trkpt>
      <trkpt lat="14.45088" lon="-60.88686">
        <ele>10.71</ele>
        <time>2016-12-05T14:57:40Z</time>
      </trkpt>
      <trkpt lat="14.45011" lon="-60.88749">
        <ele>12.15</ele>
        <time>2016-12-05T14:58:13Z</time>
      </trkpt>
      <trkpt lat="14.44963" lon="-60.8881">
        <ele>11.67</ele>
        <time>2016-12-05T14:58:39Z</time>
      </trkpt>
      <trkpt lat="14.44934" lon="-60.88866">
        <ele>11.19</ele>
        <time>2016-12-05T14:59:00Z</time>
      </trkpt>
      <trkpt lat="14.44897" lon="-60.88946">
        <ele>10.71</ele>
        <time>2016-12-05T14:59:29Z</time>
      </trkpt>
      <trkpt lat="14.4486" lon="-60.89018">
        <ele>10.71</ele>
        <time>2016-12-05T14:59:56Z</time>
      </trkpt>
      <trkpt lat="14.44826" lon="-60.89098">
        <ele>10.23</ele>
        <time>2016-12-05T15:00:25Z</time>
      </trkpt>
      <trkpt lat="14.44797" lon="-60.89176">
        <ele>10.71</ele>
        <time>2016-12-05T15:00:53Z</time>
      </trkpt>
      <trkpt lat="14.44803" lon="-60.89257">
        <ele>10.23</ele>
        <time>2016-12-05T15:01:20Z</time>
      </trkpt>
      <trkpt lat="14.44796" lon="-60.89336">
        <ele>9.75</ele>
        <time>2016-12-05T15:01:46Z</time>
      </trkpt>
      <trkpt lat="14.44796" lon="-60.89409">
        <ele>9.75</ele>
        <time>2016-12-05T15:02:10Z</time>
      </trkpt>
      <trkpt lat="14.44791" lon="-60.89486">
        <ele>10.71</ele>
        <time>2016-12-05T15:02:35Z</time>
      </trkpt>
      <trkpt lat="14.44774" lon="-60.89563">
        <ele>9.75</ele>
        <time>2016-12-05T15:03:01Z</time>
      </trkpt>
      <trkpt lat="14.44745" lon="-60.89645">
        <ele>10.23</ele>
        <time>2016-12-05T15:03:30Z</time>
      </trkpt>
      <trkpt lat="14.44705" lon="-60.89742">
        <ele>11.67</ele>
        <time>2016-12-05T15:04:04Z</time>
      </trkpt>
      <trkpt lat="14.44658" lon="-60.89839">
        <ele>12.15</ele>
        <time>2016-12-05T15:04:39Z</time>
      </trkpt>
      <trkpt lat="14.44617" lon="-60.89915">
        <ele>12.15</ele>
        <time>2016-12-05T15:05:07Z</time>
      </trkpt>
      <trkpt lat="14.44583" lon="-60.89988">
        <ele>12.63</ele>
        <time>2016-12-05T15:05:33Z</time>
      </trkpt>
      <trkpt lat="14.4455" lon="-60.90071">
        <ele>13.12</ele>
        <time>2016-12-05T15:06:02Z</time>
      </trkpt>
      <trkpt lat="14.44516" lon="-60.90157">
        <ele>13.12</ele>
        <time>2016-12-05T15:06:32Z</time>
      </trkpt>
      <trkpt lat="14.44504" lon="-60.90232">
        <ele>11.67</ele>
        <time>2016-12-05T15:06:57Z</time>
      </trkpt>
      <trkpt lat="14.44504" lon="-60.90308">
        <ele>11.67</ele>
        <time>2016-12-05T15:07:22Z</time>
      </trkpt>
      <trkpt lat="14.44494" lon="-60.90381">
        <ele>12.63</ele>
        <time>2016-12-05T15:07:46Z</time>
      </trkpt>
      <trkpt lat="14.4449" lon="-60.90454">
        <ele>12.15</ele>
        <time>2016-12-05T15:08:10Z</time>
      </trkpt>
      <trkpt lat="14.44476" lon="-60.90538">
        <ele>12.63</ele>
        <time>2016-12-05T15:08:38Z</time>
      </trkpt>
      <trkpt lat="14.44456" lon="-60.90597">
        <ele>11.67</ele>
        <time>2016-12-05T15:08:59Z</time>
      </trkpt>
      <trkpt lat="14.44437" lon="-60.9067">
        <ele>11.67</ele>
        <time>2016-12-05T15:09:24Z</time>
      </trkpt>
      <trkpt lat="14.44433" lon="-60.90752">
        <ele>11.67</ele>
        <time>2016-12-05T15:09:51Z</time>
      </trkpt>
      <trkpt lat="14.44423" lon="-60.90833">
        <ele>13.12</ele>
        <time>2016-12-05T15:10:18Z</time>
      </trkpt>
      <trkpt lat="14.44407" lon="-60.90907">
        <ele>12.15</ele>
        <time>2016-12-05T15:10:43Z</time>
      </trkpt>
      <trkpt lat="14.44394" lon="-60.90985">
        <ele>12.15</ele>
        <time>2016-12-05T15:11:09Z</time>
      </trkpt>
      <trkpt lat="14.4438" lon="-60.9106">
        <ele>11.67</ele>
        <time>2016-12-05T15:11:34Z</time>
      </trkpt>
      <trkpt lat="14.44373" lon="-60.91121">
        <ele>11.67</ele>
        <time>2016-12-05T15:11:54Z</time>
      </trkpt>
      <trkpt lat="14.44372" lon="-60.91178">
        <ele>11.67</ele>
        <time>2016-12-05T15:12:14Z</time>
      </trkpt>
      <trkpt lat="14.44405" lon="-60.91191">
        <ele>12.15</ele>
        <time>2016-12-05T15:12:28Z</time>
      </trkpt>
      <trkpt lat="14.44422" lon="-60.91168">
        <ele>11.67</ele>
        <time>2016-12-05T15:12:42Z</time>
      </trkpt>
      <trkpt lat="14.44428" lon="-60.91126">
        <ele>11.67</ele>
        <time>2016-12-05T15:13:01Z</time>
      </trkpt>
      <trkpt lat="14.44438" lon="-60.91099">
        <ele>11.67</ele>
        <time>2016-12-05T15:13:23Z</time>
      </trkpt>
      <trkpt lat="14.44435" lon="-60.91087">
        <ele>11.67</ele>
        <time>2016-12-05T15:13:44Z</time>
      </trkpt>
      <trkpt lat="14.44442" lon="-60.9106">
        <ele>11.19</ele>
        <time>2016-12-05T15:14:02Z</time>
      </trkpt>
      <trkpt lat="14.4446" lon="-60.91036">
        <ele>11.67</ele>
        <time>2016-12-05T15:14:23Z</time>
      </trkpt>
      <trkpt lat="14.44463" lon="-60.9101">
        <ele>11.67</ele>
        <time>2016-12-05T15:14:46Z</time>
      </trkpt>
      <trkpt lat="14.44486" lon="-60.90979">
        <ele>11.67</ele>
        <time>2016-12-05T15:15:09Z</time>
      </trkpt>
      <trkpt lat="14.44496" lon="-60.90944">
        <ele>11.67</ele>
        <time>2016-12-05T15:15:31Z</time>
      </trkpt>
      <trkpt lat="14.44508" lon="-60.90917">
        <ele>10.71</ele>
        <time>2016-12-05T15:15:54Z</time>
      </trkpt>
      <trkpt lat="14.44518" lon="-60.90894">
        <ele>10.71</ele>
        <time>2016-12-05T15:16:16Z</time>
      </trkpt>
      <trkpt lat="14.44497" lon="-60.90868">
        <ele>11.19</ele>
        <time>2016-12-05T15:16:38Z</time>
      </trkpt>
      <trkpt lat="14.44462" lon="-60.90873">
        <ele>12.15</ele>
        <time>2016-12-05T15:16:56Z</time>
      </trkpt>
      <trkpt lat="14.44416" lon="-60.90908">
        <ele>12.15</ele>
        <time>2016-12-05T15:17:18Z</time>
      </trkpt>
      <trkpt lat="14.44366" lon="-60.90951">
        <ele>12.63</ele>
        <time>2016-12-05T15:17:43Z</time>
      </trkpt>
      <trkpt lat="14.44368" lon="-60.90991">
        <ele>12.15</ele>
        <time>2016-12-05T15:17:59Z</time>
      </trkpt>
      <trkpt lat="14.44399" lon="-60.91008">
        <ele>12.63</ele>
        <time>2016-12-05T15:18:14Z</time>
      </trkpt>
      <trkpt lat="14.44423" lon="-60.90991">
        <ele>12.15</ele>
        <time>2016-12-05T15:18:30Z</time>
      </trkpt>
      <trkpt lat="14.44435" lon="-60.90971">
        <ele>12.15</ele>
        <time>2016-12-05T15:18:56Z</time>
      </trkpt>
      <trkpt lat="14.4444" lon="-60.90958">
        <ele>12.15</ele>
        <time>2016-12-05T15:19:23Z</time>
      </trkpt>
      <trkpt lat="14.44446" lon="-60.90945">
        <ele>12.63</ele>
        <time>2016-12-05T15:19:50Z</time>
      </trkpt>
      <trkpt lat="14.44451" lon="-60.90942">
        <ele>12.15</ele>
        <time>2016-12-05T15:19:56Z</time>
      </trkpt>
      <trkpt lat="14.44466" lon="-60.9092">
        <ele>12.15</ele>
        <time>2016-12-05T15:20:15Z</time>
      </trkpt>
      <trkpt lat="14.44475" lon="-60.90901">
        <ele>12.63</ele>
        <time>2016-12-05T15:20:39Z</time>
      </trkpt>
      <trkpt lat="14.4448" lon="-60.90887">
        <ele>12.15</ele>
        <time>2016-12-05T15:21:04Z</time>
      </trkpt>
      <trkpt lat="14.44489" lon="-60.90861">
        <ele>12.15</ele>
        <time>2016-12-05T15:21:31Z</time>
      </trkpt>
      <trkpt lat="14.44503" lon="-60.90828">
        <ele>12.15</ele>
        <time>2016-12-05T15:21:57Z</time>
      </trkpt>
      <trkpt lat="14.44475" lon="-60.90818">
        <ele>11.67</ele>
        <time>2016-12-05T15:22:13Z</time>
      </trkpt>
      <trkpt lat="14.44424" lon="-60.90822">
        <ele>11.67</ele>
        <time>2016-12-05T15:22:34Z</time>
      </trkpt>
      <trkpt lat="14.44361" lon="-60.90842">
        <ele>12.63</ele>
        <time>2016-12-05T15:23:00Z</time>
      </trkpt>
      <trkpt lat="14.44331" lon="-60.90878">
        <ele>13.12</ele>
        <time>2016-12-05T15:23:18Z</time>
      </trkpt>
      <trkpt lat="14.44336" lon="-60.90928">
        <ele>12.63</ele>
        <time>2016-12-05T15:23:37Z</time>
      </trkpt>
      <trkpt lat="14.44372" lon="-60.90945">
        <ele>11.67</ele>
        <time>2016-12-05T15:23:53Z</time>
      </trkpt>
      <trkpt lat="14.44396" lon="-60.90926">
        <ele>11.67</ele>
        <time>2016-12-05T15:24:11Z</time>
      </trkpt>
      <trkpt lat="14.44402" lon="-60.90904">
        <ele>11.67</ele>
        <time>2016-12-05T15:24:34Z</time>
      </trkpt>
      <trkpt lat="14.44411" lon="-60.90884">
        <ele>11.67</ele>
        <time>2016-12-05T15:24:56Z</time>
      </trkpt>
      <trkpt lat="14.44415" lon="-60.90855">
        <ele>11.67</ele>
        <time>2016-12-05T15:25:19Z</time>
      </trkpt>
      <trkpt lat="14.44424" lon="-60.90832">
        <ele>12.63</ele>
        <time>2016-12-05T15:25:42Z</time>
      </trkpt>
      <trkpt lat="14.44443" lon="-60.90805">
        <ele>13.6</ele>
        <time>2016-12-05T15:26:09Z</time>
      </trkpt>
      <trkpt lat="14.44454" lon="-60.90782">
        <ele>14.08</ele>
        <time>2016-12-05T15:26:31Z</time>
      </trkpt>
      <trkpt lat="14.44462" lon="-60.90759">
        <ele>14.08</ele>
        <time>2016-12-05T15:26:56Z</time>
      </trkpt>
      <trkpt lat="14.44472" lon="-60.90744">
        <ele>15.04</ele>
        <time>2016-12-05T15:27:25Z</time>
      </trkpt>
      <trkpt lat="14.44478" lon="-60.90741">
        <ele>14.56</ele>
        <time>2016-12-05T15:27:35Z</time>
      </trkpt>
      <trkpt lat="14.44488" lon="-60.90728">
        <ele>15.04</ele>
        <time>2016-12-05T15:27:55Z</time>
      </trkpt>
      <trkpt lat="14.44478" lon="-60.90697">
        <ele>14.08</ele>
        <time>2016-12-05T15:28:14Z</time>
      </trkpt>
      <trkpt lat="14.44431" lon="-60.90693">
        <ele>12.63</ele>
        <time>2016-12-05T15:28:32Z</time>
      </trkpt>
      <trkpt lat="14.44382" lon="-60.90699">
        <ele>12.63</ele>
        <time>2016-12-05T15:28:55Z</time>
      </trkpt>
      <trkpt lat="14.44351" lon="-60.90704">
        <ele>13.12</ele>
        <time>2016-12-05T15:29:17Z</time>
      </trkpt>
      <trkpt lat="14.44322" lon="-60.90708">
        <ele>13.12</ele>
        <time>2016-12-05T15:29:41Z</time>
      </trkpt>
      <trkpt lat="14.44288" lon="-60.90714">
        <ele>13.12</ele>
        <time>2016-12-05T15:30:08Z</time>
      </trkpt>
      <trkpt lat="14.44252" lon="-60.90722">
        <ele>13.6</ele>
        <time>2016-12-05T15:30:33Z</time>
      </trkpt>
      <trkpt lat="14.44224" lon="-60.9073">
        <ele>12.63</ele>
        <time>2016-12-05T15:30:58Z</time>
      </trkpt>
      <trkpt lat="14.44203" lon="-60.90731">
        <ele>12.63</ele>
        <time>2016-12-05T15:31:24Z</time>
      </trkpt>
      <trkpt lat="14.44187" lon="-60.90727">
        <ele>13.12</ele>
        <time>2016-12-05T15:31:50Z</time>
      </trkpt>
      <trkpt lat="14.44172" lon="-60.90721">
        <ele>12.15</ele>
        <time>2016-12-05T15:32:18Z</time>
      </trkpt>
      <trkpt lat="14.4416" lon="-60.90708">
        <ele>11.67</ele>
        <time>2016-12-05T15:32:44Z</time>
      </trkpt>
      <trkpt lat="14.44156" lon="-60.907">
        <ele>12.15</ele>
        <time>2016-12-05T15:32:53Z</time>
      </trkpt>
      <trkpt lat="14.44135" lon="-60.90672">
        <ele>12.15</ele>
        <time>2016-12-05T15:33:22Z</time>
      </trkpt>
      <trkpt lat="14.44101" lon="-60.90668">
        <ele>12.15</ele>
        <time>2016-12-05T15:33:37Z</time>
      </trkpt>
      <trkpt lat="14.44076" lon="-60.90705">
        <ele>11.67</ele>
        <time>2016-12-05T15:33:54Z</time>
      </trkpt>
      <trkpt lat="14.44037" lon="-60.90747">
        <ele>12.15</ele>
        <time>2016-12-05T15:34:15Z</time>
      </trkpt>
      <trkpt lat="14.43984" lon="-60.90772">
        <ele>13.12</ele>
        <time>2016-12-05T15:34:37Z</time>
      </trkpt>
      <trkpt lat="14.43914" lon="-60.90793">
        <ele>12.63</ele>
        <time>2016-12-05T15:35:05Z</time>
      </trkpt>
      <trkpt lat="14.4386" lon="-60.90791">
        <ele>12.15</ele>
        <time>2016-12-05T15:35:26Z</time>
      </trkpt>
      <trkpt lat="14.43805" lon="-60.908">
        <ele>12.63</ele>
        <time>2016-12-05T15:35:47Z</time>
      </trkpt>
      <trkpt lat="14.43761" lon="-60.90824">
        <ele>12.15</ele>
        <time>2016-12-05T15:36:08Z</time>
      </trkpt>
      <trkpt lat="14.43718" lon="-60.90859">
        <ele>12.63</ele>
        <time>2016-12-05T15:36:36Z</time>
      </trkpt>
      <trkpt lat="14.4366" lon="-60.90879">
        <ele>13.12</ele>
        <time>2016-12-05T15:37:00Z</time>
      </trkpt>
      <trkpt lat="14.43594" lon="-60.90893">
        <ele>12.63</ele>
        <time>2016-12-05T15:37:25Z</time>
      </trkpt>
      <trkpt lat="14.43565" lon="-60.90918">
        <ele>13.12</ele>
        <time>2016-12-05T15:37:41Z</time>
      </trkpt>
      <trkpt lat="14.43532" lon="-60.90928">
        <ele>12.63</ele>
        <time>2016-12-05T15:38:00Z</time>
      </trkpt>
      <trkpt lat="14.4348" lon="-60.90936">
        <ele>12.15</ele>
        <time>2016-12-05T15:38:24Z</time>
      </trkpt>
      <trkpt lat="14.43416" lon="-60.9095">
        <ele>11.19</ele>
        <time>2016-12-05T15:38:48Z</time>
      </trkpt>
      <trkpt lat="14.43355" lon="-60.90966">
        <ele>11.19</ele>
        <time>2016-12-05T15:39:14Z</time>
      </trkpt>
      <trkpt lat="14.43307" lon="-60.9098">
        <ele>10.71</ele>
        <time>2016-12-05T15:39:36Z</time>
      </trkpt>
      <trkpt lat="14.43254" lon="-60.90993">
        <ele>11.19</ele>
        <time>2016-12-05T15:39:58Z</time>
      </trkpt>
      <trkpt lat="14.43196" lon="-60.91005">
        <ele>10.71</ele>
        <time>2016-12-05T15:40:20Z</time>
      </trkpt>
      <trkpt lat="14.43127" lon="-60.91023">
        <ele>10.71</ele>
        <time>2016-12-05T15:40:46Z</time>
      </trkpt>
      <trkpt lat="14.43064" lon="-60.91042">
        <ele>10.71</ele>
        <time>2016-12-05T15:41:12Z</time>
      </trkpt>
      <trkpt lat="14.43011" lon="-60.91059">
        <ele>10.23</ele>
        <time>2016-12-05T15:41:35Z</time>
      </trkpt>
      <trkpt lat="14.42969" lon="-60.91077">
        <ele>10.71</ele>
        <time>2016-12-05T15:41:55Z</time>
      </trkpt>
      <trkpt lat="14.42917" lon="-60.91097">
        <ele>10.71</ele>
        <time>2016-12-05T15:42:20Z</time>
      </trkpt>
      <trkpt lat="14.42869" lon="-60.91115">
        <ele>11.19</ele>
        <time>2016-12-05T15:42:44Z</time>
      </trkpt>
      <trkpt lat="14.42821" lon="-60.91133">
        <ele>11.67</ele>
        <time>2016-12-05T15:43:08Z</time>
      </trkpt>
      <trkpt lat="14.42777" lon="-60.91151">
        <ele>11.67</ele>
        <time>2016-12-05T15:43:31Z</time>
      </trkpt>
      <trkpt lat="14.42733" lon="-60.91169">
        <ele>11.67</ele>
        <time>2016-12-05T15:43:53Z</time>
      </trkpt>
      <trkpt lat="14.42681" lon="-60.91187">
        <ele>11.19</ele>
        <time>2016-12-05T15:44:18Z</time>
      </trkpt>
      <trkpt lat="14.42636" lon="-60.91205">
        <ele>10.71</ele>
        <time>2016-12-05T15:44:40Z</time>
      </trkpt>
      <trkpt lat="14.4259" lon="-60.91224">
        <ele>10.71</ele>
        <time>2016-12-05T15:45:03Z</time>
      </trkpt>
      <trkpt lat="14.42543" lon="-60.91242">
        <ele>10.71</ele>
        <time>2016-12-05T15:45:26Z</time>
      </trkpt>
      <trkpt lat="14.42492" lon="-60.91263">
        <ele>10.23</ele>
        <time>2016-12-05T15:45:49Z</time>
      </trkpt>
      <trkpt lat="14.42437" lon="-60.91284">
        <ele>10.23</ele>
        <time>2016-12-05T15:46:10Z</time>
      </trkpt>
      <trkpt lat="14.42384" lon="-60.91292">
        <ele>9.75</ele>
        <time>2016-12-05T15:46:29Z</time>
      </trkpt>
      <trkpt lat="14.42324" lon="-60.91299">
        <ele>10.71</ele>
        <time>2016-12-05T15:46:50Z</time>
      </trkpt>
      <trkpt lat="14.42269" lon="-60.91305">
        <ele>11.19</ele>
        <time>2016-12-05T15:47:08Z</time>
      </trkpt>
      <trkpt lat="14.4221" lon="-60.91306">
        <ele>12.15</ele>
        <time>2016-12-05T15:47:28Z</time>
      </trkpt>
      <trkpt lat="14.42157" lon="-60.91309">
        <ele>12.63</ele>
        <time>2016-12-05T15:47:47Z</time>
      </trkpt>
      <trkpt lat="14.42105" lon="-60.91305">
        <ele>12.63</ele>
        <time>2016-12-05T15:48:07Z</time>
      </trkpt>
      <trkpt lat="14.42057" lon="-60.9131">
        <ele>11.67</ele>
        <time>2016-12-05T15:48:25Z</time>
      </trkpt>
      <trkpt lat="14.42009" lon="-60.91322">
        <ele>10.71</ele>
        <time>2016-12-05T15:48:44Z</time>
      </trkpt>
      <trkpt lat="14.41959" lon="-60.91336">
        <ele>10.71</ele>
        <time>2016-12-05T15:49:05Z</time>
      </trkpt>
      <trkpt lat="14.41918" lon="-60.91348">
        <ele>10.23</ele>
        <time>2016-12-05T15:49:24Z</time>
      </trkpt>
      <trkpt lat="14.41885" lon="-60.91358">
        <ele>9.75</ele>
        <time>2016-12-05T15:49:40Z</time>
      </trkpt>
      <trkpt lat="14.41859" lon="-60.91365">
        <ele>9.27</ele>
        <time>2016-12-05T15:49:53Z</time>
      </trkpt>
      <trkpt lat="14.41821" lon="-60.91375">
        <ele>8.31</ele>
        <time>2016-12-05T15:50:12Z</time>
      </trkpt>
      <trkpt lat="14.41783" lon="-60.91384">
        <ele>9.27</ele>
        <time>2016-12-05T15:50:31Z</time>
      </trkpt>
      <trkpt lat="14.41741" lon="-60.91394">
        <ele>9.27</ele>
        <time>2016-12-05T15:50:50Z</time>
      </trkpt>
      <trkpt lat="14.41703" lon="-60.91403">
        <ele>9.27</ele>
        <time>2016-12-05T15:51:08Z</time>
      </trkpt>
      <trkpt lat="14.41669" lon="-60.91412">
        <ele>9.75</ele>
        <time>2016-12-05T15:51:25Z</time>
      </trkpt>
      <trkpt lat="14.41631" lon="-60.91423">
        <ele>9.27</ele>
        <time>2016-12-05T15:51:41Z</time>
      </trkpt>
      <trkpt lat="14.41589" lon="-60.91431">
        <ele>9.75</ele>
        <time>2016-12-05T15:51:55Z</time>
      </trkpt>
      <trkpt lat="14.41533" lon="-60.91442">
        <ele>9.27</ele>
        <time>2016-12-05T15:52:12Z</time>
      </trkpt>
      <trkpt lat="14.41474" lon="-60.91453">
        <ele>9.75</ele>
        <time>2016-12-05T15:52:30Z</time>
      </trkpt>
      <trkpt lat="14.41417" lon="-60.91464">
        <ele>9.27</ele>
        <time>2016-12-05T15:52:47Z</time>
      </trkpt>
      <trkpt lat="14.4135" lon="-60.91478">
        <ele>9.27</ele>
        <time>2016-12-05T15:53:08Z</time>
      </trkpt>
      <trkpt lat="14.41291" lon="-60.91489">
        <ele>8.79</ele>
        <time>2016-12-05T15:53:27Z</time>
      </trkpt>
      <trkpt lat="14.41254" lon="-60.91496">
        <ele>8.79</ele>
        <time>2016-12-05T15:53:39Z</time>
      </trkpt>
      <trkpt lat="14.41208" lon="-60.91504">
        <ele>9.27</ele>
        <time>2016-12-05T15:53:54Z</time>
      </trkpt>
      <trkpt lat="14.41154" lon="-60.91513">
        <ele>9.27</ele>
        <time>2016-12-05T15:54:13Z</time>
      </trkpt>
      <trkpt lat="14.41117" lon="-60.91522">
        <ele>9.75</ele>
        <time>2016-12-05T15:54:28Z</time>
      </trkpt>
      <trkpt lat="14.41072" lon="-60.91532">
        <ele>9.27</ele>
        <time>2016-12-05T15:54:46Z</time>
      </trkpt>
      <trkpt lat="14.41029" lon="-60.91543">
        <ele>9.75</ele>
        <time>2016-12-05T15:55:04Z</time>
      </trkpt>
      <trkpt lat="14.40983" lon="-60.91553">
        <ele>10.23</ele>
        <time>2016-12-05T15:55:22Z</time>
      </trkpt>
      <trkpt lat="14.40935" lon="-60.91565">
        <ele>9.75</ele>
        <time>2016-12-05T15:55:40Z</time>
      </trkpt>
      <trkpt lat="14.40896" lon="-60.91574">
        <ele>9.75</ele>
        <time>2016-12-05T15:55:54Z</time>
      </trkpt>
      <trkpt lat="14.40853" lon="-60.91584">
        <ele>10.23</ele>
        <time>2016-12-05T15:56:09Z</time>
      </trkpt>
      <trkpt lat="14.40814" lon="-60.9159">
        <ele>9.27</ele>
        <time>2016-12-05T15:56:22Z</time>
      </trkpt>
      <trkpt lat="14.40775" lon="-60.91599">
        <ele>9.75</ele>
        <time>2016-12-05T15:56:37Z</time>
      </trkpt>
      <trkpt lat="14.40737" lon="-60.91607">
        <ele>9.75</ele>
        <time>2016-12-05T15:56:52Z</time>
      </trkpt>
      <trkpt lat="14.4069" lon="-60.91619">
        <ele>9.75</ele>
        <time>2016-12-05T15:57:10Z</time>
      </trkpt>
      <trkpt lat="14.40649" lon="-60.91627">
        <ele>9.75</ele>
        <time>2016-12-05T15:57:25Z</time>
      </trkpt>
      <trkpt lat="14.40601" lon="-60.91638">
        <ele>9.75</ele>
        <time>2016-12-05T15:57:44Z</time>
      </trkpt>
      <trkpt lat="14.40568" lon="-60.91645">
        <ele>9.75</ele>
        <time>2016-12-05T15:57:58Z</time>
      </trkpt>
      <trkpt lat="14.40523" lon="-60.91656">
        <ele>10.23</ele>
        <time>2016-12-05T15:58:17Z</time>
      </trkpt>
      <trkpt lat="14.40482" lon="-60.91664">
        <ele>10.23</ele>
        <time>2016-12-05T15:58:33Z</time>
      </trkpt>
      <trkpt lat="14.40438" lon="-60.91671">
        <ele>9.75</ele>
        <time>2016-12-05T15:58:50Z</time>
      </trkpt>
      <trkpt lat="14.40388" lon="-60.91682">
        <ele>9.75</ele>
        <time>2016-12-05T15:59:09Z</time>
      </trkpt>
      <trkpt lat="14.40351" lon="-60.9169">
        <ele>9.27</ele>
        <time>2016-12-05T15:59:24Z</time>
      </trkpt>
      <trkpt lat="14.40311" lon="-60.917">
        <ele>9.27</ele>
        <time>2016-12-05T15:59:41Z</time>
      </trkpt>
      <trkpt lat="14.40279" lon="-60.9171">
        <ele>9.27</ele>
        <time>2016-12-05T15:59:55Z</time>
      </trkpt>
      <trkpt lat="14.40241" lon="-60.91717">
        <ele>9.27</ele>
        <time>2016-12-05T16:00:09Z</time>
      </trkpt>
      <trkpt lat="14.40204" lon="-60.91724">
        <ele>8.79</ele>
        <time>2016-12-05T16:00:21Z</time>
      </trkpt>
      <trkpt lat="14.4014" lon="-60.91735">
        <ele>9.27</ele>
        <time>2016-12-05T16:00:39Z</time>
      </trkpt>
      <trkpt lat="14.4008" lon="-60.91744">
        <ele>9.27</ele>
        <time>2016-12-05T16:00:56Z</time>
      </trkpt>
      <trkpt lat="14.40036" lon="-60.91751">
        <ele>9.27</ele>
        <time>2016-12-05T16:01:09Z</time>
      </trkpt>
      <trkpt lat="14.39976" lon="-60.9176">
        <ele>9.27</ele>
        <time>2016-12-05T16:01:26Z</time>
      </trkpt>
      <trkpt lat="14.39926" lon="-60.91767">
        <ele>9.27</ele>
        <time>2016-12-05T16:01:41Z</time>
      </trkpt>
      <trkpt lat="14.39878" lon="-60.91775">
        <ele>8.79</ele>
        <time>2016-12-05T16:01:55Z</time>
      </trkpt>
      <trkpt lat="14.39804" lon="-60.91785">
        <ele>9.27</ele>
        <time>2016-12-05T16:02:16Z</time>
      </trkpt>
      <trkpt lat="14.39754" lon="-60.91793">
        <ele>8.79</ele>
        <time>2016-12-05T16:02:30Z</time>
      </trkpt>
      <trkpt lat="14.39709" lon="-60.91799">
        <ele>9.27</ele>
        <time>2016-12-05T16:02:43Z</time>
      </trkpt>
      <trkpt lat="14.39657" lon="-60.91807">
        <ele>9.75</ele>
        <time>2016-12-05T16:02:59Z</time>
      </trkpt>
      <trkpt lat="14.39609" lon="-60.91815">
        <ele>9.75</ele>
        <time>2016-12-05T16:03:14Z</time>
      </trkpt>
      <trkpt lat="14.3956" lon="-60.91822">
        <ele>10.23</ele>
        <time>2016-12-05T16:03:31Z</time>
      </trkpt>
      <trkpt lat="14.39514" lon="-60.91829">
        <ele>9.75</ele>
        <time>2016-12-05T16:03:47Z</time>
      </trkpt>
      <trkpt lat="14.3946" lon="-60.91837">
        <ele>10.23</ele>
        <time>2016-12-05T16:04:05Z</time>
      </trkpt>
      <trkpt lat="14.39415" lon="-60.91846">
        <ele>9.75</ele>
        <time>2016-12-05T16:04:19Z</time>
      </trkpt>
      <trkpt lat="14.39371" lon="-60.91854">
        <ele>9.75</ele>
        <time>2016-12-05T16:04:32Z</time>
      </trkpt>
      <trkpt lat="14.39312" lon="-60.91866">
        <ele>8.79</ele>
        <time>2016-12-05T16:04:50Z</time>
      </trkpt>
      <trkpt lat="14.39258" lon="-60.91874">
        <ele>9.27</ele>
        <time>2016-12-05T16:05:07Z</time>
      </trkpt>
      <trkpt lat="14.392" lon="-60.91883">
        <ele>9.27</ele>
        <time>2016-12-05T16:05:24Z</time>
      </trkpt>
      <trkpt lat="14.39147" lon="-60.91894">
        <ele>9.27</ele>
        <time>2016-12-05T16:05:39Z</time>
      </trkpt>
      <trkpt lat="14.39098" lon="-60.91903">
        <ele>8.79</ele>
        <time>2016-12-05T16:05:53Z</time>
      </trkpt>
      <trkpt lat="14.39033" lon="-60.91917">
        <ele>8.79</ele>
        <time>2016-12-05T16:06:12Z</time>
      </trkpt>
      <trkpt lat="14.38989" lon="-60.91924">
        <ele>8.79</ele>
        <time>2016-12-05T16:06:25Z</time>
      </trkpt>
      <trkpt lat="14.38945" lon="-60.91931">
        <ele>8.79</ele>
        <time>2016-12-05T16:06:38Z</time>
      </trkpt>
      <trkpt lat="14.38889" lon="-60.9194">
        <ele>8.79</ele>
        <time>2016-12-05T16:06:55Z</time>
      </trkpt>
      <trkpt lat="14.38849" lon="-60.91947">
        <ele>8.79</ele>
        <time>2016-12-05T16:07:07Z</time>
      </trkpt>
      <trkpt lat="14.38798" lon="-60.91956">
        <ele>8.79</ele>
        <time>2016-12-05T16:07:23Z</time>
      </trkpt>
      <trkpt lat="14.38748" lon="-60.91966">
        <ele>9.27</ele>
        <time>2016-12-05T16:07:39Z</time>
      </trkpt>
      <trkpt lat="14.3869" lon="-60.91976">
        <ele>9.27</ele>
        <time>2016-12-05T16:07:57Z</time>
      </trkpt>
      <trkpt lat="14.3864" lon="-60.91984">
        <ele>9.75</ele>
        <time>2016-12-05T16:08:13Z</time>
      </trkpt>
      <trkpt lat="14.38594" lon="-60.91992">
        <ele>9.27</ele>
        <time>2016-12-05T16:08:27Z</time>
      </trkpt>
      <trkpt lat="14.3854" lon="-60.92002">
        <ele>8.79</ele>
        <time>2016-12-05T16:08:43Z</time>
      </trkpt>
      <trkpt lat="14.38481" lon="-60.92016">
        <ele>8.79</ele>
        <time>2016-12-05T16:09:01Z</time>
      </trkpt>
      <trkpt lat="14.38418" lon="-60.92031">
        <ele>8.79</ele>
        <time>2016-12-05T16:09:20Z</time>
      </trkpt>
      <trkpt lat="14.38363" lon="-60.92045">
        <ele>8.79</ele>
        <time>2016-12-05T16:09:36Z</time>
      </trkpt>
      <trkpt lat="14.38309" lon="-60.9206">
        <ele>8.79</ele>
        <time>2016-12-05T16:09:52Z</time>
      </trkpt>
      <trkpt lat="14.38249" lon="-60.92076">
        <ele>9.27</ele>
        <time>2016-12-05T16:10:10Z</time>
      </trkpt>
      <trkpt lat="14.38192" lon="-60.9209">
        <ele>9.27</ele>
        <time>2016-12-05T16:10:27Z</time>
      </trkpt>
      <trkpt lat="14.38134" lon="-60.92106">
        <ele>9.27</ele>
        <time>2016-12-05T16:10:45Z</time>
      </trkpt>
      <trkpt lat="14.38082" lon="-60.9212">
        <ele>9.75</ele>
        <time>2016-12-05T16:11:01Z</time>
      </trkpt>
      <trkpt lat="14.38032" lon="-60.92134">
        <ele>8.79</ele>
        <time>2016-12-05T16:11:16Z</time>
      </trkpt>
      <trkpt lat="14.37975" lon="-60.92149">
        <ele>8.79</ele>
        <time>2016-12-05T16:11:33Z</time>
      </trkpt>
      <trkpt lat="14.37923" lon="-60.92163">
        <ele>9.27</ele>
        <time>2016-12-05T16:11:49Z</time>
      </trkpt>
      <trkpt lat="14.37871" lon="-60.92178">
        <ele>8.79</ele>
        <time>2016-12-05T16:12:05Z</time>
      </trkpt>
      <trkpt lat="14.37819" lon="-60.92192">
        <ele>8.31</ele>
        <time>2016-12-05T16:12:21Z</time>
      </trkpt>
      <trkpt lat="14.37768" lon="-60.92206">
        <ele>8.31</ele>
        <time>2016-12-05T16:12:37Z</time>
      </trkpt>
      <trkpt lat="14.37709" lon="-60.92223">
        <ele>8.79</ele>
        <time>2016-12-05T16:12:56Z</time>
      </trkpt>
      <trkpt lat="14.37661" lon="-60.92235">
        <ele>8.31</ele>
        <time>2016-12-05T16:13:12Z</time>
      </trkpt>
      <trkpt lat="14.37603" lon="-60.92252">
        <ele>8.31</ele>
        <time>2016-12-05T16:13:33Z</time>
      </trkpt>
      <trkpt lat="14.37559" lon="-60.92267">
        <ele>8.79</ele>
        <time>2016-12-05T16:13:50Z</time>
      </trkpt>
      <trkpt lat="14.37515" lon="-60.92283">
        <ele>8.79</ele>
        <time>2016-12-05T16:14:07Z</time>
      </trkpt>
      <trkpt lat="14.37472" lon="-60.92297">
        <ele>8.31</ele>
        <time>2016-12-05T16:14:22Z</time>
      </trkpt>
      <trkpt lat="14.37419" lon="-60.92315">
        <ele>8.79</ele>
        <time>2016-12-05T16:14:40Z</time>
      </trkpt>
      <trkpt lat="14.37371" lon="-60.92331">
        <ele>8.31</ele>
        <time>2016-12-05T16:14:55Z</time>
      </trkpt>
      <trkpt lat="14.37316" lon="-60.92349">
        <ele>7.83</ele>
        <time>2016-12-05T16:15:13Z</time>
      </trkpt>
      <trkpt lat="14.37261" lon="-60.92366">
        <ele>8.79</ele>
        <time>2016-12-05T16:15:31Z</time>
      </trkpt>
      <trkpt lat="14.37213" lon="-60.92381">
        <ele>8.79</ele>
        <time>2016-12-05T16:15:47Z</time>
      </trkpt>
      <trkpt lat="14.37167" lon="-60.92395">
        <ele>8.79</ele>
        <time>2016-12-05T16:16:03Z</time>
      </trkpt>
      <trkpt lat="14.37118" lon="-60.92411">
        <ele>8.79</ele>
        <time>2016-12-05T16:16:19Z</time>
      </trkpt>
      <trkpt lat="14.37056" lon="-60.92432">
        <ele>9.75</ele>
        <time>2016-12-05T16:16:38Z</time>
      </trkpt>
      <trkpt lat="14.37007" lon="-60.92447">
        <ele>10.23</ele>
        <time>2016-12-05T16:16:53Z</time>
      </trkpt>
      <trkpt lat="14.36948" lon="-60.92466">
        <ele>10.23</ele>
        <time>2016-12-05T16:17:11Z</time>
      </trkpt>
      <trkpt lat="14.36895" lon="-60.92482">
        <ele>10.23</ele>
        <time>2016-12-05T16:17:27Z</time>
      </trkpt>
      <trkpt lat="14.36841" lon="-60.92501">
        <ele>11.19</ele>
        <time>2016-12-05T16:17:44Z</time>
      </trkpt>
      <trkpt lat="14.36796" lon="-60.92516">
        <ele>11.67</ele>
        <time>2016-12-05T16:17:58Z</time>
      </trkpt>
      <trkpt lat="14.36744" lon="-60.92532">
        <ele>11.67</ele>
        <time>2016-12-05T16:18:14Z</time>
      </trkpt>
      <trkpt lat="14.36682" lon="-60.92554">
        <ele>12.15</ele>
        <time>2016-12-05T16:18:34Z</time>
      </trkpt>
      <trkpt lat="14.36632" lon="-60.92569">
        <ele>12.15</ele>
        <time>2016-12-05T16:18:50Z</time>
      </trkpt>
      <trkpt lat="14.3659" lon="-60.92582">
        <ele>12.15</ele>
        <time>2016-12-05T16:19:04Z</time>
      </trkpt>
      <trkpt lat="14.36548" lon="-60.92596">
        <ele>12.63</ele>
        <time>2016-12-05T16:19:18Z</time>
      </trkpt>
      <trkpt lat="14.36507" lon="-60.92608">
        <ele>11.67</ele>
        <time>2016-12-05T16:19:31Z</time>
      </trkpt>
      <trkpt lat="14.36455" lon="-60.92624">
        <ele>11.19</ele>
        <time>2016-12-05T16:19:47Z</time>
      </trkpt>
      <trkpt lat="14.36401" lon="-60.9264">
        <ele>11.19</ele>
        <time>2016-12-05T16:20:03Z</time>
      </trkpt>
      <trkpt lat="14.3635" lon="-60.92655">
        <ele>11.19</ele>
        <time>2016-12-05T16:20:18Z</time>
      </trkpt>
      <trkpt lat="14.36307" lon="-60.92668">
        <ele>10.71</ele>
        <time>2016-12-05T16:20:31Z</time>
      </trkpt>
      <trkpt lat="14.36249" lon="-60.92686">
        <ele>10.23</ele>
        <time>2016-12-05T16:20:49Z</time>
      </trkpt>
      <trkpt lat="14.36192" lon="-60.92706">
        <ele>11.19</ele>
        <time>2016-12-05T16:21:07Z</time>
      </trkpt>
      <trkpt lat="14.36146" lon="-60.92722">
        <ele>11.19</ele>
        <time>2016-12-05T16:21:22Z</time>
      </trkpt>
      <trkpt lat="14.36096" lon="-60.92739">
        <ele>11.67</ele>
        <time>2016-12-05T16:21:38Z</time>
      </trkpt>
      <trkpt lat="14.36038" lon="-60.92756">
        <ele>11.67</ele>
        <time>2016-12-05T16:21:56Z</time>
      </trkpt>
      <trkpt lat="14.35983" lon="-60.92777">
        <ele>12.15</ele>
        <time>2016-12-05T16:22:13Z</time>
      </trkpt>
      <trkpt lat="14.35932" lon="-60.92794">
        <ele>12.63</ele>
        <time>2016-12-05T16:22:29Z</time>
      </trkpt>
      <trkpt lat="14.35882" lon="-60.92813">
        <ele>13.12</ele>
        <time>2016-12-05T16:22:45Z</time>
      </trkpt>
      <trkpt lat="14.35838" lon="-60.92826">
        <ele>12.63</ele>
        <time>2016-12-05T16:22:59Z</time>
      </trkpt>
      <trkpt lat="14.35782" lon="-60.92845">
        <ele>13.6</ele>
        <time>2016-12-05T16:23:17Z</time>
      </trkpt>
      <trkpt lat="14.3573" lon="-60.92861">
        <ele>13.6</ele>
        <time>2016-12-05T16:23:34Z</time>
      </trkpt>
      <trkpt lat="14.3568" lon="-60.92878">
        <ele>13.6</ele>
        <time>2016-12-05T16:23:51Z</time>
      </trkpt>
      <trkpt lat="14.35631" lon="-60.92895">
        <ele>12.63</ele>
        <time>2016-12-05T16:24:07Z</time>
      </trkpt>
      <trkpt lat="14.35562" lon="-60.92919">
        <ele>13.6</ele>
        <time>2016-12-05T16:24:28Z</time>
      </trkpt>
      <trkpt lat="14.35501" lon="-60.92943">
        <ele>13.12</ele>
        <time>2016-12-05T16:24:47Z</time>
      </trkpt>
      <trkpt lat="14.35446" lon="-60.92961">
        <ele>13.12</ele>
        <time>2016-12-05T16:25:04Z</time>
      </trkpt>
      <trkpt lat="14.35391" lon="-60.9298">
        <ele>13.6</ele>
        <time>2016-12-05T16:25:21Z</time>
      </trkpt>
      <trkpt lat="14.35335" lon="-60.93003">
        <ele>13.6</ele>
        <time>2016-12-05T16:25:39Z</time>
      </trkpt>
      <trkpt lat="14.35287" lon="-60.93022">
        <ele>13.6</ele>
        <time>2016-12-05T16:25:56Z</time>
      </trkpt>
      <trkpt lat="14.3524" lon="-60.9304">
        <ele>13.6</ele>
        <time>2016-12-05T16:26:13Z</time>
      </trkpt>
      <trkpt lat="14.35196" lon="-60.93056">
        <ele>13.6</ele>
        <time>2016-12-05T16:26:29Z</time>
      </trkpt>
      <trkpt lat="14.35147" lon="-60.93073">
        <ele>13.6</ele>
        <time>2016-12-05T16:26:46Z</time>
      </trkpt>
      <trkpt lat="14.35097" lon="-60.93094">
        <ele>14.08</ele>
        <time>2016-12-05T16:27:03Z</time>
      </trkpt>
      <trkpt lat="14.35059" lon="-60.93108">
        <ele>14.56</ele>
        <time>2016-12-05T16:27:16Z</time>
      </trkpt>
      <trkpt lat="14.35" lon="-60.93132">
        <ele>15.04</ele>
        <time>2016-12-05T16:27:36Z</time>
      </trkpt>
      <trkpt lat="14.34951" lon="-60.93151">
        <ele>15.04</ele>
        <time>2016-12-05T16:27:52Z</time>
      </trkpt>
      <trkpt lat="14.34887" lon="-60.93176">
        <ele>15.52</ele>
        <time>2016-12-05T16:28:12Z</time>
      </trkpt>
      <trkpt lat="14.34827" lon="-60.93198">
        <ele>16</ele>
        <time>2016-12-05T16:28:30Z</time>
      </trkpt>
      <trkpt lat="14.3477" lon="-60.93219">
        <ele>16</ele>
        <time>2016-12-05T16:28:47Z</time>
      </trkpt>
      <trkpt lat="14.34712" lon="-60.93243">
        <ele>16</ele>
        <time>2016-12-05T16:29:05Z</time>
      </trkpt>
      <trkpt lat="14.34658" lon="-60.93261">
        <ele>14.56</ele>
        <time>2016-12-05T16:29:21Z</time>
      </trkpt>
      <trkpt lat="14.34601" lon="-60.93282">
        <ele>14.56</ele>
        <time>2016-12-05T16:29:38Z</time>
      </trkpt>
      <trkpt lat="14.3454" lon="-60.93305">
        <ele>14.56</ele>
        <time>2016-12-05T16:29:56Z</time>
      </trkpt>
      <trkpt lat="14.34487" lon="-60.93324">
        <ele>14.08</ele>
        <time>2016-12-05T16:30:12Z</time>
      </trkpt>
      <trkpt lat="14.34431" lon="-60.93344">
        <ele>13.6</ele>
        <time>2016-12-05T16:30:29Z</time>
      </trkpt>
      <trkpt lat="14.3437" lon="-60.93367">
        <ele>13.6</ele>
        <time>2016-12-05T16:30:48Z</time>
      </trkpt>
      <trkpt lat="14.34315" lon="-60.93387">
        <ele>13.6</ele>
        <time>2016-12-05T16:31:06Z</time>
      </trkpt>
      <trkpt lat="14.34267" lon="-60.93403">
        <ele>13.12</ele>
        <time>2016-12-05T16:31:22Z</time>
      </trkpt>
      <trkpt lat="14.3423" lon="-60.93416">
        <ele>13.12</ele>
        <time>2016-12-05T16:31:34Z</time>
      </trkpt>
      <trkpt lat="14.34185" lon="-60.93433">
        <ele>12.63</ele>
        <time>2016-12-05T16:31:49Z</time>
      </trkpt>
      <trkpt lat="14.3414" lon="-60.93452">
        <ele>13.6</ele>
        <time>2016-12-05T16:32:05Z</time>
      </trkpt>
      <trkpt lat="14.3409" lon="-60.93471">
        <ele>13.6</ele>
        <time>2016-12-05T16:32:22Z</time>
      </trkpt>
      <trkpt lat="14.34031" lon="-60.93493">
        <ele>13.6</ele>
        <time>2016-12-05T16:32:41Z</time>
      </trkpt>
      <trkpt lat="14.33981" lon="-60.93513">
        <ele>13.6</ele>
        <time>2016-12-05T16:32:58Z</time>
      </trkpt>
      <trkpt lat="14.33936" lon="-60.9353">
        <ele>14.08</ele>
        <time>2016-12-05T16:33:13Z</time>
      </trkpt>
      <trkpt lat="14.33888" lon="-60.9355">
        <ele>14.56</ele>
        <time>2016-12-05T16:33:29Z</time>
      </trkpt>
      <trkpt lat="14.33828" lon="-60.93573">
        <ele>14.56</ele>
        <time>2016-12-05T16:33:48Z</time>
      </trkpt>
      <trkpt lat="14.33777" lon="-60.93596">
        <ele>14.56</ele>
        <time>2016-12-05T16:34:04Z</time>
      </trkpt>
      <trkpt lat="14.33725" lon="-60.93619">
        <ele>15.52</ele>
        <time>2016-12-05T16:34:20Z</time>
      </trkpt>
      <trkpt lat="14.33672" lon="-60.93642">
        <ele>14.56</ele>
        <time>2016-12-05T16:34:36Z</time>
      </trkpt>
      <trkpt lat="14.3361" lon="-60.93669">
        <ele>14.56</ele>
        <time>2016-12-05T16:34:55Z</time>
      </trkpt>
      <trkpt lat="14.33554" lon="-60.93692">
        <ele>14.08</ele>
        <time>2016-12-05T16:35:12Z</time>
      </trkpt>
      <trkpt lat="14.33498" lon="-60.93716">
        <ele>14.56</ele>
        <time>2016-12-05T16:35:29Z</time>
      </trkpt>
      <trkpt lat="14.33442" lon="-60.93741">
        <ele>14.08</ele>
        <time>2016-12-05T16:35:46Z</time>
      </trkpt>
      <trkpt lat="14.33383" lon="-60.93766">
        <ele>14.56</ele>
        <time>2016-12-05T16:36:04Z</time>
      </trkpt>
      <trkpt lat="14.33327" lon="-60.93789">
        <ele>15.04</ele>
        <time>2016-12-05T16:36:21Z</time>
      </trkpt>
      <trkpt lat="14.33273" lon="-60.93811">
        <ele>14.56</ele>
        <time>2016-12-05T16:36:37Z</time>
      </trkpt>
      <trkpt lat="14.33219" lon="-60.93833">
        <ele>14.56</ele>
        <time>2016-12-05T16:36:53Z</time>
      </trkpt>
      <trkpt lat="14.33165" lon="-60.93856">
        <ele>14.56</ele>
        <time>2016-12-05T16:37:09Z</time>
      </trkpt>
      <trkpt lat="14.3311" lon="-60.9388">
        <ele>14.56</ele>
        <time>2016-12-05T16:37:25Z</time>
      </trkpt>
      <trkpt lat="14.33056" lon="-60.93906">
        <ele>14.56</ele>
        <time>2016-12-05T16:37:41Z</time>
      </trkpt>
      <trkpt lat="14.33005" lon="-60.93928">
        <ele>15.04</ele>
        <time>2016-12-05T16:37:56Z</time>
      </trkpt>
      <trkpt lat="14.32949" lon="-60.93953">
        <ele>15.52</ele>
        <time>2016-12-05T16:38:13Z</time>
      </trkpt>
      <trkpt lat="14.32883" lon="-60.93978">
        <ele>14.08</ele>
        <time>2016-12-05T16:38:32Z</time>
      </trkpt>
      <trkpt lat="14.32827" lon="-60.93997">
        <ele>14.08</ele>
        <time>2016-12-05T16:38:48Z</time>
      </trkpt>
      <trkpt lat="14.32781" lon="-60.94011">
        <ele>13.12</ele>
        <time>2016-12-05T16:39:01Z</time>
      </trkpt>
      <trkpt lat="14.32719" lon="-60.94034">
        <ele>13.6</ele>
        <time>2016-12-05T16:39:19Z</time>
      </trkpt>
      <trkpt lat="14.32662" lon="-60.94056">
        <ele>14.56</ele>
        <time>2016-12-05T16:39:36Z</time>
      </trkpt>
      <trkpt lat="14.32603" lon="-60.94077">
        <ele>13.6</ele>
        <time>2016-12-05T16:39:53Z</time>
      </trkpt>
      <trkpt lat="14.32548" lon="-60.94098">
        <ele>13.12</ele>
        <time>2016-12-05T16:40:09Z</time>
      </trkpt>
      <trkpt lat="14.3249" lon="-60.94116">
        <ele>12.63</ele>
        <time>2016-12-05T16:40:26Z</time>
      </trkpt>
      <trkpt lat="14.32433" lon="-60.94135">
        <ele>12.63</ele>
        <time>2016-12-05T16:40:43Z</time>
      </trkpt>
      <trkpt lat="14.32373" lon="-60.94154">
        <ele>12.15</ele>
        <time>2016-12-05T16:41:01Z</time>
      </trkpt>
      <trkpt lat="14.32322" lon="-60.94172">
        <ele>11.67</ele>
        <time>2016-12-05T16:41:17Z</time>
      </trkpt>
      <trkpt lat="14.32277" lon="-60.94189">
        <ele>11.67</ele>
        <time>2016-12-05T16:41:32Z</time>
      </trkpt>
      <trkpt lat="14.32231" lon="-60.94205">
        <ele>11.67</ele>
        <time>2016-12-05T16:41:47Z</time>
      </trkpt>
      <trkpt lat="14.32181" lon="-60.94223">
        <ele>11.19</ele>
        <time>2016-12-05T16:42:02Z</time>
      </trkpt>
      <trkpt lat="14.32126" lon="-60.94243">
        <ele>11.19</ele>
        <time>2016-12-05T16:42:19Z</time>
      </trkpt>
      <trkpt lat="14.32084" lon="-60.94258">
        <ele>11.67</ele>
        <time>2016-12-05T16:42:33Z</time>
      </trkpt>
      <trkpt lat="14.3203" lon="-60.94278">
        <ele>12.15</ele>
        <time>2016-12-05T16:42:51Z</time>
      </trkpt>
      <trkpt lat="14.31965" lon="-60.94303">
        <ele>12.15</ele>
        <time>2016-12-05T16:43:13Z</time>
      </trkpt>
      <trkpt lat="14.31913" lon="-60.94319">
        <ele>12.15</ele>
        <time>2016-12-05T16:43:29Z</time>
      </trkpt>
      <trkpt lat="14.31868" lon="-60.94337">
        <ele>12.15</ele>
        <time>2016-12-05T16:43:43Z</time>
      </trkpt>
      <trkpt lat="14.31808" lon="-60.9436">
        <ele>12.15</ele>
        <time>2016-12-05T16:44:02Z</time>
      </trkpt>
      <trkpt lat="14.31757" lon="-60.94378">
        <ele>12.15</ele>
        <time>2016-12-05T16:44:18Z</time>
      </trkpt>
      <trkpt lat="14.31693" lon="-60.944">
        <ele>11.67</ele>
        <time>2016-12-05T16:44:37Z</time>
      </trkpt>
      <trkpt lat="14.31641" lon="-60.94418">
        <ele>10.71</ele>
        <time>2016-12-05T16:44:52Z</time>
      </trkpt>
      <trkpt lat="14.31594" lon="-60.94435">
        <ele>10.23</ele>
        <time>2016-12-05T16:45:06Z</time>
      </trkpt>
      <trkpt lat="14.31542" lon="-60.94456">
        <ele>10.23</ele>
        <time>2016-12-05T16:45:22Z</time>
      </trkpt>
      <trkpt lat="14.31491" lon="-60.94473">
        <ele>10.23</ele>
        <time>2016-12-05T16:45:37Z</time>
      </trkpt>
      <trkpt lat="14.31426" lon="-60.94494">
        <ele>8.31</ele>
        <time>2016-12-05T16:45:56Z</time>
      </trkpt>
      <trkpt lat="14.31367" lon="-60.94513">
        <ele>8.31</ele>
        <time>2016-12-05T16:46:13Z</time>
      </trkpt>
      <trkpt lat="14.31318" lon="-60.94531">
        <ele>8.31</ele>
        <time>2016-12-05T16:46:27Z</time>
      </trkpt>
      <trkpt lat="14.31289" lon="-60.94541">
        <ele>9.75</ele>
        <time>2016-12-05T16:46:35Z</time>
      </trkpt>
      <trkpt lat="14.31227" lon="-60.94564">
        <ele>10.23</ele>
        <time>2016-12-05T16:46:52Z</time>
      </trkpt>
      <trkpt lat="14.31164" lon="-60.94587">
        <ele>9.75</ele>
        <time>2016-12-05T16:47:10Z</time>
      </trkpt>
      <trkpt lat="14.3111" lon="-60.94606">
        <ele>7.83</ele>
        <time>2016-12-05T16:47:26Z</time>
      </trkpt>
      <trkpt lat="14.31061" lon="-60.94623">
        <ele>8.31</ele>
        <time>2016-12-05T16:47:40Z</time>
      </trkpt>
      <trkpt lat="14.31001" lon="-60.94644">
        <ele>8.79</ele>
        <time>2016-12-05T16:47:58Z</time>
      </trkpt>
      <trkpt lat="14.30954" lon="-60.94662">
        <ele>8.31</ele>
        <time>2016-12-05T16:48:12Z</time>
      </trkpt>
      <trkpt lat="14.30899" lon="-60.94681">
        <ele>7.35</ele>
        <time>2016-12-05T16:48:28Z</time>
      </trkpt>
      <trkpt lat="14.30838" lon="-60.94703">
        <ele>5.91</ele>
        <time>2016-12-05T16:48:46Z</time>
      </trkpt>
      <trkpt lat="14.30774" lon="-60.94725">
        <ele>6.39</ele>
        <time>2016-12-05T16:49:05Z</time>
      </trkpt>
      <trkpt lat="14.30716" lon="-60.94746">
        <ele>6.39</ele>
        <time>2016-12-05T16:49:22Z</time>
      </trkpt>
      <trkpt lat="14.30668" lon="-60.94761">
        <ele>7.35</ele>
        <time>2016-12-05T16:49:36Z</time>
      </trkpt>
      <trkpt lat="14.30617" lon="-60.94779">
        <ele>9.27</ele>
        <time>2016-12-05T16:49:51Z</time>
      </trkpt>
      <trkpt lat="14.30569" lon="-60.94796">
        <ele>8.31</ele>
        <time>2016-12-05T16:50:05Z</time>
      </trkpt>
      <trkpt lat="14.30513" lon="-60.94814">
        <ele>8.79</ele>
        <time>2016-12-05T16:50:22Z</time>
      </trkpt>
      <trkpt lat="14.3046" lon="-60.94831">
        <ele>8.79</ele>
        <time>2016-12-05T16:50:37Z</time>
      </trkpt>
      <trkpt lat="14.30416" lon="-60.94847">
        <ele>9.27</ele>
        <time>2016-12-05T16:50:50Z</time>
      </trkpt>
      <trkpt lat="14.30361" lon="-60.94866">
        <ele>8.79</ele>
        <time>2016-12-05T16:51:07Z</time>
      </trkpt>
      <trkpt lat="14.30309" lon="-60.94882">
        <ele>9.27</ele>
        <time>2016-12-05T16:51:23Z</time>
      </trkpt>
      <trkpt lat="14.30259" lon="-60.94899">
        <ele>8.79</ele>
        <time>2016-12-05T16:51:39Z</time>
      </trkpt>
      <trkpt lat="14.30211" lon="-60.94915">
        <ele>8.31</ele>
        <time>2016-12-05T16:51:55Z</time>
      </trkpt>
      <trkpt lat="14.30161" lon="-60.94931">
        <ele>7.83</ele>
        <time>2016-12-05T16:52:12Z</time>
      </trkpt>
      <trkpt lat="14.30114" lon="-60.94946">
        <ele>7.83</ele>
        <time>2016-12-05T16:52:29Z</time>
      </trkpt>
      <trkpt lat="14.30072" lon="-60.94961">
        <ele>8.31</ele>
        <time>2016-12-05T16:52:44Z</time>
      </trkpt>
      <trkpt lat="14.30026" lon="-60.94978">
        <ele>7.83</ele>
        <time>2016-12-05T16:53:00Z</time>
      </trkpt>
      <trkpt lat="14.29981" lon="-60.94993">
        <ele>8.31</ele>
        <time>2016-12-05T16:53:15Z</time>
      </trkpt>
      <trkpt lat="14.29923" lon="-60.95012">
        <ele>9.27</ele>
        <time>2016-12-05T16:53:34Z</time>
      </trkpt>
      <trkpt lat="14.29878" lon="-60.95028">
        <ele>8.79</ele>
        <time>2016-12-05T16:53:48Z</time>
      </trkpt>
      <trkpt lat="14.29821" lon="-60.95046">
        <ele>7.83</ele>
        <time>2016-12-05T16:54:05Z</time>
      </trkpt>
      <trkpt lat="14.29772" lon="-60.95061">
        <ele>8.31</ele>
        <time>2016-12-05T16:54:20Z</time>
      </trkpt>
      <trkpt lat="14.29716" lon="-60.95077">
        <ele>8.31</ele>
        <time>2016-12-05T16:54:37Z</time>
      </trkpt>
      <trkpt lat="14.29658" lon="-60.95095">
        <ele>8.31</ele>
        <time>2016-12-05T16:54:54Z</time>
      </trkpt>
      <trkpt lat="14.29605" lon="-60.95112">
        <ele>8.31</ele>
        <time>2016-12-05T16:55:09Z</time>
      </trkpt>
      <trkpt lat="14.29556" lon="-60.95127">
        <ele>8.31</ele>
        <time>2016-12-05T16:55:23Z</time>
      </trkpt>
      <trkpt lat="14.295" lon="-60.95146">
        <ele>8.79</ele>
        <time>2016-12-05T16:55:39Z</time>
      </trkpt>
      <trkpt lat="14.29452" lon="-60.95163">
        <ele>8.79</ele>
        <time>2016-12-05T16:55:53Z</time>
      </trkpt>
      <trkpt lat="14.29403" lon="-60.95179">
        <ele>8.79</ele>
        <time>2016-12-05T16:56:07Z</time>
      </trkpt>
      <trkpt lat="14.29355" lon="-60.95196">
        <ele>8.31</ele>
        <time>2016-12-05T16:56:21Z</time>
      </trkpt>
      <trkpt lat="14.29305" lon="-60.95214">
        <ele>8.31</ele>
        <time>2016-12-05T16:56:36Z</time>
      </trkpt>
      <trkpt lat="14.29258" lon="-60.95228">
        <ele>8.79</ele>
        <time>2016-12-05T16:56:50Z</time>
      </trkpt>
      <trkpt lat="14.29203" lon="-60.95245">
        <ele>8.79</ele>
        <time>2016-12-05T16:57:06Z</time>
      </trkpt>
      <trkpt lat="14.29154" lon="-60.9526">
        <ele>8.31</ele>
        <time>2016-12-05T16:57:20Z</time>
      </trkpt>
      <trkpt lat="14.29132" lon="-60.95266">
        <ele>7.83</ele>
        <time>2016-12-05T16:57:26Z</time>
      </trkpt>
      <trkpt lat="14.29077" lon="-60.95282">
        <ele>7.83</ele>
        <time>2016-12-05T16:57:41Z</time>
      </trkpt>
      <trkpt lat="14.29061" lon="-60.95288">
        <ele>7.35</ele>
        <time>2016-12-05T16:57:46Z</time>
      </trkpt>
      <trkpt lat="14.29004" lon="-60.95307">
        <ele>7.35</ele>
        <time>2016-12-05T16:58:02Z</time>
      </trkpt>
      <trkpt lat="14.28956" lon="-60.95323">
        <ele>7.35</ele>
        <time>2016-12-05T16:58:16Z</time>
      </trkpt>
      <trkpt lat="14.28912" lon="-60.95338">
        <ele>7.35</ele>
        <time>2016-12-05T16:58:29Z</time>
      </trkpt>
      <trkpt lat="14.28863" lon="-60.95353">
        <ele>6.87</ele>
        <time>2016-12-05T16:58:43Z</time>
      </trkpt>
      <trkpt lat="14.28807" lon="-60.9537">
        <ele>7.35</ele>
        <time>2016-12-05T16:58:59Z</time>
      </trkpt>
      <trkpt lat="14.2874" lon="-60.9539">
        <ele>7.35</ele>
        <time>2016-12-05T16:59:18Z</time>
      </trkpt>
      <trkpt lat="14.2868" lon="-60.95408">
        <ele>8.79</ele>
        <time>2016-12-05T16:59:35Z</time>
      </trkpt>
      <trkpt lat="14.28627" lon="-60.95428">
        <ele>8.79</ele>
        <time>2016-12-05T16:59:51Z</time>
      </trkpt>
      <trkpt lat="14.28587" lon="-60.95438">
        <ele>8.79</ele>
        <time>2016-12-05T17:00:03Z</time>
      </trkpt>
      <trkpt lat="14.28534" lon="-60.95447">
        <ele>9.27</ele>
        <time>2016-12-05T17:00:18Z</time>
      </trkpt>
      <trkpt lat="14.28476" lon="-60.95459">
        <ele>9.27</ele>
        <time>2016-12-05T17:00:34Z</time>
      </trkpt>
      <trkpt lat="14.28425" lon="-60.95471">
        <ele>9.27</ele>
        <time>2016-12-05T17:00:48Z</time>
      </trkpt>
      <trkpt lat="14.28359" lon="-60.95486">
        <ele>8.79</ele>
        <time>2016-12-05T17:01:06Z</time>
      </trkpt>
      <trkpt lat="14.28295" lon="-60.95503">
        <ele>8.79</ele>
        <time>2016-12-05T17:01:24Z</time>
      </trkpt>
      <trkpt lat="14.28246" lon="-60.95516">
        <ele>8.31</ele>
        <time>2016-12-05T17:01:38Z</time>
      </trkpt>
      <trkpt lat="14.282" lon="-60.95526">
        <ele>10.23</ele>
        <time>2016-12-05T17:01:51Z</time>
      </trkpt>
      <trkpt lat="14.28147" lon="-60.95539">
        <ele>8.79</ele>
        <time>2016-12-05T17:02:06Z</time>
      </trkpt>
      <trkpt lat="14.28097" lon="-60.9555">
        <ele>7.83</ele>
        <time>2016-12-05T17:02:20Z</time>
      </trkpt>
      <trkpt lat="14.28045" lon="-60.95562">
        <ele>7.83</ele>
        <time>2016-12-05T17:02:35Z</time>
      </trkpt>
      <trkpt lat="14.27992" lon="-60.95573">
        <ele>7.35</ele>
        <time>2016-12-05T17:02:50Z</time>
      </trkpt>
      <trkpt lat="14.27938" lon="-60.95588">
        <ele>7.35</ele>
        <time>2016-12-05T17:03:05Z</time>
      </trkpt>
      <trkpt lat="14.27884" lon="-60.95601">
        <ele>7.83</ele>
        <time>2016-12-05T17:03:20Z</time>
      </trkpt>
      <trkpt lat="14.27827" lon="-60.95614">
        <ele>6.87</ele>
        <time>2016-12-05T17:03:36Z</time>
      </trkpt>
      <trkpt lat="14.27762" lon="-60.95628">
        <ele>7.35</ele>
        <time>2016-12-05T17:03:54Z</time>
      </trkpt>
      <trkpt lat="14.27699" lon="-60.95642">
        <ele>7.35</ele>
        <time>2016-12-05T17:04:11Z</time>
      </trkpt>
      <trkpt lat="14.27644" lon="-60.95653">
        <ele>5.91</ele>
        <time>2016-12-05T17:04:26Z</time>
      </trkpt>
      <trkpt lat="14.27589" lon="-60.95665">
        <ele>5.91</ele>
        <time>2016-12-05T17:04:41Z</time>
      </trkpt>
      <trkpt lat="14.27536" lon="-60.9568">
        <ele>8.31</ele>
        <time>2016-12-05T17:04:56Z</time>
      </trkpt>
      <trkpt lat="14.27488" lon="-60.95691">
        <ele>9.75</ele>
        <time>2016-12-05T17:05:10Z</time>
      </trkpt>
      <trkpt lat="14.27439" lon="-60.95701">
        <ele>9.75</ele>
        <time>2016-12-05T17:05:24Z</time>
      </trkpt>
      <trkpt lat="14.27387" lon="-60.95711">
        <ele>9.27</ele>
        <time>2016-12-05T17:05:39Z</time>
      </trkpt>
      <trkpt lat="14.27326" lon="-60.95722">
        <ele>7.83</ele>
        <time>2016-12-05T17:05:56Z</time>
      </trkpt>
      <trkpt lat="14.27269" lon="-60.95736">
        <ele>7.83</ele>
        <time>2016-12-05T17:06:12Z</time>
      </trkpt>
      <trkpt lat="14.2721" lon="-60.95748">
        <ele>8.31</ele>
        <time>2016-12-05T17:06:28Z</time>
      </trkpt>
      <trkpt lat="14.27164" lon="-60.95759">
        <ele>7.35</ele>
        <time>2016-12-05T17:06:41Z</time>
      </trkpt>
      <trkpt lat="14.27118" lon="-60.95769">
        <ele>7.35</ele>
        <time>2016-12-05T17:06:54Z</time>
      </trkpt>
      <trkpt lat="14.2709" lon="-60.95775">
        <ele>6.87</ele>
        <time>2016-12-05T17:07:02Z</time>
      </trkpt>
      <trkpt lat="14.27036" lon="-60.95786">
        <ele>7.83</ele>
        <time>2016-12-05T17:07:17Z</time>
      </trkpt>
      <trkpt lat="14.26976" lon="-60.958">
        <ele>6.39</ele>
        <time>2016-12-05T17:07:34Z</time>
      </trkpt>
      <trkpt lat="14.26925" lon="-60.95812">
        <ele>6.87</ele>
        <time>2016-12-05T17:07:49Z</time>
      </trkpt>
      <trkpt lat="14.26872" lon="-60.95823">
        <ele>7.83</ele>
        <time>2016-12-05T17:08:04Z</time>
      </trkpt>
      <trkpt lat="14.26822" lon="-60.95833">
        <ele>7.35</ele>
        <time>2016-12-05T17:08:18Z</time>
      </trkpt>
      <trkpt lat="14.26772" lon="-60.95843">
        <ele>6.87</ele>
        <time>2016-12-05T17:08:32Z</time>
      </trkpt>
      <trkpt lat="14.26724" lon="-60.95853">
        <ele>6.39</ele>
        <time>2016-12-05T17:08:45Z</time>
      </trkpt>
      <trkpt lat="14.26669" lon="-60.95863">
        <ele>7.35</ele>
        <time>2016-12-05T17:09:00Z</time>
      </trkpt>
      <trkpt lat="14.26612" lon="-60.95876">
        <ele>8.31</ele>
        <time>2016-12-05T17:09:16Z</time>
      </trkpt>
      <trkpt lat="14.26558" lon="-60.95888">
        <ele>9.27</ele>
        <time>2016-12-05T17:09:31Z</time>
      </trkpt>
      <trkpt lat="14.26514" lon="-60.95897">
        <ele>9.75</ele>
        <time>2016-12-05T17:09:43Z</time>
      </trkpt>
      <trkpt lat="14.2646" lon="-60.95909">
        <ele>8.79</ele>
        <time>2016-12-05T17:09:58Z</time>
      </trkpt>
      <trkpt lat="14.26396" lon="-60.95925">
        <ele>8.31</ele>
        <time>2016-12-05T17:10:16Z</time>
      </trkpt>
      <trkpt lat="14.26346" lon="-60.95935">
        <ele>7.83</ele>
        <time>2016-12-05T17:10:30Z</time>
      </trkpt>
      <trkpt lat="14.26281" lon="-60.95948">
        <ele>8.31</ele>
        <time>2016-12-05T17:10:48Z</time>
      </trkpt>
      <trkpt lat="14.2623" lon="-60.9596">
        <ele>7.83</ele>
        <time>2016-12-05T17:11:02Z</time>
      </trkpt>
      <trkpt lat="14.26173" lon="-60.95973">
        <ele>8.31</ele>
        <time>2016-12-05T17:11:17Z</time>
      </trkpt>
      <trkpt lat="14.26116" lon="-60.95986">
        <ele>8.79</ele>
        <time>2016-12-05T17:11:33Z</time>
      </trkpt>
      <trkpt lat="14.26066" lon="-60.95997">
        <ele>8.79</ele>
        <time>2016-12-05T17:11:47Z</time>
      </trkpt>
      <trkpt lat="14.26015" lon="-60.96008">
        <ele>8.79</ele>
        <time>2016-12-05T17:12:01Z</time>
      </trkpt>
      <trkpt lat="14.25969" lon="-60.96018">
        <ele>9.27</ele>
        <time>2016-12-05T17:12:14Z</time>
      </trkpt>
      <trkpt lat="14.2592" lon="-60.9603">
        <ele>9.27</ele>
        <time>2016-12-05T17:12:28Z</time>
      </trkpt>
      <trkpt lat="14.25906" lon="-60.96034">
        <ele>9.75</ele>
        <time>2016-12-05T17:12:32Z</time>
      </trkpt>
      <trkpt lat="14.25877" lon="-60.9604">
        <ele>10.23</ele>
        <time>2016-12-05T17:12:40Z</time>
      </trkpt>
      <trkpt lat="14.2583" lon="-60.96049">
        <ele>8.79</ele>
        <time>2016-12-05T17:12:53Z</time>
      </trkpt>
      <trkpt lat="14.25787" lon="-60.9606">
        <ele>8.79</ele>
        <time>2016-12-05T17:13:05Z</time>
      </trkpt>
      <trkpt lat="14.25731" lon="-60.96073">
        <ele>8.79</ele>
        <time>2016-12-05T17:13:21Z</time>
      </trkpt>
      <trkpt lat="14.25689" lon="-60.96081">
        <ele>9.27</ele>
        <time>2016-12-05T17:13:33Z</time>
      </trkpt>
      <trkpt lat="14.25638" lon="-60.96093">
        <ele>9.27</ele>
        <time>2016-12-05T17:13:47Z</time>
      </trkpt>
      <trkpt lat="14.2559" lon="-60.96101">
        <ele>9.27</ele>
        <time>2016-12-05T17:14:00Z</time>
      </trkpt>
      <trkpt lat="14.25543" lon="-60.96112">
        <ele>8.79</ele>
        <time>2016-12-05T17:14:13Z</time>
      </trkpt>
      <trkpt lat="14.25496" lon="-60.96125">
        <ele>8.79</ele>
        <time>2016-12-05T17:14:27Z</time>
      </trkpt>
      <trkpt lat="14.25445" lon="-60.96135">
        <ele>9.27</ele>
        <time>2016-12-05T17:14:41Z</time>
      </trkpt>
      <trkpt lat="14.25383" lon="-60.96148">
        <ele>8.79</ele>
        <time>2016-12-05T17:14:58Z</time>
      </trkpt>
      <trkpt lat="14.25336" lon="-60.96155">
        <ele>8.79</ele>
        <time>2016-12-05T17:15:10Z</time>
      </trkpt>
      <trkpt lat="14.25283" lon="-60.96167">
        <ele>8.31</ele>
        <time>2016-12-05T17:15:24Z</time>
      </trkpt>
      <trkpt lat="14.25257" lon="-60.96172">
        <ele>8.79</ele>
        <time>2016-12-05T17:15:31Z</time>
      </trkpt>
      <trkpt lat="14.25201" lon="-60.96182">
        <ele>8.79</ele>
        <time>2016-12-05T17:15:46Z</time>
      </trkpt>
      <trkpt lat="14.25146" lon="-60.96196">
        <ele>7.35</ele>
        <time>2016-12-05T17:16:01Z</time>
      </trkpt>
      <trkpt lat="14.25106" lon="-60.96203">
        <ele>8.31</ele>
        <time>2016-12-05T17:16:11Z</time>
      </trkpt>
      <trkpt lat="14.25079" lon="-60.96207">
        <ele>8.79</ele>
        <time>2016-12-05T17:16:18Z</time>
      </trkpt>
      <trkpt lat="14.25064" lon="-60.96211">
        <ele>9.27</ele>
        <time>2016-12-05T17:16:22Z</time>
      </trkpt>
      <trkpt lat="14.25003" lon="-60.96222">
        <ele>9.75</ele>
        <time>2016-12-05T17:16:38Z</time>
      </trkpt>
      <trkpt lat="14.24949" lon="-60.96235">
        <ele>9.75</ele>
        <time>2016-12-05T17:16:53Z</time>
      </trkpt>
      <trkpt lat="14.24897" lon="-60.96248">
        <ele>9.27</ele>
        <time>2016-12-05T17:17:07Z</time>
      </trkpt>
      <trkpt lat="14.24852" lon="-60.96257">
        <ele>9.75</ele>
        <time>2016-12-05T17:17:19Z</time>
      </trkpt>
      <trkpt lat="14.248" lon="-60.96269">
        <ele>9.27</ele>
        <time>2016-12-05T17:17:33Z</time>
      </trkpt>
      <trkpt lat="14.24735" lon="-60.96284">
        <ele>10.23</ele>
        <time>2016-12-05T17:17:52Z</time>
      </trkpt>
      <trkpt lat="14.24679" lon="-60.96294">
        <ele>10.23</ele>
        <time>2016-12-05T17:18:07Z</time>
      </trkpt>
      <trkpt lat="14.24627" lon="-60.96305">
        <ele>10.23</ele>
        <time>2016-12-05T17:18:21Z</time>
      </trkpt>
      <trkpt lat="14.24565" lon="-60.96319">
        <ele>9.75</ele>
        <time>2016-12-05T17:18:38Z</time>
      </trkpt>
      <trkpt lat="14.24511" lon="-60.96331">
        <ele>9.75</ele>
        <time>2016-12-05T17:18:53Z</time>
      </trkpt>
      <trkpt lat="14.24439" lon="-60.96344">
        <ele>9.27</ele>
        <time>2016-12-05T17:19:12Z</time>
      </trkpt>
      <trkpt lat="14.24388" lon="-60.96355">
        <ele>8.79</ele>
        <time>2016-12-05T17:19:26Z</time>
      </trkpt>
      <trkpt lat="14.24339" lon="-60.96364">
        <ele>7.83</ele>
        <time>2016-12-05T17:19:39Z</time>
      </trkpt>
      <trkpt lat="14.24309" lon="-60.9637">
        <ele>8.79</ele>
        <time>2016-12-05T17:19:47Z</time>
      </trkpt>
      <trkpt lat="14.24262" lon="-60.96379">
        <ele>8.79</ele>
        <time>2016-12-05T17:20:00Z</time>
      </trkpt>
      <trkpt lat="14.24213" lon="-60.96391">
        <ele>8.31</ele>
        <time>2016-12-05T17:20:13Z</time>
      </trkpt>
      <trkpt lat="14.24159" lon="-60.964">
        <ele>8.79</ele>
        <time>2016-12-05T17:20:27Z</time>
      </trkpt>
      <trkpt lat="14.24107" lon="-60.9641">
        <ele>7.83</ele>
        <time>2016-12-05T17:20:41Z</time>
      </trkpt>
      <trkpt lat="14.2406" lon="-60.96422">
        <ele>8.31</ele>
        <time>2016-12-05T17:20:54Z</time>
      </trkpt>
      <trkpt lat="14.24021" lon="-60.96432">
        <ele>8.79</ele>
        <time>2016-12-05T17:21:05Z</time>
      </trkpt>
      <trkpt lat="14.23958" lon="-60.96446">
        <ele>8.79</ele>
        <time>2016-12-05T17:21:22Z</time>
      </trkpt>
      <trkpt lat="14.23906" lon="-60.96459">
        <ele>9.27</ele>
        <time>2016-12-05T17:21:37Z</time>
      </trkpt>
      <trkpt lat="14.23851" lon="-60.96472">
        <ele>8.79</ele>
        <time>2016-12-05T17:21:52Z</time>
      </trkpt>
      <trkpt lat="14.23797" lon="-60.96483">
        <ele>9.27</ele>
        <time>2016-12-05T17:22:07Z</time>
      </trkpt>
      <trkpt lat="14.23744" lon="-60.96492">
        <ele>8.79</ele>
        <time>2016-12-05T17:22:22Z</time>
      </trkpt>
      <trkpt lat="14.237" lon="-60.96504">
        <ele>8.31</ele>
        <time>2016-12-05T17:22:34Z</time>
      </trkpt>
      <trkpt lat="14.23646" lon="-60.9652">
        <ele>8.31</ele>
        <time>2016-12-05T17:22:49Z</time>
      </trkpt>
      <trkpt lat="14.23595" lon="-60.96537">
        <ele>8.79</ele>
        <time>2016-12-05T17:23:04Z</time>
      </trkpt>
      <trkpt lat="14.23545" lon="-60.96552">
        <ele>8.31</ele>
        <time>2016-12-05T17:23:18Z</time>
      </trkpt>
      <trkpt lat="14.23495" lon="-60.96566">
        <ele>7.83</ele>
        <time>2016-12-05T17:23:32Z</time>
      </trkpt>
      <trkpt lat="14.23439" lon="-60.96583">
        <ele>8.31</ele>
        <time>2016-12-05T17:23:48Z</time>
      </trkpt>
      <trkpt lat="14.23388" lon="-60.966">
        <ele>8.31</ele>
        <time>2016-12-05T17:24:03Z</time>
      </trkpt>
      <trkpt lat="14.23341" lon="-60.96613">
        <ele>7.83</ele>
        <time>2016-12-05T17:24:16Z</time>
      </trkpt>
      <trkpt lat="14.23278" lon="-60.9663">
        <ele>8.79</ele>
        <time>2016-12-05T17:24:33Z</time>
      </trkpt>
      <trkpt lat="14.23218" lon="-60.96651">
        <ele>9.75</ele>
        <time>2016-12-05T17:24:50Z</time>
      </trkpt>
      <trkpt lat="14.23168" lon="-60.96664">
        <ele>9.27</ele>
        <time>2016-12-05T17:25:04Z</time>
      </trkpt>
      <trkpt lat="14.23118" lon="-60.96681">
        <ele>10.23</ele>
        <time>2016-12-05T17:25:18Z</time>
      </trkpt>
      <trkpt lat="14.2307" lon="-60.96696">
        <ele>9.75</ele>
        <time>2016-12-05T17:25:32Z</time>
      </trkpt>
      <trkpt lat="14.23019" lon="-60.96714">
        <ele>9.27</ele>
        <time>2016-12-05T17:25:46Z</time>
      </trkpt>
      <trkpt lat="14.22971" lon="-60.96731">
        <ele>9.75</ele>
        <time>2016-12-05T17:25:59Z</time>
      </trkpt>
      <trkpt lat="14.22921" lon="-60.96747">
        <ele>8.31</ele>
        <time>2016-12-05T17:26:13Z</time>
      </trkpt>
      <trkpt lat="14.22871" lon="-60.96767">
        <ele>9.75</ele>
        <time>2016-12-05T17:26:28Z</time>
      </trkpt>
      <trkpt lat="14.22818" lon="-60.96786">
        <ele>10.23</ele>
        <time>2016-12-05T17:26:43Z</time>
      </trkpt>
      <trkpt lat="14.22755" lon="-60.96804">
        <ele>9.27</ele>
        <time>2016-12-05T17:27:00Z</time>
      </trkpt>
      <trkpt lat="14.22703" lon="-60.96818">
        <ele>9.27</ele>
        <time>2016-12-05T17:27:14Z</time>
      </trkpt>
      <trkpt lat="14.22644" lon="-60.96834">
        <ele>8.31</ele>
        <time>2016-12-05T17:27:29Z</time>
      </trkpt>
      <trkpt lat="14.22595" lon="-60.9685">
        <ele>8.79</ele>
        <time>2016-12-05T17:27:42Z</time>
      </trkpt>
      <trkpt lat="14.22545" lon="-60.96868">
        <ele>8.31</ele>
        <time>2016-12-05T17:27:56Z</time>
      </trkpt>
      <trkpt lat="14.22531" lon="-60.96873">
        <ele>8.79</ele>
        <time>2016-12-05T17:28:00Z</time>
      </trkpt>
      <trkpt lat="14.22473" lon="-60.96893">
        <ele>9.75</ele>
        <time>2016-12-05T17:28:16Z</time>
      </trkpt>
      <trkpt lat="14.22437" lon="-60.96906">
        <ele>9.75</ele>
        <time>2016-12-05T17:28:26Z</time>
      </trkpt>
      <trkpt lat="14.22369" lon="-60.96925">
        <ele>9.75</ele>
        <time>2016-12-05T17:28:44Z</time>
      </trkpt>
      <trkpt lat="14.22325" lon="-60.96937">
        <ele>10.23</ele>
        <time>2016-12-05T17:28:56Z</time>
      </trkpt>
      <trkpt lat="14.2227" lon="-60.96955">
        <ele>9.75</ele>
        <time>2016-12-05T17:29:11Z</time>
      </trkpt>
      <trkpt lat="14.22215" lon="-60.96972">
        <ele>9.75</ele>
        <time>2016-12-05T17:29:26Z</time>
      </trkpt>
      <trkpt lat="14.22159" lon="-60.96988">
        <ele>8.31</ele>
        <time>2016-12-05T17:29:41Z</time>
      </trkpt>
      <trkpt lat="14.22101" lon="-60.97005">
        <ele>8.79</ele>
        <time>2016-12-05T17:29:57Z</time>
      </trkpt>
      <trkpt lat="14.2205" lon="-60.97022">
        <ele>7.83</ele>
        <time>2016-12-05T17:30:11Z</time>
      </trkpt>
      <trkpt lat="14.22002" lon="-60.97037">
        <ele>7.83</ele>
        <time>2016-12-05T17:30:25Z</time>
      </trkpt>
      <trkpt lat="14.21947" lon="-60.97055">
        <ele>8.79</ele>
        <time>2016-12-05T17:30:40Z</time>
      </trkpt>
      <trkpt lat="14.21922" lon="-60.97063">
        <ele>9.27</ele>
        <time>2016-12-05T17:30:47Z</time>
      </trkpt>
      <trkpt lat="14.2186" lon="-60.97082">
        <ele>9.27</ele>
        <time>2016-12-05T17:31:04Z</time>
      </trkpt>
      <trkpt lat="14.21857" lon="-60.97084">
        <ele>9.27</ele>
        <time>2016-12-05T17:31:05Z</time>
      </trkpt>
      <trkpt lat="14.21842" lon="-60.97088">
        <ele>8.79</ele>
        <time>2016-12-05T17:31:09Z</time>
      </trkpt>
      <trkpt lat="14.21791" lon="-60.97107">
        <ele>9.27</ele>
        <time>2016-12-05T17:31:24Z</time>
      </trkpt>
      <trkpt lat="14.21741" lon="-60.97123">
        <ele>10.23</ele>
        <time>2016-12-05T17:31:38Z</time>
      </trkpt>
      <trkpt lat="14.21704" lon="-60.97136">
        <ele>10.71</ele>
        <time>2016-12-05T17:31:49Z</time>
      </trkpt>
      <trkpt lat="14.21651" lon="-60.9715">
        <ele>8.79</ele>
        <time>2016-12-05T17:32:04Z</time>
      </trkpt>
      <trkpt lat="14.21591" lon="-60.97173">
        <ele>9.75</ele>
        <time>2016-12-05T17:32:21Z</time>
      </trkpt>
      <trkpt lat="14.21545" lon="-60.97187">
        <ele>9.27</ele>
        <time>2016-12-05T17:32:34Z</time>
      </trkpt>
      <trkpt lat="14.21496" lon="-60.97202">
        <ele>10.23</ele>
        <time>2016-12-05T17:32:48Z</time>
      </trkpt>
      <trkpt lat="14.21452" lon="-60.97216">
        <ele>9.75</ele>
        <time>2016-12-05T17:33:01Z</time>
      </trkpt>
      <trkpt lat="14.21402" lon="-60.97232">
        <ele>10.23</ele>
        <time>2016-12-05T17:33:15Z</time>
      </trkpt>
      <trkpt lat="14.21373" lon="-60.97239">
        <ele>9.75</ele>
        <time>2016-12-05T17:33:23Z</time>
      </trkpt>
      <trkpt lat="14.21358" lon="-60.97243">
        <ele>9.75</ele>
        <time>2016-12-05T17:33:27Z</time>
      </trkpt>
      <trkpt lat="14.21307" lon="-60.97261">
        <ele>10.23</ele>
        <time>2016-12-05T17:33:42Z</time>
      </trkpt>
      <trkpt lat="14.21257" lon="-60.97278">
        <ele>9.27</ele>
        <time>2016-12-05T17:33:57Z</time>
      </trkpt>
      <trkpt lat="14.21212" lon="-60.97292">
        <ele>8.79</ele>
        <time>2016-12-05T17:34:11Z</time>
      </trkpt>
      <trkpt lat="14.2117" lon="-60.97305">
        <ele>9.27</ele>
        <time>2016-12-05T17:34:24Z</time>
      </trkpt>
      <trkpt lat="14.21131" lon="-60.9732">
        <ele>9.27</ele>
        <time>2016-12-05T17:34:37Z</time>
      </trkpt>
      <trkpt lat="14.21088" lon="-60.97337">
        <ele>10.23</ele>
        <time>2016-12-05T17:34:52Z</time>
      </trkpt>
      <trkpt lat="14.21048" lon="-60.9735">
        <ele>10.23</ele>
        <time>2016-12-05T17:35:05Z</time>
      </trkpt>
      <trkpt lat="14.21007" lon="-60.97364">
        <ele>9.75</ele>
        <time>2016-12-05T17:35:18Z</time>
      </trkpt>
      <trkpt lat="14.20966" lon="-60.97378">
        <ele>9.75</ele>
        <time>2016-12-05T17:35:31Z</time>
      </trkpt>
      <trkpt lat="14.20929" lon="-60.97388">
        <ele>8.79</ele>
        <time>2016-12-05T17:35:43Z</time>
      </trkpt>
      <trkpt lat="14.20879" lon="-60.97406">
        <ele>9.75</ele>
        <time>2016-12-05T17:35:59Z</time>
      </trkpt>
      <trkpt lat="14.20822" lon="-60.97424">
        <ele>10.23</ele>
        <time>2016-12-05T17:36:16Z</time>
      </trkpt>
      <trkpt lat="14.20777" lon="-60.9744">
        <ele>9.75</ele>
        <time>2016-12-05T17:36:29Z</time>
      </trkpt>
      <trkpt lat="14.20737" lon="-60.97454">
        <ele>10.23</ele>
        <time>2016-12-05T17:36:41Z</time>
      </trkpt>
      <trkpt lat="14.20699" lon="-60.97469">
        <ele>10.71</ele>
        <time>2016-12-05T17:36:53Z</time>
      </trkpt>
      <trkpt lat="14.20652" lon="-60.97485">
        <ele>10.71</ele>
        <time>2016-12-05T17:37:08Z</time>
      </trkpt>
      <trkpt lat="14.20605" lon="-60.975">
        <ele>10.71</ele>
        <time>2016-12-05T17:37:23Z</time>
      </trkpt>
      <trkpt lat="14.20559" lon="-60.97516">
        <ele>10.23</ele>
        <time>2016-12-05T17:37:37Z</time>
      </trkpt>
      <trkpt lat="14.20509" lon="-60.97532">
        <ele>11.19</ele>
        <time>2016-12-05T17:37:52Z</time>
      </trkpt>
      <trkpt lat="14.20462" lon="-60.97546">
        <ele>9.75</ele>
        <time>2016-12-05T17:38:06Z</time>
      </trkpt>
      <trkpt lat="14.20418" lon="-60.97562">
        <ele>10.23</ele>
        <time>2016-12-05T17:38:20Z</time>
      </trkpt>
      <trkpt lat="14.20374" lon="-60.97579">
        <ele>10.71</ele>
        <time>2016-12-05T17:38:34Z</time>
      </trkpt>
      <trkpt lat="14.20323" lon="-60.97595">
        <ele>11.19</ele>
        <time>2016-12-05T17:38:49Z</time>
      </trkpt>
      <trkpt lat="14.20282" lon="-60.97609">
        <ele>10.71</ele>
        <time>2016-12-05T17:39:01Z</time>
      </trkpt>
      <trkpt lat="14.20235" lon="-60.97621">
        <ele>10.71</ele>
        <time>2016-12-05T17:39:15Z</time>
      </trkpt>
      <trkpt lat="14.20184" lon="-60.9764">
        <ele>11.19</ele>
        <time>2016-12-05T17:39:30Z</time>
      </trkpt>
      <trkpt lat="14.20153" lon="-60.97651">
        <ele>11.19</ele>
        <time>2016-12-05T17:39:39Z</time>
      </trkpt>
      <trkpt lat="14.20108" lon="-60.97666">
        <ele>10.71</ele>
        <time>2016-12-05T17:39:52Z</time>
      </trkpt>
      <trkpt lat="14.20055" lon="-60.97685">
        <ele>11.19</ele>
        <time>2016-12-05T17:40:08Z</time>
      </trkpt>
      <trkpt lat="14.20008" lon="-60.97698">
        <ele>12.15</ele>
        <time>2016-12-05T17:40:22Z</time>
      </trkpt>
      <trkpt lat="14.1996" lon="-60.97716">
        <ele>11.67</ele>
        <time>2016-12-05T17:40:37Z</time>
      </trkpt>
      <trkpt lat="14.19916" lon="-60.9773">
        <ele>12.15</ele>
        <time>2016-12-05T17:40:52Z</time>
      </trkpt>
      <trkpt lat="14.19872" lon="-60.97744">
        <ele>11.67</ele>
        <time>2016-12-05T17:41:06Z</time>
      </trkpt>
      <trkpt lat="14.19825" lon="-60.97759">
        <ele>11.67</ele>
        <time>2016-12-05T17:41:20Z</time>
      </trkpt>
      <trkpt lat="14.19775" lon="-60.97774">
        <ele>11.19</ele>
        <time>2016-12-05T17:41:34Z</time>
      </trkpt>
      <trkpt lat="14.19723" lon="-60.97792">
        <ele>12.15</ele>
        <time>2016-12-05T17:41:49Z</time>
      </trkpt>
      <trkpt lat="14.19669" lon="-60.97809">
        <ele>12.15</ele>
        <time>2016-12-05T17:42:04Z</time>
      </trkpt>
      <trkpt lat="14.19615" lon="-60.97827">
        <ele>11.67</ele>
        <time>2016-12-05T17:42:20Z</time>
      </trkpt>
      <trkpt lat="14.19559" lon="-60.97844">
        <ele>12.15</ele>
        <time>2016-12-05T17:42:36Z</time>
      </trkpt>
      <trkpt lat="14.195" lon="-60.97862">
        <ele>11.19</ele>
        <time>2016-12-05T17:42:53Z</time>
      </trkpt>
      <trkpt lat="14.19446" lon="-60.97881">
        <ele>11.67</ele>
        <time>2016-12-05T17:43:09Z</time>
      </trkpt>
      <trkpt lat="14.19399" lon="-60.97895">
        <ele>12.15</ele>
        <time>2016-12-05T17:43:23Z</time>
      </trkpt>
      <trkpt lat="14.19391" lon="-60.97898">
        <ele>12.15</ele>
        <time>2016-12-05T17:43:25Z</time>
      </trkpt>
      <trkpt lat="14.19344" lon="-60.9791">
        <ele>11.19</ele>
        <time>2016-12-05T17:43:38Z</time>
      </trkpt>
      <trkpt lat="14.193" lon="-60.97926">
        <ele>11.19</ele>
        <time>2016-12-05T17:43:51Z</time>
      </trkpt>
      <trkpt lat="14.19252" lon="-60.97942">
        <ele>11.67</ele>
        <time>2016-12-05T17:44:06Z</time>
      </trkpt>
      <trkpt lat="14.19206" lon="-60.97958">
        <ele>10.71</ele>
        <time>2016-12-05T17:44:21Z</time>
      </trkpt>
      <trkpt lat="14.19153" lon="-60.97973">
        <ele>11.67</ele>
        <time>2016-12-05T17:44:37Z</time>
      </trkpt>
      <trkpt lat="14.191" lon="-60.97989">
        <ele>11.19</ele>
        <time>2016-12-05T17:44:53Z</time>
      </trkpt>
      <trkpt lat="14.19051" lon="-60.98006">
        <ele>10.71</ele>
        <time>2016-12-05T17:45:09Z</time>
      </trkpt>
      <trkpt lat="14.19005" lon="-60.98022">
        <ele>11.67</ele>
        <time>2016-12-05T17:45:25Z</time>
      </trkpt>
      <trkpt lat="14.18968" lon="-60.98034">
        <ele>11.67</ele>
        <time>2016-12-05T17:45:38Z</time>
      </trkpt>
      <trkpt lat="14.18931" lon="-60.98046">
        <ele>11.67</ele>
        <time>2016-12-05T17:45:51Z</time>
      </trkpt>
      <trkpt lat="14.18885" lon="-60.98061">
        <ele>11.19</ele>
        <time>2016-12-05T17:46:07Z</time>
      </trkpt>
      <trkpt lat="14.18842" lon="-60.98074">
        <ele>11.19</ele>
        <time>2016-12-05T17:46:22Z</time>
      </trkpt>
      <trkpt lat="14.18798" lon="-60.98087">
        <ele>11.67</ele>
        <time>2016-12-05T17:46:37Z</time>
      </trkpt>
      <trkpt lat="14.18745" lon="-60.98102">
        <ele>11.19</ele>
        <time>2016-12-05T17:46:53Z</time>
      </trkpt>
      <trkpt lat="14.18689" lon="-60.98122">
        <ele>11.19</ele>
        <time>2016-12-05T17:47:10Z</time>
      </trkpt>
      <trkpt lat="14.18639" lon="-60.9814">
        <ele>11.19</ele>
        <time>2016-12-05T17:47:24Z</time>
      </trkpt>
      <trkpt lat="14.18598" lon="-60.98152">
        <ele>11.19</ele>
        <time>2016-12-05T17:47:36Z</time>
      </trkpt>
      <trkpt lat="14.18557" lon="-60.98163">
        <ele>12.15</ele>
        <time>2016-12-05T17:47:47Z</time>
      </trkpt>
      <trkpt lat="14.18519" lon="-60.98177">
        <ele>12.15</ele>
        <time>2016-12-05T17:47:58Z</time>
      </trkpt>
      <trkpt lat="14.18459" lon="-60.98194">
        <ele>11.19</ele>
        <time>2016-12-05T17:48:15Z</time>
      </trkpt>
      <trkpt lat="14.18404" lon="-60.98211">
        <ele>10.71</ele>
        <time>2016-12-05T17:48:30Z</time>
      </trkpt>
      <trkpt lat="14.18349" lon="-60.98228">
        <ele>11.19</ele>
        <time>2016-12-05T17:48:45Z</time>
      </trkpt>
      <trkpt lat="14.18305" lon="-60.98244">
        <ele>10.71</ele>
        <time>2016-12-05T17:48:58Z</time>
      </trkpt>
      <trkpt lat="14.18288" lon="-60.98249">
        <ele>11.19</ele>
        <time>2016-12-05T17:49:03Z</time>
      </trkpt>
      <trkpt lat="14.18264" lon="-60.98256">
        <ele>10.23</ele>
        <time>2016-12-05T17:49:10Z</time>
      </trkpt>
      <trkpt lat="14.18214" lon="-60.98274">
        <ele>10.71</ele>
        <time>2016-12-05T17:49:24Z</time>
      </trkpt>
      <trkpt lat="14.18162" lon="-60.98285">
        <ele>11.19</ele>
        <time>2016-12-05T17:49:38Z</time>
      </trkpt>
      <trkpt lat="14.18106" lon="-60.98303">
        <ele>11.67</ele>
        <time>2016-12-05T17:49:54Z</time>
      </trkpt>
      <trkpt lat="14.18059" lon="-60.98317">
        <ele>12.15</ele>
        <time>2016-12-05T17:50:07Z</time>
      </trkpt>
      <trkpt lat="14.18012" lon="-60.98335">
        <ele>12.63</ele>
        <time>2016-12-05T17:50:21Z</time>
      </trkpt>
      <trkpt lat="14.17961" lon="-60.98349">
        <ele>11.67</ele>
        <time>2016-12-05T17:50:36Z</time>
      </trkpt>
      <trkpt lat="14.179" lon="-60.98367">
        <ele>11.67</ele>
        <time>2016-12-05T17:50:53Z</time>
      </trkpt>
      <trkpt lat="14.17845" lon="-60.98382">
        <ele>11.67</ele>
        <time>2016-12-05T17:51:08Z</time>
      </trkpt>
      <trkpt lat="14.17788" lon="-60.98397">
        <ele>11.19</ele>
        <time>2016-12-05T17:51:24Z</time>
      </trkpt>
      <trkpt lat="14.17732" lon="-60.98411">
        <ele>11.67</ele>
        <time>2016-12-05T17:51:39Z</time>
      </trkpt>
      <trkpt lat="14.17672" lon="-60.98428">
        <ele>10.71</ele>
        <time>2016-12-05T17:51:56Z</time>
      </trkpt>
      <trkpt lat="14.17615" lon="-60.98445">
        <ele>10.71</ele>
        <time>2016-12-05T17:52:11Z</time>
      </trkpt>
      <trkpt lat="14.17557" lon="-60.98462">
        <ele>11.19</ele>
        <time>2016-12-05T17:52:27Z</time>
      </trkpt>
      <trkpt lat="14.17501" lon="-60.98477">
        <ele>11.19</ele>
        <time>2016-12-05T17:52:43Z</time>
      </trkpt>
      <trkpt lat="14.17456" lon="-60.98489">
        <ele>10.71</ele>
        <time>2016-12-05T17:52:56Z</time>
      </trkpt>
      <trkpt lat="14.17397" lon="-60.98504">
        <ele>11.19</ele>
        <time>2016-12-05T17:53:12Z</time>
      </trkpt>
      <trkpt lat="14.17341" lon="-60.98518">
        <ele>11.67</ele>
        <time>2016-12-05T17:53:27Z</time>
      </trkpt>
      <trkpt lat="14.17316" lon="-60.98523">
        <ele>11.67</ele>
        <time>2016-12-05T17:53:34Z</time>
      </trkpt>
      <trkpt lat="14.17283" lon="-60.98532">
        <ele>11.67</ele>
        <time>2016-12-05T17:53:43Z</time>
      </trkpt>
      <trkpt lat="14.17229" lon="-60.98544">
        <ele>11.67</ele>
        <time>2016-12-05T17:53:57Z</time>
      </trkpt>
      <trkpt lat="14.17178" lon="-60.98561">
        <ele>11.19</ele>
        <time>2016-12-05T17:54:12Z</time>
      </trkpt>
      <trkpt lat="14.17161" lon="-60.98566">
        <ele>11.19</ele>
        <time>2016-12-05T17:54:17Z</time>
      </trkpt>
      <trkpt lat="14.17111" lon="-60.98579">
        <ele>11.19</ele>
        <time>2016-12-05T17:54:31Z</time>
      </trkpt>
      <trkpt lat="14.17061" lon="-60.98589">
        <ele>10.71</ele>
        <time>2016-12-05T17:54:45Z</time>
      </trkpt>
      <trkpt lat="14.17008" lon="-60.98606">
        <ele>11.19</ele>
        <time>2016-12-05T17:55:00Z</time>
      </trkpt>
      <trkpt lat="14.16953" lon="-60.98623">
        <ele>11.67</ele>
        <time>2016-12-05T17:55:16Z</time>
      </trkpt>
      <trkpt lat="14.16908" lon="-60.98634">
        <ele>11.67</ele>
        <time>2016-12-05T17:55:29Z</time>
      </trkpt>
      <trkpt lat="14.16858" lon="-60.98646">
        <ele>12.15</ele>
        <time>2016-12-05T17:55:43Z</time>
      </trkpt>
      <trkpt lat="14.16801" lon="-60.98659">
        <ele>12.15</ele>
        <time>2016-12-05T17:55:59Z</time>
      </trkpt>
      <trkpt lat="14.16754" lon="-60.98673">
        <ele>12.15</ele>
        <time>2016-12-05T17:56:12Z</time>
      </trkpt>
      <trkpt lat="14.1669" lon="-60.98689">
        <ele>11.67</ele>
        <time>2016-12-05T17:56:29Z</time>
      </trkpt>
      <trkpt lat="14.16627" lon="-60.98706">
        <ele>11.67</ele>
        <time>2016-12-05T17:56:46Z</time>
      </trkpt>
      <trkpt lat="14.1659" lon="-60.98718">
        <ele>10.71</ele>
        <time>2016-12-05T17:56:56Z</time>
      </trkpt>
      <trkpt lat="14.16535" lon="-60.9873">
        <ele>11.19</ele>
        <time>2016-12-05T17:57:10Z</time>
      </trkpt>
      <trkpt lat="14.16485" lon="-60.98747">
        <ele>11.19</ele>
        <time>2016-12-05T17:57:24Z</time>
      </trkpt>
      <trkpt lat="14.16425" lon="-60.98763">
        <ele>10.71</ele>
        <time>2016-12-05T17:57:40Z</time>
      </trkpt>
      <trkpt lat="14.16364" lon="-60.98779">
        <ele>10.71</ele>
        <time>2016-12-05T17:57:56Z</time>
      </trkpt>
      <trkpt lat="14.16307" lon="-60.98794">
        <ele>11.19</ele>
        <time>2016-12-05T17:58:11Z</time>
      </trkpt>
      <trkpt lat="14.16252" lon="-60.9881">
        <ele>11.19</ele>
        <time>2016-12-05T17:58:27Z</time>
      </trkpt>
      <trkpt lat="14.16205" lon="-60.98824">
        <ele>10.71</ele>
        <time>2016-12-05T17:58:40Z</time>
      </trkpt>
      <trkpt lat="14.16146" lon="-60.98837">
        <ele>11.67</ele>
        <time>2016-12-05T17:58:56Z</time>
      </trkpt>
      <trkpt lat="14.16095" lon="-60.98849">
        <ele>11.19</ele>
        <time>2016-12-05T17:59:10Z</time>
      </trkpt>
      <trkpt lat="14.16046" lon="-60.98864">
        <ele>11.19</ele>
        <time>2016-12-05T17:59:24Z</time>
      </trkpt>
      <trkpt lat="14.15985" lon="-60.9888">
        <ele>11.19</ele>
        <time>2016-12-05T17:59:40Z</time>
      </trkpt>
      <trkpt lat="14.15982" lon="-60.98881">
        <ele>11.19</ele>
        <time>2016-12-05T17:59:41Z</time>
      </trkpt>
      <trkpt lat="14.15925" lon="-60.98897">
        <ele>10.71</ele>
        <time>2016-12-05T17:59:56Z</time>
      </trkpt>
      <trkpt lat="14.1587" lon="-60.98911">
        <ele>11.19</ele>
        <time>2016-12-05T18:00:10Z</time>
      </trkpt>
      <trkpt lat="14.15849" lon="-60.98917">
        <ele>11.19</ele>
        <time>2016-12-05T18:00:16Z</time>
      </trkpt>
      <trkpt lat="14.15783" lon="-60.98932">
        <ele>11.67</ele>
        <time>2016-12-05T18:00:33Z</time>
      </trkpt>
      <trkpt lat="14.15768" lon="-60.98935">
        <ele>11.19</ele>
        <time>2016-12-05T18:00:37Z</time>
      </trkpt>
      <trkpt lat="14.15726" lon="-60.98949">
        <ele>11.19</ele>
        <time>2016-12-05T18:00:49Z</time>
      </trkpt>
      <trkpt lat="14.15713" lon="-60.98953">
        <ele>11.19</ele>
        <time>2016-12-05T18:00:52Z</time>
      </trkpt>
      <trkpt lat="14.15687" lon="-60.98959">
        <ele>10.23</ele>
        <time>2016-12-05T18:00:59Z</time>
      </trkpt>
      <trkpt lat="14.15629" lon="-60.98976">
        <ele>10.71</ele>
        <time>2016-12-05T18:01:14Z</time>
      </trkpt>
      <trkpt lat="14.15587" lon="-60.98989">
        <ele>10.71</ele>
        <time>2016-12-05T18:01:25Z</time>
      </trkpt>
      <trkpt lat="14.15521" lon="-60.99003">
        <ele>10.71</ele>
        <time>2016-12-05T18:01:42Z</time>
      </trkpt>
      <trkpt lat="14.15458" lon="-60.99019">
        <ele>10.23</ele>
        <time>2016-12-05T18:01:58Z</time>
      </trkpt>
      <trkpt lat="14.15397" lon="-60.99035">
        <ele>10.23</ele>
        <time>2016-12-05T18:02:14Z</time>
      </trkpt>
      <trkpt lat="14.15345" lon="-60.99051">
        <ele>10.71</ele>
        <time>2016-12-05T18:02:28Z</time>
      </trkpt>
      <trkpt lat="14.15284" lon="-60.99067">
        <ele>11.19</ele>
        <time>2016-12-05T18:02:44Z</time>
      </trkpt>
      <trkpt lat="14.1528" lon="-60.99068">
        <ele>11.19</ele>
        <time>2016-12-05T18:02:45Z</time>
      </trkpt>
      <trkpt lat="14.15217" lon="-60.99085">
        <ele>10.71</ele>
        <time>2016-12-05T18:03:01Z</time>
      </trkpt>
      <trkpt lat="14.15173" lon="-60.99099">
        <ele>10.71</ele>
        <time>2016-12-05T18:03:13Z</time>
      </trkpt>
      <trkpt lat="14.15118" lon="-60.99113">
        <ele>11.67</ele>
        <time>2016-12-05T18:03:27Z</time>
      </trkpt>
      <trkpt lat="14.15066" lon="-60.99126">
        <ele>11.67</ele>
        <time>2016-12-05T18:03:41Z</time>
      </trkpt>
      <trkpt lat="14.15013" lon="-60.99142">
        <ele>12.15</ele>
        <time>2016-12-05T18:03:55Z</time>
      </trkpt>
      <trkpt lat="14.14957" lon="-60.99158">
        <ele>12.15</ele>
        <time>2016-12-05T18:04:10Z</time>
      </trkpt>
      <trkpt lat="14.14897" lon="-60.99178">
        <ele>11.67</ele>
        <time>2016-12-05T18:04:27Z</time>
      </trkpt>
      <trkpt lat="14.1485" lon="-60.99193">
        <ele>11.67</ele>
        <time>2016-12-05T18:04:40Z</time>
      </trkpt>
      <trkpt lat="14.14787" lon="-60.99211">
        <ele>11.67</ele>
        <time>2016-12-05T18:04:57Z</time>
      </trkpt>
      <trkpt lat="14.14731" lon="-60.99226">
        <ele>11.67</ele>
        <time>2016-12-05T18:05:12Z</time>
      </trkpt>
      <trkpt lat="14.14704" lon="-60.99234">
        <ele>11.67</ele>
        <time>2016-12-05T18:05:19Z</time>
      </trkpt>
      <trkpt lat="14.14643" lon="-60.99251">
        <ele>11.67</ele>
        <time>2016-12-05T18:05:35Z</time>
      </trkpt>
      <trkpt lat="14.14586" lon="-60.99268">
        <ele>12.15</ele>
        <time>2016-12-05T18:05:50Z</time>
      </trkpt>
      <trkpt lat="14.14552" lon="-60.99277">
        <ele>12.15</ele>
        <time>2016-12-05T18:05:59Z</time>
      </trkpt>
      <trkpt lat="14.14493" lon="-60.99296">
        <ele>12.15</ele>
        <time>2016-12-05T18:06:15Z</time>
      </trkpt>
      <trkpt lat="14.14441" lon="-60.99313">
        <ele>12.15</ele>
        <time>2016-12-05T18:06:29Z</time>
      </trkpt>
      <trkpt lat="14.14379" lon="-60.99333">
        <ele>12.15</ele>
        <time>2016-12-05T18:06:46Z</time>
      </trkpt>
      <trkpt lat="14.14323" lon="-60.99351">
        <ele>12.15</ele>
        <time>2016-12-05T18:07:01Z</time>
      </trkpt>
      <trkpt lat="14.14267" lon="-60.99366">
        <ele>12.15</ele>
        <time>2016-12-05T18:07:16Z</time>
      </trkpt>
      <trkpt lat="14.14216" lon="-60.99381">
        <ele>12.15</ele>
        <time>2016-12-05T18:07:30Z</time>
      </trkpt>
      <trkpt lat="14.14177" lon="-60.99395">
        <ele>12.15</ele>
        <time>2016-12-05T18:07:41Z</time>
      </trkpt>
      <trkpt lat="14.14126" lon="-60.99411">
        <ele>12.15</ele>
        <time>2016-12-05T18:07:55Z</time>
      </trkpt>
      <trkpt lat="14.14072" lon="-60.99427">
        <ele>12.15</ele>
        <time>2016-12-05T18:08:10Z</time>
      </trkpt>
      <trkpt lat="14.14007" lon="-60.99445">
        <ele>11.67</ele>
        <time>2016-12-05T18:08:28Z</time>
      </trkpt>
      <trkpt lat="14.13955" lon="-60.99458">
        <ele>12.15</ele>
        <time>2016-12-05T18:08:41Z</time>
      </trkpt>
      <trkpt lat="14.13918" lon="-60.99472">
        <ele>11.67</ele>
        <time>2016-12-05T18:08:52Z</time>
      </trkpt>
      <trkpt lat="14.13875" lon="-60.99485">
        <ele>11.67</ele>
        <time>2016-12-05T18:09:04Z</time>
      </trkpt>
      <trkpt lat="14.13824" lon="-60.99499">
        <ele>11.19</ele>
        <time>2016-12-05T18:09:18Z</time>
      </trkpt>
      <trkpt lat="14.13773" lon="-60.99516">
        <ele>11.19</ele>
        <time>2016-12-05T18:09:33Z</time>
      </trkpt>
      <trkpt lat="14.1372" lon="-60.99532">
        <ele>11.19</ele>
        <time>2016-12-05T18:09:48Z</time>
      </trkpt>
      <trkpt lat="14.13673" lon="-60.99548">
        <ele>11.67</ele>
        <time>2016-12-05T18:10:01Z</time>
      </trkpt>
      <trkpt lat="14.13625" lon="-60.99562">
        <ele>11.19</ele>
        <time>2016-12-05T18:10:15Z</time>
      </trkpt>
      <trkpt lat="14.13572" lon="-60.99579">
        <ele>11.19</ele>
        <time>2016-12-05T18:10:30Z</time>
      </trkpt>
      <trkpt lat="14.13523" lon="-60.99594">
        <ele>11.19</ele>
        <time>2016-12-05T18:10:44Z</time>
      </trkpt>
      <trkpt lat="14.13463" lon="-60.99612">
        <ele>11.67</ele>
        <time>2016-12-05T18:11:01Z</time>
      </trkpt>
      <trkpt lat="14.13412" lon="-60.99623">
        <ele>11.67</ele>
        <time>2016-12-05T18:11:15Z</time>
      </trkpt>
      <trkpt lat="14.13364" lon="-60.99636">
        <ele>11.19</ele>
        <time>2016-12-05T18:11:29Z</time>
      </trkpt>
      <trkpt lat="14.13318" lon="-60.99647">
        <ele>11.67</ele>
        <time>2016-12-05T18:11:41Z</time>
      </trkpt>
      <trkpt lat="14.13264" lon="-60.99661">
        <ele>11.19</ele>
        <time>2016-12-05T18:11:56Z</time>
      </trkpt>
      <trkpt lat="14.13204" lon="-60.99676">
        <ele>11.67</ele>
        <time>2016-12-05T18:12:12Z</time>
      </trkpt>
      <trkpt lat="14.13152" lon="-60.9969">
        <ele>11.19</ele>
        <time>2016-12-05T18:12:26Z</time>
      </trkpt>
      <trkpt lat="14.1311" lon="-60.99702">
        <ele>11.19</ele>
        <time>2016-12-05T18:12:38Z</time>
      </trkpt>
      <trkpt lat="14.13064" lon="-60.99713">
        <ele>11.19</ele>
        <time>2016-12-05T18:12:51Z</time>
      </trkpt>
      <trkpt lat="14.13014" lon="-60.99724">
        <ele>10.71</ele>
        <time>2016-12-05T18:13:05Z</time>
      </trkpt>
      <trkpt lat="14.12951" lon="-60.99738">
        <ele>11.19</ele>
        <time>2016-12-05T18:13:21Z</time>
      </trkpt>
      <trkpt lat="14.12898" lon="-60.99753">
        <ele>11.19</ele>
        <time>2016-12-05T18:13:36Z</time>
      </trkpt>
      <trkpt lat="14.12845" lon="-60.9977">
        <ele>11.19</ele>
        <time>2016-12-05T18:13:52Z</time>
      </trkpt>
      <trkpt lat="14.12797" lon="-60.99781">
        <ele>11.19</ele>
        <time>2016-12-05T18:14:05Z</time>
      </trkpt>
      <trkpt lat="14.1278" lon="-60.99787">
        <ele>11.19</ele>
        <time>2016-12-05T18:14:10Z</time>
      </trkpt>
      <trkpt lat="14.12736" lon="-60.99798">
        <ele>11.19</ele>
        <time>2016-12-05T18:14:22Z</time>
      </trkpt>
      <trkpt lat="14.12684" lon="-60.99814">
        <ele>10.71</ele>
        <time>2016-12-05T18:14:37Z</time>
      </trkpt>
      <trkpt lat="14.12628" lon="-60.99831">
        <ele>10.23</ele>
        <time>2016-12-05T18:14:53Z</time>
      </trkpt>
      <trkpt lat="14.12586" lon="-60.99845">
        <ele>10.23</ele>
        <time>2016-12-05T18:15:05Z</time>
      </trkpt>
      <trkpt lat="14.12544" lon="-60.99857">
        <ele>10.23</ele>
        <time>2016-12-05T18:15:18Z</time>
      </trkpt>
      <trkpt lat="14.12537" lon="-60.99859">
        <ele>10.71</ele>
        <time>2016-12-05T18:15:20Z</time>
      </trkpt>
      <trkpt lat="14.12512" lon="-60.99867">
        <ele>10.71</ele>
        <time>2016-12-05T18:15:27Z</time>
      </trkpt>
      <trkpt lat="14.12455" lon="-60.99883">
        <ele>11.19</ele>
        <time>2016-12-05T18:15:43Z</time>
      </trkpt>
      <trkpt lat="14.12405" lon="-60.99895">
        <ele>11.19</ele>
        <time>2016-12-05T18:15:57Z</time>
      </trkpt>
      <trkpt lat="14.1236" lon="-60.99909">
        <ele>10.71</ele>
        <time>2016-12-05T18:16:11Z</time>
      </trkpt>
      <trkpt lat="14.12306" lon="-60.99927">
        <ele>10.23</ele>
        <time>2016-12-05T18:16:28Z</time>
      </trkpt>
      <trkpt lat="14.12266" lon="-60.99936">
        <ele>10.71</ele>
        <time>2016-12-05T18:16:40Z</time>
      </trkpt>
      <trkpt lat="14.12219" lon="-60.99951">
        <ele>10.23</ele>
        <time>2016-12-05T18:16:54Z</time>
      </trkpt>
      <trkpt lat="14.12166" lon="-60.99969">
        <ele>10.71</ele>
        <time>2016-12-05T18:17:10Z</time>
      </trkpt>
      <trkpt lat="14.12116" lon="-60.9999">
        <ele>10.23</ele>
        <time>2016-12-05T18:17:25Z</time>
      </trkpt>
      <trkpt lat="14.12061" lon="-61.00007">
        <ele>10.71</ele>
        <time>2016-12-05T18:17:41Z</time>
      </trkpt>
      <trkpt lat="14.12009" lon="-61.00028">
        <ele>10.23</ele>
        <time>2016-12-05T18:17:56Z</time>
      </trkpt>
      <trkpt lat="14.11955" lon="-61.00047">
        <ele>10.71</ele>
        <time>2016-12-05T18:18:11Z</time>
      </trkpt>
      <trkpt lat="14.11893" lon="-61.00073">
        <ele>10.71</ele>
        <time>2016-12-05T18:18:29Z</time>
      </trkpt>
      <trkpt lat="14.11824" lon="-61.00098">
        <ele>10.71</ele>
        <time>2016-12-05T18:18:49Z</time>
      </trkpt>
      <trkpt lat="14.11763" lon="-61.00118">
        <ele>10.23</ele>
        <time>2016-12-05T18:19:06Z</time>
      </trkpt>
      <trkpt lat="14.11711" lon="-61.00135">
        <ele>10.23</ele>
        <time>2016-12-05T18:19:21Z</time>
      </trkpt>
      <trkpt lat="14.11664" lon="-61.0015">
        <ele>10.23</ele>
        <time>2016-12-05T18:19:34Z</time>
      </trkpt>
      <trkpt lat="14.11617" lon="-61.00167">
        <ele>10.23</ele>
        <time>2016-12-05T18:19:48Z</time>
      </trkpt>
      <trkpt lat="14.11559" lon="-61.00192">
        <ele>11.67</ele>
        <time>2016-12-05T18:20:05Z</time>
      </trkpt>
      <trkpt lat="14.11502" lon="-61.00208">
        <ele>11.67</ele>
        <time>2016-12-05T18:20:21Z</time>
      </trkpt>
      <trkpt lat="14.11452" lon="-61.00229">
        <ele>11.67</ele>
        <time>2016-12-05T18:20:36Z</time>
      </trkpt>
      <trkpt lat="14.11436" lon="-61.00236">
        <ele>11.67</ele>
        <time>2016-12-05T18:20:41Z</time>
      </trkpt>
      <trkpt lat="14.11389" lon="-61.00249">
        <ele>11.19</ele>
        <time>2016-12-05T18:20:54Z</time>
      </trkpt>
      <trkpt lat="14.11343" lon="-61.00266">
        <ele>11.19</ele>
        <time>2016-12-05T18:21:07Z</time>
      </trkpt>
      <trkpt lat="14.11299" lon="-61.00284">
        <ele>11.67</ele>
        <time>2016-12-05T18:21:20Z</time>
      </trkpt>
      <trkpt lat="14.11242" lon="-61.00305">
        <ele>11.19</ele>
        <time>2016-12-05T18:21:37Z</time>
      </trkpt>
      <trkpt lat="14.11184" lon="-61.00322">
        <ele>11.67</ele>
        <time>2016-12-05T18:21:53Z</time>
      </trkpt>
      <trkpt lat="14.11139" lon="-61.00337">
        <ele>10.71</ele>
        <time>2016-12-05T18:22:06Z</time>
      </trkpt>
      <trkpt lat="14.11099" lon="-61.00352">
        <ele>10.71</ele>
        <time>2016-12-05T18:22:18Z</time>
      </trkpt>
      <trkpt lat="14.11057" lon="-61.00367">
        <ele>11.67</ele>
        <time>2016-12-05T18:22:30Z</time>
      </trkpt>
      <trkpt lat="14.11021" lon="-61.00379">
        <ele>11.19</ele>
        <time>2016-12-05T18:22:40Z</time>
      </trkpt>
      <trkpt lat="14.10979" lon="-61.00395">
        <ele>11.67</ele>
        <time>2016-12-05T18:22:53Z</time>
      </trkpt>
      <trkpt lat="14.10927" lon="-61.00413">
        <ele>11.19</ele>
        <time>2016-12-05T18:23:08Z</time>
      </trkpt>
      <trkpt lat="14.1087" lon="-61.00435">
        <ele>11.67</ele>
        <time>2016-12-05T18:23:25Z</time>
      </trkpt>
      <trkpt lat="14.1081" lon="-61.00452">
        <ele>11.67</ele>
        <time>2016-12-05T18:23:42Z</time>
      </trkpt>
      <trkpt lat="14.10753" lon="-61.00472">
        <ele>11.67</ele>
        <time>2016-12-05T18:23:59Z</time>
      </trkpt>
      <trkpt lat="14.107" lon="-61.00493">
        <ele>11.19</ele>
        <time>2016-12-05T18:24:16Z</time>
      </trkpt>
      <trkpt lat="14.10655" lon="-61.00506">
        <ele>11.19</ele>
        <time>2016-12-05T18:24:29Z</time>
      </trkpt>
      <trkpt lat="14.106" lon="-61.00524">
        <ele>11.19</ele>
        <time>2016-12-05T18:24:45Z</time>
      </trkpt>
      <trkpt lat="14.10554" lon="-61.0054">
        <ele>10.71</ele>
        <time>2016-12-05T18:24:59Z</time>
      </trkpt>
      <trkpt lat="14.10504" lon="-61.00557">
        <ele>11.67</ele>
        <time>2016-12-05T18:25:14Z</time>
      </trkpt>
      <trkpt lat="14.10458" lon="-61.00575">
        <ele>11.67</ele>
        <time>2016-12-05T18:25:28Z</time>
      </trkpt>
      <trkpt lat="14.10411" lon="-61.00583">
        <ele>10.23</ele>
        <time>2016-12-05T18:25:41Z</time>
      </trkpt>
      <trkpt lat="14.10353" lon="-61.00604">
        <ele>10.71</ele>
        <time>2016-12-05T18:25:58Z</time>
      </trkpt>
      <trkpt lat="14.10304" lon="-61.00619">
        <ele>11.19</ele>
        <time>2016-12-05T18:26:12Z</time>
      </trkpt>
      <trkpt lat="14.1026" lon="-61.00633">
        <ele>10.23</ele>
        <time>2016-12-05T18:26:25Z</time>
      </trkpt>
      <trkpt lat="14.1021" lon="-61.00649">
        <ele>10.71</ele>
        <time>2016-12-05T18:26:38Z</time>
      </trkpt>
      <trkpt lat="14.10182" lon="-61.00661">
        <ele>11.19</ele>
        <time>2016-12-05T18:26:47Z</time>
      </trkpt>
      <trkpt lat="14.1014" lon="-61.00672">
        <ele>11.19</ele>
        <time>2016-12-05T18:26:59Z</time>
      </trkpt>
      <trkpt lat="14.10086" lon="-61.00688">
        <ele>11.19</ele>
        <time>2016-12-05T18:27:15Z</time>
      </trkpt>
      <trkpt lat="14.1003" lon="-61.0071">
        <ele>11.19</ele>
        <time>2016-12-05T18:27:32Z</time>
      </trkpt>
      <trkpt lat="14.09977" lon="-61.00723">
        <ele>11.19</ele>
        <time>2016-12-05T18:27:47Z</time>
      </trkpt>
      <trkpt lat="14.09924" lon="-61.00737">
        <ele>10.71</ele>
        <time>2016-12-05T18:28:02Z</time>
      </trkpt>
      <trkpt lat="14.0986" lon="-61.00758">
        <ele>11.19</ele>
        <time>2016-12-05T18:28:20Z</time>
      </trkpt>
      <trkpt lat="14.09794" lon="-61.00782">
        <ele>11.67</ele>
        <time>2016-12-05T18:28:39Z</time>
      </trkpt>
      <trkpt lat="14.09756" lon="-61.00795">
        <ele>10.71</ele>
        <time>2016-12-05T18:28:51Z</time>
      </trkpt>
      <trkpt lat="14.09698" lon="-61.00811">
        <ele>10.23</ele>
        <time>2016-12-05T18:29:07Z</time>
      </trkpt>
      <trkpt lat="14.09627" lon="-61.0083">
        <ele>9.75</ele>
        <time>2016-12-05T18:29:26Z</time>
      </trkpt>
      <trkpt lat="14.09566" lon="-61.00853">
        <ele>9.75</ele>
        <time>2016-12-05T18:29:44Z</time>
      </trkpt>
      <trkpt lat="14.09518" lon="-61.00871">
        <ele>10.23</ele>
        <time>2016-12-05T18:29:58Z</time>
      </trkpt>
      <trkpt lat="14.09464" lon="-61.00886">
        <ele>10.71</ele>
        <time>2016-12-05T18:30:14Z</time>
      </trkpt>
      <trkpt lat="14.09415" lon="-61.00902">
        <ele>10.23</ele>
        <time>2016-12-05T18:30:29Z</time>
      </trkpt>
      <trkpt lat="14.0937" lon="-61.00918">
        <ele>10.71</ele>
        <time>2016-12-05T18:30:42Z</time>
      </trkpt>
      <trkpt lat="14.09327" lon="-61.0093">
        <ele>11.19</ele>
        <time>2016-12-05T18:30:54Z</time>
      </trkpt>
      <trkpt lat="14.09273" lon="-61.00948">
        <ele>10.71</ele>
        <time>2016-12-05T18:31:10Z</time>
      </trkpt>
      <trkpt lat="14.09201" lon="-61.00966">
        <ele>10.71</ele>
        <time>2016-12-05T18:31:29Z</time>
      </trkpt>
      <trkpt lat="14.09156" lon="-61.00985">
        <ele>10.71</ele>
        <time>2016-12-05T18:31:42Z</time>
      </trkpt>
      <trkpt lat="14.09114" lon="-61.01">
        <ele>10.23</ele>
        <time>2016-12-05T18:31:54Z</time>
      </trkpt>
      <trkpt lat="14.09061" lon="-61.01014">
        <ele>10.71</ele>
        <time>2016-12-05T18:32:09Z</time>
      </trkpt>
      <trkpt lat="14.08999" lon="-61.01032">
        <ele>10.23</ele>
        <time>2016-12-05T18:32:27Z</time>
      </trkpt>
      <trkpt lat="14.08946" lon="-61.0105">
        <ele>10.23</ele>
        <time>2016-12-05T18:32:43Z</time>
      </trkpt>
      <trkpt lat="14.08898" lon="-61.01065">
        <ele>10.23</ele>
        <time>2016-12-05T18:32:56Z</time>
      </trkpt>
      <trkpt lat="14.08852" lon="-61.01078">
        <ele>10.23</ele>
        <time>2016-12-05T18:33:09Z</time>
      </trkpt>
      <trkpt lat="14.08785" lon="-61.01098">
        <ele>10.71</ele>
        <time>2016-12-05T18:33:28Z</time>
      </trkpt>
      <trkpt lat="14.08738" lon="-61.01113">
        <ele>10.23</ele>
        <time>2016-12-05T18:33:42Z</time>
      </trkpt>
      <trkpt lat="14.08678" lon="-61.01131">
        <ele>10.23</ele>
        <time>2016-12-05T18:33:59Z</time>
      </trkpt>
      <trkpt lat="14.0862" lon="-61.01148">
        <ele>9.75</ele>
        <time>2016-12-05T18:34:15Z</time>
      </trkpt>
      <trkpt lat="14.08563" lon="-61.01165">
        <ele>9.75</ele>
        <time>2016-12-05T18:34:31Z</time>
      </trkpt>
      <trkpt lat="14.08514" lon="-61.01182">
        <ele>9.75</ele>
        <time>2016-12-05T18:34:45Z</time>
      </trkpt>
      <trkpt lat="14.08464" lon="-61.01196">
        <ele>9.27</ele>
        <time>2016-12-05T18:34:59Z</time>
      </trkpt>
      <trkpt lat="14.08413" lon="-61.01215">
        <ele>9.75</ele>
        <time>2016-12-05T18:35:13Z</time>
      </trkpt>
      <trkpt lat="14.08359" lon="-61.01227">
        <ele>9.75</ele>
        <time>2016-12-05T18:35:28Z</time>
      </trkpt>
      <trkpt lat="14.08321" lon="-61.01239">
        <ele>9.75</ele>
        <time>2016-12-05T18:35:39Z</time>
      </trkpt>
      <trkpt lat="14.08261" lon="-61.01256">
        <ele>9.75</ele>
        <time>2016-12-05T18:35:56Z</time>
      </trkpt>
      <trkpt lat="14.08214" lon="-61.01272">
        <ele>9.75</ele>
        <time>2016-12-05T18:36:10Z</time>
      </trkpt>
      <trkpt lat="14.08163" lon="-61.01288">
        <ele>9.75</ele>
        <time>2016-12-05T18:36:25Z</time>
      </trkpt>
      <trkpt lat="14.08108" lon="-61.01306">
        <ele>9.27</ele>
        <time>2016-12-05T18:36:41Z</time>
      </trkpt>
      <trkpt lat="14.08056" lon="-61.01322">
        <ele>10.23</ele>
        <time>2016-12-05T18:36:56Z</time>
      </trkpt>
      <trkpt lat="14.08008" lon="-61.01333">
        <ele>9.27</ele>
        <time>2016-12-05T18:37:09Z</time>
      </trkpt>
      <trkpt lat="14.07948" lon="-61.0135">
        <ele>9.75</ele>
        <time>2016-12-05T18:37:26Z</time>
      </trkpt>
      <trkpt lat="14.07891" lon="-61.01369">
        <ele>9.27</ele>
        <time>2016-12-05T18:37:43Z</time>
      </trkpt>
      <trkpt lat="14.07848" lon="-61.01383">
        <ele>9.27</ele>
        <time>2016-12-05T18:37:55Z</time>
      </trkpt>
      <trkpt lat="14.07807" lon="-61.01395">
        <ele>9.27</ele>
        <time>2016-12-05T18:38:07Z</time>
      </trkpt>
      <trkpt lat="14.07763" lon="-61.0141">
        <ele>9.27</ele>
        <time>2016-12-05T18:38:20Z</time>
      </trkpt>
      <trkpt lat="14.0771" lon="-61.01421">
        <ele>9.27</ele>
        <time>2016-12-05T18:38:35Z</time>
      </trkpt>
      <trkpt lat="14.07651" lon="-61.01439">
        <ele>10.23</ele>
        <time>2016-12-05T18:38:53Z</time>
      </trkpt>
      <trkpt lat="14.07599" lon="-61.01451">
        <ele>9.75</ele>
        <time>2016-12-05T18:39:08Z</time>
      </trkpt>
      <trkpt lat="14.07539" lon="-61.01472">
        <ele>9.27</ele>
        <time>2016-12-05T18:39:26Z</time>
      </trkpt>
      <trkpt lat="14.07491" lon="-61.01489">
        <ele>9.27</ele>
        <time>2016-12-05T18:39:40Z</time>
      </trkpt>
      <trkpt lat="14.07443" lon="-61.01507">
        <ele>9.27</ele>
        <time>2016-12-05T18:39:54Z</time>
      </trkpt>
      <trkpt lat="14.07404" lon="-61.01524">
        <ele>9.27</ele>
        <time>2016-12-05T18:40:07Z</time>
      </trkpt>
      <trkpt lat="14.07365" lon="-61.01538">
        <ele>9.75</ele>
        <time>2016-12-05T18:40:20Z</time>
      </trkpt>
      <trkpt lat="14.07313" lon="-61.01553">
        <ele>8.79</ele>
        <time>2016-12-05T18:40:37Z</time>
      </trkpt>
      <trkpt lat="14.07259" lon="-61.01572">
        <ele>7.83</ele>
        <time>2016-12-05T18:40:54Z</time>
      </trkpt>
      <trkpt lat="14.072" lon="-61.01594">
        <ele>8.79</ele>
        <time>2016-12-05T18:41:13Z</time>
      </trkpt>
      <trkpt lat="14.07149" lon="-61.01615">
        <ele>9.27</ele>
        <time>2016-12-05T18:41:28Z</time>
      </trkpt>
      <trkpt lat="14.071" lon="-61.01633">
        <ele>9.75</ele>
        <time>2016-12-05T18:41:42Z</time>
      </trkpt>
      <trkpt lat="14.07032" lon="-61.0166">
        <ele>10.71</ele>
        <time>2016-12-05T18:42:03Z</time>
      </trkpt>
      <trkpt lat="14.06977" lon="-61.0168">
        <ele>10.23</ele>
        <time>2016-12-05T18:42:21Z</time>
      </trkpt>
      <trkpt lat="14.06931" lon="-61.01697">
        <ele>11.19</ele>
        <time>2016-12-05T18:42:35Z</time>
      </trkpt>
      <trkpt lat="14.0689" lon="-61.01713">
        <ele>10.71</ele>
        <time>2016-12-05T18:42:47Z</time>
      </trkpt>
      <trkpt lat="14.0685" lon="-61.01728">
        <ele>10.71</ele>
        <time>2016-12-05T18:42:59Z</time>
      </trkpt>
      <trkpt lat="14.06804" lon="-61.01742">
        <ele>10.23</ele>
        <time>2016-12-05T18:43:11Z</time>
      </trkpt>
      <trkpt lat="14.06756" lon="-61.01762">
        <ele>10.23</ele>
        <time>2016-12-05T18:43:26Z</time>
      </trkpt>
      <trkpt lat="14.06696" lon="-61.01782">
        <ele>9.27</ele>
        <time>2016-12-05T18:43:44Z</time>
      </trkpt>
      <trkpt lat="14.06641" lon="-61.01801">
        <ele>8.79</ele>
        <time>2016-12-05T18:44:00Z</time>
      </trkpt>
      <trkpt lat="14.06571" lon="-61.01826">
        <ele>8.79</ele>
        <time>2016-12-05T18:44:20Z</time>
      </trkpt>
      <trkpt lat="14.06504" lon="-61.01851">
        <ele>9.27</ele>
        <time>2016-12-05T18:44:40Z</time>
      </trkpt>
      <trkpt lat="14.06454" lon="-61.0187">
        <ele>9.27</ele>
        <time>2016-12-05T18:44:56Z</time>
      </trkpt>
      <trkpt lat="14.06403" lon="-61.01888">
        <ele>8.79</ele>
        <time>2016-12-05T18:45:12Z</time>
      </trkpt>
      <trkpt lat="14.06344" lon="-61.01906">
        <ele>9.27</ele>
        <time>2016-12-05T18:45:30Z</time>
      </trkpt>
      <trkpt lat="14.06286" lon="-61.01925">
        <ele>9.27</ele>
        <time>2016-12-05T18:45:48Z</time>
      </trkpt>
      <trkpt lat="14.06233" lon="-61.01945">
        <ele>9.75</ele>
        <time>2016-12-05T18:46:05Z</time>
      </trkpt>
      <trkpt lat="14.06173" lon="-61.01968">
        <ele>10.23</ele>
        <time>2016-12-05T18:46:24Z</time>
      </trkpt>
      <trkpt lat="14.06128" lon="-61.01984">
        <ele>9.75</ele>
        <time>2016-12-05T18:46:38Z</time>
      </trkpt>
      <trkpt lat="14.06077" lon="-61.02001">
        <ele>9.75</ele>
        <time>2016-12-05T18:46:53Z</time>
      </trkpt>
      <trkpt lat="14.06032" lon="-61.02016">
        <ele>9.27</ele>
        <time>2016-12-05T18:47:07Z</time>
      </trkpt>
      <trkpt lat="14.05973" lon="-61.02033">
        <ele>9.75</ele>
        <time>2016-12-05T18:47:24Z</time>
      </trkpt>
      <trkpt lat="14.05898" lon="-61.02059">
        <ele>9.75</ele>
        <time>2016-12-05T18:47:46Z</time>
      </trkpt>
      <trkpt lat="14.0584" lon="-61.02081">
        <ele>9.27</ele>
        <time>2016-12-05T18:48:03Z</time>
      </trkpt>
      <trkpt lat="14.05776" lon="-61.02101">
        <ele>9.75</ele>
        <time>2016-12-05T18:48:21Z</time>
      </trkpt>
      <trkpt lat="14.05699" lon="-61.02124">
        <ele>10.23</ele>
        <time>2016-12-05T18:48:41Z</time>
      </trkpt>
      <trkpt lat="14.05626" lon="-61.02151">
        <ele>9.75</ele>
        <time>2016-12-05T18:49:02Z</time>
      </trkpt>
      <trkpt lat="14.05578" lon="-61.02169">
        <ele>9.27</ele>
        <time>2016-12-05T18:49:16Z</time>
      </trkpt>
      <trkpt lat="14.05522" lon="-61.02191">
        <ele>9.75</ele>
        <time>2016-12-05T18:49:33Z</time>
      </trkpt>
      <trkpt lat="14.05466" lon="-61.02211">
        <ele>10.23</ele>
        <time>2016-12-05T18:49:49Z</time>
      </trkpt>
      <trkpt lat="14.05407" lon="-61.02233">
        <ele>9.75</ele>
        <time>2016-12-05T18:50:07Z</time>
      </trkpt>
      <trkpt lat="14.05343" lon="-61.02253">
        <ele>9.27</ele>
        <time>2016-12-05T18:50:25Z</time>
      </trkpt>
      <trkpt lat="14.05295" lon="-61.02274">
        <ele>10.23</ele>
        <time>2016-12-05T18:50:40Z</time>
      </trkpt>
      <trkpt lat="14.05234" lon="-61.02294">
        <ele>10.23</ele>
        <time>2016-12-05T18:50:58Z</time>
      </trkpt>
      <trkpt lat="14.05175" lon="-61.02314">
        <ele>9.75</ele>
        <time>2016-12-05T18:51:15Z</time>
      </trkpt>
      <trkpt lat="14.05115" lon="-61.0234">
        <ele>10.23</ele>
        <time>2016-12-05T18:51:34Z</time>
      </trkpt>
      <trkpt lat="14.05053" lon="-61.02368">
        <ele>10.23</ele>
        <time>2016-12-05T18:51:52Z</time>
      </trkpt>
      <trkpt lat="14.05005" lon="-61.02386">
        <ele>10.23</ele>
        <time>2016-12-05T18:52:07Z</time>
      </trkpt>
      <trkpt lat="14.04954" lon="-61.02407">
        <ele>9.75</ele>
        <time>2016-12-05T18:52:22Z</time>
      </trkpt>
      <trkpt lat="14.04895" lon="-61.02431">
        <ele>9.27</ele>
        <time>2016-12-05T18:52:39Z</time>
      </trkpt>
      <trkpt lat="14.04839" lon="-61.02458">
        <ele>10.23</ele>
        <time>2016-12-05T18:52:57Z</time>
      </trkpt>
      <trkpt lat="14.04781" lon="-61.02482">
        <ele>10.71</ele>
        <time>2016-12-05T18:53:14Z</time>
      </trkpt>
      <trkpt lat="14.04717" lon="-61.02508">
        <ele>9.75</ele>
        <time>2016-12-05T18:53:33Z</time>
      </trkpt>
      <trkpt lat="14.04657" lon="-61.02533">
        <ele>10.71</ele>
        <time>2016-12-05T18:53:51Z</time>
      </trkpt>
      <trkpt lat="14.046" lon="-61.02558">
        <ele>9.75</ele>
        <time>2016-12-05T18:54:10Z</time>
      </trkpt>
      <trkpt lat="14.04528" lon="-61.02587">
        <ele>9.75</ele>
        <time>2016-12-05T18:54:33Z</time>
      </trkpt>
      <trkpt lat="14.04469" lon="-61.02614">
        <ele>9.75</ele>
        <time>2016-12-05T18:54:52Z</time>
      </trkpt>
      <trkpt lat="14.04408" lon="-61.02641">
        <ele>9.75</ele>
        <time>2016-12-05T18:55:12Z</time>
      </trkpt>
      <trkpt lat="14.04341" lon="-61.02668">
        <ele>10.23</ele>
        <time>2016-12-05T18:55:33Z</time>
      </trkpt>
      <trkpt lat="14.04279" lon="-61.02692">
        <ele>10.71</ele>
        <time>2016-12-05T18:55:53Z</time>
      </trkpt>
      <trkpt lat="14.04226" lon="-61.02715">
        <ele>11.19</ele>
        <time>2016-12-05T18:56:10Z</time>
      </trkpt>
      <trkpt lat="14.04178" lon="-61.02738">
        <ele>10.23</ele>
        <time>2016-12-05T18:56:26Z</time>
      </trkpt>
      <trkpt lat="14.04126" lon="-61.02757">
        <ele>10.71</ele>
        <time>2016-12-05T18:56:42Z</time>
      </trkpt>
      <trkpt lat="14.04073" lon="-61.02778">
        <ele>10.71</ele>
        <time>2016-12-05T18:56:58Z</time>
      </trkpt>
      <trkpt lat="14.04018" lon="-61.02799">
        <ele>11.19</ele>
        <time>2016-12-05T18:57:15Z</time>
      </trkpt>
      <trkpt lat="14.03966" lon="-61.02823">
        <ele>11.67</ele>
        <time>2016-12-05T18:57:33Z</time>
      </trkpt>
      <trkpt lat="14.03905" lon="-61.0285">
        <ele>10.71</ele>
        <time>2016-12-05T18:57:54Z</time>
      </trkpt>
      <trkpt lat="14.03848" lon="-61.02876">
        <ele>11.19</ele>
        <time>2016-12-05T18:58:14Z</time>
      </trkpt>
      <trkpt lat="14.03787" lon="-61.02899">
        <ele>11.19</ele>
        <time>2016-12-05T18:58:33Z</time>
      </trkpt>
      <trkpt lat="14.03717" lon="-61.02929">
        <ele>11.67</ele>
        <time>2016-12-05T18:58:55Z</time>
      </trkpt>
      <trkpt lat="14.03658" lon="-61.02954">
        <ele>11.67</ele>
        <time>2016-12-05T18:59:14Z</time>
      </trkpt>
      <trkpt lat="14.03597" lon="-61.02975">
        <ele>11.67</ele>
        <time>2016-12-05T18:59:32Z</time>
      </trkpt>
      <trkpt lat="14.03538" lon="-61.03001">
        <ele>10.71</ele>
        <time>2016-12-05T18:59:51Z</time>
      </trkpt>
      <trkpt lat="14.03479" lon="-61.03026">
        <ele>11.19</ele>
        <time>2016-12-05T19:00:10Z</time>
      </trkpt>
      <trkpt lat="14.03433" lon="-61.03043">
        <ele>11.67</ele>
        <time>2016-12-05T19:00:25Z</time>
      </trkpt>
      <trkpt lat="14.03386" lon="-61.03064">
        <ele>11.19</ele>
        <time>2016-12-05T19:00:42Z</time>
      </trkpt>
      <trkpt lat="14.03339" lon="-61.03084">
        <ele>10.71</ele>
        <time>2016-12-05T19:00:59Z</time>
      </trkpt>
      <trkpt lat="14.03292" lon="-61.03104">
        <ele>10.71</ele>
        <time>2016-12-05T19:01:16Z</time>
      </trkpt>
      <trkpt lat="14.03239" lon="-61.03129">
        <ele>10.71</ele>
        <time>2016-12-05T19:01:37Z</time>
      </trkpt>
      <trkpt lat="14.0318" lon="-61.03152">
        <ele>10.71</ele>
        <time>2016-12-05T19:01:58Z</time>
      </trkpt>
      <trkpt lat="14.03111" lon="-61.03181">
        <ele>11.19</ele>
        <time>2016-12-05T19:02:20Z</time>
      </trkpt>
      <trkpt lat="14.03057" lon="-61.03203">
        <ele>11.19</ele>
        <time>2016-12-05T19:02:37Z</time>
      </trkpt>
      <trkpt lat="14.03005" lon="-61.03228">
        <ele>11.19</ele>
        <time>2016-12-05T19:02:55Z</time>
      </trkpt>
      <trkpt lat="14.02944" lon="-61.03255">
        <ele>11.19</ele>
        <time>2016-12-05T19:03:15Z</time>
      </trkpt>
      <trkpt lat="14.02889" lon="-61.0328">
        <ele>12.15</ele>
        <time>2016-12-05T19:03:34Z</time>
      </trkpt>
      <trkpt lat="14.02843" lon="-61.03301">
        <ele>11.67</ele>
        <time>2016-12-05T19:03:51Z</time>
      </trkpt>
      <trkpt lat="14.02797" lon="-61.0332">
        <ele>11.67</ele>
        <time>2016-12-05T19:04:06Z</time>
      </trkpt>
      <trkpt lat="14.0274" lon="-61.03344">
        <ele>11.67</ele>
        <time>2016-12-05T19:04:24Z</time>
      </trkpt>
      <trkpt lat="14.02689" lon="-61.03366">
        <ele>11.19</ele>
        <time>2016-12-05T19:04:40Z</time>
      </trkpt>
      <trkpt lat="14.02636" lon="-61.03393">
        <ele>11.19</ele>
        <time>2016-12-05T19:04:57Z</time>
      </trkpt>
      <trkpt lat="14.02574" lon="-61.0342">
        <ele>11.67</ele>
        <time>2016-12-05T19:05:17Z</time>
      </trkpt>
      <trkpt lat="14.02497" lon="-61.03451">
        <ele>11.19</ele>
        <time>2016-12-05T19:05:42Z</time>
      </trkpt>
      <trkpt lat="14.02439" lon="-61.03475">
        <ele>11.19</ele>
        <time>2016-12-05T19:06:01Z</time>
      </trkpt>
      <trkpt lat="14.02368" lon="-61.03504">
        <ele>10.71</ele>
        <time>2016-12-05T19:06:24Z</time>
      </trkpt>
      <trkpt lat="14.0231" lon="-61.03529">
        <ele>10.71</ele>
        <time>2016-12-05T19:06:44Z</time>
      </trkpt>
      <trkpt lat="14.02253" lon="-61.03557">
        <ele>10.71</ele>
        <time>2016-12-05T19:07:06Z</time>
      </trkpt>
      <trkpt lat="14.02206" lon="-61.03576">
        <ele>11.19</ele>
        <time>2016-12-05T19:07:24Z</time>
      </trkpt>
      <trkpt lat="14.02155" lon="-61.03598">
        <ele>10.23</ele>
        <time>2016-12-05T19:07:43Z</time>
      </trkpt>
      <trkpt lat="14.0209" lon="-61.03626">
        <ele>11.19</ele>
        <time>2016-12-05T19:08:06Z</time>
      </trkpt>
      <trkpt lat="14.02047" lon="-61.03645">
        <ele>11.19</ele>
        <time>2016-12-05T19:08:22Z</time>
      </trkpt>
      <trkpt lat="14.02004" lon="-61.03663">
        <ele>11.19</ele>
        <time>2016-12-05T19:08:39Z</time>
      </trkpt>
      <trkpt lat="14.01945" lon="-61.03692">
        <ele>11.19</ele>
        <time>2016-12-05T19:09:03Z</time>
      </trkpt>
      <trkpt lat="14.01894" lon="-61.03716">
        <ele>10.71</ele>
        <time>2016-12-05T19:09:23Z</time>
      </trkpt>
      <trkpt lat="14.01856" lon="-61.03735">
        <ele>11.19</ele>
        <time>2016-12-05T19:09:39Z</time>
      </trkpt>
      <trkpt lat="14.01818" lon="-61.03754">
        <ele>11.19</ele>
        <time>2016-12-05T19:09:54Z</time>
      </trkpt>
      <trkpt lat="14.01759" lon="-61.03778">
        <ele>11.67</ele>
        <time>2016-12-05T19:10:15Z</time>
      </trkpt>
      <trkpt lat="14.01706" lon="-61.03804">
        <ele>11.19</ele>
        <time>2016-12-05T19:10:35Z</time>
      </trkpt>
      <trkpt lat="14.01653" lon="-61.03825">
        <ele>11.67</ele>
        <time>2016-12-05T19:10:54Z</time>
      </trkpt>
      <trkpt lat="14.01596" lon="-61.03847">
        <ele>11.67</ele>
        <time>2016-12-05T19:11:14Z</time>
      </trkpt>
      <trkpt lat="14.01533" lon="-61.03876">
        <ele>11.67</ele>
        <time>2016-12-05T19:11:37Z</time>
      </trkpt>
      <trkpt lat="14.01478" lon="-61.03899">
        <ele>11.67</ele>
        <time>2016-12-05T19:11:59Z</time>
      </trkpt>
      <trkpt lat="14.01438" lon="-61.03918">
        <ele>11.67</ele>
        <time>2016-12-05T19:12:15Z</time>
      </trkpt>
      <trkpt lat="14.01378" lon="-61.03943">
        <ele>11.19</ele>
        <time>2016-12-05T19:12:37Z</time>
      </trkpt>
      <trkpt lat="14.01313" lon="-61.03973">
        <ele>11.67</ele>
        <time>2016-12-05T19:13:02Z</time>
      </trkpt>
      <trkpt lat="14.01253" lon="-61.03996">
        <ele>12.15</ele>
        <time>2016-12-05T19:13:22Z</time>
      </trkpt>
      <trkpt lat="14.01192" lon="-61.04021">
        <ele>11.19</ele>
        <time>2016-12-05T19:13:42Z</time>
      </trkpt>
      <trkpt lat="14.01135" lon="-61.04048">
        <ele>11.19</ele>
        <time>2016-12-05T19:14:00Z</time>
      </trkpt>
      <trkpt lat="14.01081" lon="-61.04071">
        <ele>11.19</ele>
        <time>2016-12-05T19:14:17Z</time>
      </trkpt>
      <trkpt lat="14.01013" lon="-61.04099">
        <ele>11.19</ele>
        <time>2016-12-05T19:14:39Z</time>
      </trkpt>
      <trkpt lat="14.00946" lon="-61.04127">
        <ele>10.71</ele>
        <time>2016-12-05T19:15:01Z</time>
      </trkpt>
      <trkpt lat="14.00885" lon="-61.04152">
        <ele>10.23</ele>
        <time>2016-12-05T19:15:23Z</time>
      </trkpt>
      <trkpt lat="14.00816" lon="-61.04176">
        <ele>11.19</ele>
        <time>2016-12-05T19:15:46Z</time>
      </trkpt>
      <trkpt lat="14.00751" lon="-61.04203">
        <ele>10.71</ele>
        <time>2016-12-05T19:16:07Z</time>
      </trkpt>
      <trkpt lat="14.00694" lon="-61.04226">
        <ele>11.19</ele>
        <time>2016-12-05T19:16:27Z</time>
      </trkpt>
      <trkpt lat="14.00651" lon="-61.04243">
        <ele>11.19</ele>
        <time>2016-12-05T19:16:41Z</time>
      </trkpt>
      <trkpt lat="14.00583" lon="-61.04269">
        <ele>10.23</ele>
        <time>2016-12-05T19:17:04Z</time>
      </trkpt>
      <trkpt lat="14.00518" lon="-61.04296">
        <ele>10.23</ele>
        <time>2016-12-05T19:17:26Z</time>
      </trkpt>
      <trkpt lat="14.00452" lon="-61.04318">
        <ele>10.71</ele>
        <time>2016-12-05T19:17:47Z</time>
      </trkpt>
      <trkpt lat="14.00397" lon="-61.04343">
        <ele>11.19</ele>
        <time>2016-12-05T19:18:07Z</time>
      </trkpt>
      <trkpt lat="14.00342" lon="-61.04366">
        <ele>10.23</ele>
        <time>2016-12-05T19:18:27Z</time>
      </trkpt>
      <trkpt lat="14.0029" lon="-61.04388">
        <ele>10.23</ele>
        <time>2016-12-05T19:18:47Z</time>
      </trkpt>
      <trkpt lat="14.00237" lon="-61.04407">
        <ele>10.71</ele>
        <time>2016-12-05T19:19:07Z</time>
      </trkpt>
      <trkpt lat="14.00183" lon="-61.04433">
        <ele>10.23</ele>
        <time>2016-12-05T19:19:29Z</time>
      </trkpt>
      <trkpt lat="14.00123" lon="-61.04455">
        <ele>9.75</ele>
        <time>2016-12-05T19:19:51Z</time>
      </trkpt>
      <trkpt lat="14.00066" lon="-61.0448">
        <ele>9.27</ele>
        <time>2016-12-05T19:20:11Z</time>
      </trkpt>
      <trkpt lat="14.00007" lon="-61.04504">
        <ele>9.27</ele>
        <time>2016-12-05T19:20:33Z</time>
      </trkpt>
      <trkpt lat="13.99947" lon="-61.04529">
        <ele>10.23</ele>
        <time>2016-12-05T19:20:56Z</time>
      </trkpt>
      <trkpt lat="13.99884" lon="-61.04555">
        <ele>8.79</ele>
        <time>2016-12-05T19:21:19Z</time>
      </trkpt>
      <trkpt lat="13.9983" lon="-61.04576">
        <ele>9.27</ele>
        <time>2016-12-05T19:21:37Z</time>
      </trkpt>
      <trkpt lat="13.99774" lon="-61.04598">
        <ele>10.23</ele>
        <time>2016-12-05T19:21:57Z</time>
      </trkpt>
      <trkpt lat="13.99716" lon="-61.04622">
        <ele>10.71</ele>
        <time>2016-12-05T19:22:18Z</time>
      </trkpt>
      <trkpt lat="13.99659" lon="-61.04644">
        <ele>11.19</ele>
        <time>2016-12-05T19:22:38Z</time>
      </trkpt>
      <trkpt lat="13.99608" lon="-61.04667">
        <ele>12.63</ele>
        <time>2016-12-05T19:22:58Z</time>
      </trkpt>
      <trkpt lat="13.99548" lon="-61.04694">
        <ele>11.19</ele>
        <time>2016-12-05T19:23:21Z</time>
      </trkpt>
      <trkpt lat="13.99494" lon="-61.04718">
        <ele>11.19</ele>
        <time>2016-12-05T19:23:41Z</time>
      </trkpt>
      <trkpt lat="13.99438" lon="-61.04743">
        <ele>12.15</ele>
        <time>2016-12-05T19:24:03Z</time>
      </trkpt>
      <trkpt lat="13.99375" lon="-61.04768">
        <ele>13.12</ele>
        <time>2016-12-05T19:24:27Z</time>
      </trkpt>
      <trkpt lat="13.99323" lon="-61.04793">
        <ele>12.15</ele>
        <time>2016-12-05T19:24:50Z</time>
      </trkpt>
      <trkpt lat="13.99274" lon="-61.04813">
        <ele>12.15</ele>
        <time>2016-12-05T19:25:10Z</time>
      </trkpt>
      <trkpt lat="13.99214" lon="-61.04839">
        <ele>12.15</ele>
        <time>2016-12-05T19:25:33Z</time>
      </trkpt>
      <trkpt lat="13.99158" lon="-61.04862">
        <ele>12.15</ele>
        <time>2016-12-05T19:25:55Z</time>
      </trkpt>
      <trkpt lat="13.99092" lon="-61.04888">
        <ele>12.15</ele>
        <time>2016-12-05T19:26:21Z</time>
      </trkpt>
      <trkpt lat="13.99037" lon="-61.04908">
        <ele>13.12</ele>
        <time>2016-12-05T19:26:40Z</time>
      </trkpt>
      <trkpt lat="13.98977" lon="-61.04932">
        <ele>13.6</ele>
        <time>2016-12-05T19:27:01Z</time>
      </trkpt>
      <trkpt lat="13.9891" lon="-61.04964">
        <ele>11.67</ele>
        <time>2016-12-05T19:27:25Z</time>
      </trkpt>
      <trkpt lat="13.98845" lon="-61.04987">
        <ele>12.15</ele>
        <time>2016-12-05T19:27:49Z</time>
      </trkpt>
      <trkpt lat="13.98795" lon="-61.05006">
        <ele>12.63</ele>
        <time>2016-12-05T19:28:09Z</time>
      </trkpt>
      <trkpt lat="13.98741" lon="-61.05027">
        <ele>12.15</ele>
        <time>2016-12-05T19:28:31Z</time>
      </trkpt>
      <trkpt lat="13.9869" lon="-61.05046">
        <ele>11.67</ele>
        <time>2016-12-05T19:28:51Z</time>
      </trkpt>
      <trkpt lat="13.98653" lon="-61.05063">
        <ele>10.71</ele>
        <time>2016-12-05T19:29:08Z</time>
      </trkpt>
      <trkpt lat="13.98616" lon="-61.0508">
        <ele>10.23</ele>
        <time>2016-12-05T19:29:25Z</time>
      </trkpt>
      <trkpt lat="13.98564" lon="-61.05103">
        <ele>9.75</ele>
        <time>2016-12-05T19:29:48Z</time>
      </trkpt>
      <trkpt lat="13.98507" lon="-61.05125">
        <ele>10.71</ele>
        <time>2016-12-05T19:30:08Z</time>
      </trkpt>
      <trkpt lat="13.98455" lon="-61.05145">
        <ele>10.71</ele>
        <time>2016-12-05T19:30:26Z</time>
      </trkpt>
      <trkpt lat="13.98408" lon="-61.05164">
        <ele>11.19</ele>
        <time>2016-12-05T19:30:44Z</time>
      </trkpt>
      <trkpt lat="13.98365" lon="-61.05184">
        <ele>10.71</ele>
        <time>2016-12-05T19:31:03Z</time>
      </trkpt>
      <trkpt lat="13.98325" lon="-61.05203">
        <ele>10.71</ele>
        <time>2016-12-05T19:31:18Z</time>
      </trkpt>
      <trkpt lat="13.98273" lon="-61.05225">
        <ele>10.71</ele>
        <time>2016-12-05T19:31:35Z</time>
      </trkpt>
      <trkpt lat="13.982" lon="-61.05253">
        <ele>11.19</ele>
        <time>2016-12-05T19:31:57Z</time>
      </trkpt>
      <trkpt lat="13.98143" lon="-61.05273">
        <ele>11.19</ele>
        <time>2016-12-05T19:32:19Z</time>
      </trkpt>
      <trkpt lat="13.98102" lon="-61.05291">
        <ele>11.67</ele>
        <time>2016-12-05T19:32:35Z</time>
      </trkpt>
      <trkpt lat="13.98047" lon="-61.05318">
        <ele>11.67</ele>
        <time>2016-12-05T19:32:59Z</time>
      </trkpt>
      <trkpt lat="13.97994" lon="-61.05338">
        <ele>12.15</ele>
        <time>2016-12-05T19:33:21Z</time>
      </trkpt>
      <trkpt lat="13.97945" lon="-61.05358">
        <ele>12.15</ele>
        <time>2016-12-05T19:33:43Z</time>
      </trkpt>
      <trkpt lat="13.97897" lon="-61.05376">
        <ele>11.67</ele>
        <time>2016-12-05T19:34:03Z</time>
      </trkpt>
      <trkpt lat="13.97837" lon="-61.05397">
        <ele>10.71</ele>
        <time>2016-12-05T19:34:25Z</time>
      </trkpt>
      <trkpt lat="13.97768" lon="-61.05422">
        <ele>10.23</ele>
        <time>2016-12-05T19:34:50Z</time>
      </trkpt>
      <trkpt lat="13.97713" lon="-61.05443">
        <ele>9.27</ele>
        <time>2016-12-05T19:35:12Z</time>
      </trkpt>
      <trkpt lat="13.97649" lon="-61.05466">
        <ele>9.75</ele>
        <time>2016-12-05T19:35:36Z</time>
      </trkpt>
      <trkpt lat="13.97605" lon="-61.05483">
        <ele>10.23</ele>
        <time>2016-12-05T19:35:53Z</time>
      </trkpt>
      <trkpt lat="13.97562" lon="-61.05499">
        <ele>9.75</ele>
        <time>2016-12-05T19:36:09Z</time>
      </trkpt>
      <trkpt lat="13.97495" lon="-61.05515">
        <ele>8.31</ele>
        <time>2016-12-05T19:36:31Z</time>
      </trkpt>
      <trkpt lat="13.97432" lon="-61.05533">
        <ele>8.31</ele>
        <time>2016-12-05T19:36:51Z</time>
      </trkpt>
      <trkpt lat="13.97371" lon="-61.05554">
        <ele>8.31</ele>
        <time>2016-12-05T19:37:12Z</time>
      </trkpt>
      <trkpt lat="13.97318" lon="-61.05571">
        <ele>7.83</ele>
        <time>2016-12-05T19:37:30Z</time>
      </trkpt>
      <trkpt lat="13.97257" lon="-61.05589">
        <ele>6.87</ele>
        <time>2016-12-05T19:37:51Z</time>
      </trkpt>
      <trkpt lat="13.97203" lon="-61.05605">
        <ele>6.87</ele>
        <time>2016-12-05T19:38:12Z</time>
      </trkpt>
      <trkpt lat="13.97155" lon="-61.05621">
        <ele>7.35</ele>
        <time>2016-12-05T19:38:31Z</time>
      </trkpt>
      <trkpt lat="13.97112" lon="-61.05636">
        <ele>7.35</ele>
        <time>2016-12-05T19:38:48Z</time>
      </trkpt>
      <trkpt lat="13.97052" lon="-61.05653">
        <ele>7.83</ele>
        <time>2016-12-05T19:39:08Z</time>
      </trkpt>
      <trkpt lat="13.97005" lon="-61.05666">
        <ele>6.87</ele>
        <time>2016-12-05T19:39:25Z</time>
      </trkpt>
      <trkpt lat="13.96961" lon="-61.0568">
        <ele>7.35</ele>
        <time>2016-12-05T19:39:43Z</time>
      </trkpt>
      <trkpt lat="13.96901" lon="-61.05697">
        <ele>7.83</ele>
        <time>2016-12-05T19:40:05Z</time>
      </trkpt>
      <trkpt lat="13.96862" lon="-61.05707">
        <ele>8.31</ele>
        <time>2016-12-05T19:40:20Z</time>
      </trkpt>
      <trkpt lat="13.96811" lon="-61.0572">
        <ele>7.83</ele>
        <time>2016-12-05T19:40:39Z</time>
      </trkpt>
      <trkpt lat="13.96763" lon="-61.05731">
        <ele>7.35</ele>
        <time>2016-12-05T19:40:57Z</time>
      </trkpt>
      <trkpt lat="13.96712" lon="-61.05745">
        <ele>7.35</ele>
        <time>2016-12-05T19:41:16Z</time>
      </trkpt>
      <trkpt lat="13.96666" lon="-61.05757">
        <ele>7.35</ele>
        <time>2016-12-05T19:41:33Z</time>
      </trkpt>
      <trkpt lat="13.9661" lon="-61.05768">
        <ele>6.87</ele>
        <time>2016-12-05T19:41:54Z</time>
      </trkpt>
      <trkpt lat="13.96562" lon="-61.05781">
        <ele>6.87</ele>
        <time>2016-12-05T19:42:13Z</time>
      </trkpt>
      <trkpt lat="13.96515" lon="-61.05793">
        <ele>7.83</ele>
        <time>2016-12-05T19:42:32Z</time>
      </trkpt>
      <trkpt lat="13.96473" lon="-61.05802">
        <ele>6.87</ele>
        <time>2016-12-05T19:42:49Z</time>
      </trkpt>
      <trkpt lat="13.96424" lon="-61.05814">
        <ele>7.35</ele>
        <time>2016-12-05T19:43:09Z</time>
      </trkpt>
      <trkpt lat="13.96375" lon="-61.05827">
        <ele>7.35</ele>
        <time>2016-12-05T19:43:29Z</time>
      </trkpt>
      <trkpt lat="13.96324" lon="-61.0584">
        <ele>7.35</ele>
        <time>2016-12-05T19:43:52Z</time>
      </trkpt>
      <trkpt lat="13.96276" lon="-61.05851">
        <ele>6.87</ele>
        <time>2016-12-05T19:44:14Z</time>
      </trkpt>
      <trkpt lat="13.96239" lon="-61.05859">
        <ele>6.39</ele>
        <time>2016-12-05T19:44:30Z</time>
      </trkpt>
      <trkpt lat="13.96171" lon="-61.05872">
        <ele>5.42</ele>
        <time>2016-12-05T19:44:55Z</time>
      </trkpt>
      <trkpt lat="13.9612" lon="-61.05881">
        <ele>4.94</ele>
        <time>2016-12-05T19:45:14Z</time>
      </trkpt>
      <trkpt lat="13.9607" lon="-61.05891">
        <ele>5.42</ele>
        <time>2016-12-05T19:45:33Z</time>
      </trkpt>
      <trkpt lat="13.96022" lon="-61.05902">
        <ele>5.42</ele>
        <time>2016-12-05T19:45:52Z</time>
      </trkpt>
      <trkpt lat="13.95968" lon="-61.05916">
        <ele>5.91</ele>
        <time>2016-12-05T19:46:14Z</time>
      </trkpt>
      <trkpt lat="13.95912" lon="-61.05926">
        <ele>5.91</ele>
        <time>2016-12-05T19:46:36Z</time>
      </trkpt>
      <trkpt lat="13.95862" lon="-61.05935">
        <ele>5.91</ele>
        <time>2016-12-05T19:46:54Z</time>
      </trkpt>
      <trkpt lat="13.95808" lon="-61.05948">
        <ele>6.39</ele>
        <time>2016-12-05T19:47:13Z</time>
      </trkpt>
      <trkpt lat="13.95753" lon="-61.05962">
        <ele>7.35</ele>
        <time>2016-12-05T19:47:32Z</time>
      </trkpt>
      <trkpt lat="13.9569" lon="-61.05981">
        <ele>7.35</ele>
        <time>2016-12-05T19:47:56Z</time>
      </trkpt>
      <trkpt lat="13.95636" lon="-61.05997">
        <ele>7.83</ele>
        <time>2016-12-05T19:48:17Z</time>
      </trkpt>
      <trkpt lat="13.95566" lon="-61.06017">
        <ele>7.35</ele>
        <time>2016-12-05T19:48:41Z</time>
      </trkpt>
      <trkpt lat="13.95488" lon="-61.06039">
        <ele>7.35</ele>
        <time>2016-12-05T19:49:05Z</time>
      </trkpt>
      <trkpt lat="13.9543" lon="-61.06057">
        <ele>6.39</ele>
        <time>2016-12-05T19:49:23Z</time>
      </trkpt>
      <trkpt lat="13.95361" lon="-61.06079">
        <ele>5.91</ele>
        <time>2016-12-05T19:49:45Z</time>
      </trkpt>
      <trkpt lat="13.95307" lon="-61.06095">
        <ele>7.35</ele>
        <time>2016-12-05T19:50:02Z</time>
      </trkpt>
      <trkpt lat="13.95243" lon="-61.06111">
        <ele>7.35</ele>
        <time>2016-12-05T19:50:24Z</time>
      </trkpt>
      <trkpt lat="13.95175" lon="-61.06131">
        <ele>7.35</ele>
        <time>2016-12-05T19:50:48Z</time>
      </trkpt>
      <trkpt lat="13.95112" lon="-61.06154">
        <ele>8.31</ele>
        <time>2016-12-05T19:51:12Z</time>
      </trkpt>
      <trkpt lat="13.95045" lon="-61.06178">
        <ele>7.83</ele>
        <time>2016-12-05T19:51:36Z</time>
      </trkpt>
      <trkpt lat="13.94984" lon="-61.06197">
        <ele>7.83</ele>
        <time>2016-12-05T19:51:58Z</time>
      </trkpt>
      <trkpt lat="13.94935" lon="-61.06214">
        <ele>8.31</ele>
        <time>2016-12-05T19:52:15Z</time>
      </trkpt>
      <trkpt lat="13.94881" lon="-61.06235">
        <ele>7.35</ele>
        <time>2016-12-05T19:52:34Z</time>
      </trkpt>
      <trkpt lat="13.94833" lon="-61.06249">
        <ele>6.87</ele>
        <time>2016-12-05T19:52:50Z</time>
      </trkpt>
      <trkpt lat="13.94786" lon="-61.06266">
        <ele>7.83</ele>
        <time>2016-12-05T19:53:07Z</time>
      </trkpt>
      <trkpt lat="13.94734" lon="-61.06281">
        <ele>8.31</ele>
        <time>2016-12-05T19:53:27Z</time>
      </trkpt>
      <trkpt lat="13.94676" lon="-61.063">
        <ele>8.31</ele>
        <time>2016-12-05T19:53:51Z</time>
      </trkpt>
      <trkpt lat="13.94615" lon="-61.06322">
        <ele>8.31</ele>
        <time>2016-12-05T19:54:14Z</time>
      </trkpt>
      <trkpt lat="13.94564" lon="-61.06338">
        <ele>8.31</ele>
        <time>2016-12-05T19:54:32Z</time>
      </trkpt>
      <trkpt lat="13.94482" lon="-61.06361">
        <ele>7.35</ele>
        <time>2016-12-05T19:54:59Z</time>
      </trkpt>
      <trkpt lat="13.94413" lon="-61.06378">
        <ele>7.83</ele>
        <time>2016-12-05T19:55:22Z</time>
      </trkpt>
      <trkpt lat="13.94348" lon="-61.06398">
        <ele>7.35</ele>
        <time>2016-12-05T19:55:44Z</time>
      </trkpt>
      <trkpt lat="13.94288" lon="-61.06414">
        <ele>8.31</ele>
        <time>2016-12-05T19:56:08Z</time>
      </trkpt>
      <trkpt lat="13.94234" lon="-61.0643">
        <ele>8.79</ele>
        <time>2016-12-05T19:56:31Z</time>
      </trkpt>
      <trkpt lat="13.9418" lon="-61.06445">
        <ele>9.27</ele>
        <time>2016-12-05T19:56:54Z</time>
      </trkpt>
      <trkpt lat="13.94125" lon="-61.06461">
        <ele>9.27</ele>
        <time>2016-12-05T19:57:19Z</time>
      </trkpt>
      <trkpt lat="13.94068" lon="-61.06477">
        <ele>8.79</ele>
        <time>2016-12-05T19:57:45Z</time>
      </trkpt>
      <trkpt lat="13.94015" lon="-61.06493">
        <ele>8.79</ele>
        <time>2016-12-05T19:58:09Z</time>
      </trkpt>
      <trkpt lat="13.9396" lon="-61.06511">
        <ele>8.31</ele>
        <time>2016-12-05T19:58:36Z</time>
      </trkpt>
      <trkpt lat="13.93912" lon="-61.06525">
        <ele>8.79</ele>
        <time>2016-12-05T19:59:01Z</time>
      </trkpt>
      <trkpt lat="13.93867" lon="-61.06537">
        <ele>9.27</ele>
        <time>2016-12-05T19:59:24Z</time>
      </trkpt>
      <trkpt lat="13.93823" lon="-61.0655">
        <ele>9.27</ele>
        <time>2016-12-05T19:59:49Z</time>
      </trkpt>
      <trkpt lat="13.93771" lon="-61.06561">
        <ele>9.27</ele>
        <time>2016-12-05T20:00:17Z</time>
      </trkpt>
      <trkpt lat="13.9373" lon="-61.06573">
        <ele>10.23</ele>
        <time>2016-12-05T20:00:40Z</time>
      </trkpt>
      <trkpt lat="13.93687" lon="-61.06586">
        <ele>9.75</ele>
        <time>2016-12-05T20:01:04Z</time>
      </trkpt>
      <trkpt lat="13.93652" lon="-61.06597">
        <ele>9.75</ele>
        <time>2016-12-05T20:01:26Z</time>
      </trkpt>
      <trkpt lat="13.936" lon="-61.06613">
        <ele>8.31</ele>
        <time>2016-12-05T20:01:53Z</time>
      </trkpt>
      <trkpt lat="13.93538" lon="-61.06634">
        <ele>9.27</ele>
        <time>2016-12-05T20:02:22Z</time>
      </trkpt>
      <trkpt lat="13.93495" lon="-61.06649">
        <ele>9.27</ele>
        <time>2016-12-05T20:02:42Z</time>
      </trkpt>
      <trkpt lat="13.93437" lon="-61.06666">
        <ele>8.79</ele>
        <time>2016-12-05T20:03:08Z</time>
      </trkpt>
      <trkpt lat="13.93392" lon="-61.06682">
        <ele>10.71</ele>
        <time>2016-12-05T20:03:33Z</time>
      </trkpt>
      <trkpt lat="13.93356" lon="-61.06694">
        <ele>9.75</ele>
        <time>2016-12-05T20:03:53Z</time>
      </trkpt>
      <trkpt lat="13.93316" lon="-61.06708">
        <ele>8.79</ele>
        <time>2016-12-05T20:04:15Z</time>
      </trkpt>
      <trkpt lat="13.93284" lon="-61.0672">
        <ele>9.27</ele>
        <time>2016-12-05T20:04:33Z</time>
      </trkpt>
      <trkpt lat="13.93242" lon="-61.06735">
        <ele>8.79</ele>
        <time>2016-12-05T20:04:56Z</time>
      </trkpt>
      <trkpt lat="13.93207" lon="-61.06748">
        <ele>10.23</ele>
        <time>2016-12-05T20:05:17Z</time>
      </trkpt>
      <trkpt lat="13.93161" lon="-61.06763">
        <ele>10.71</ele>
        <time>2016-12-05T20:05:45Z</time>
      </trkpt>
      <trkpt lat="13.93122" lon="-61.06777">
        <ele>10.23</ele>
        <time>2016-12-05T20:06:07Z</time>
      </trkpt>
      <trkpt lat="13.93093" lon="-61.06786">
        <ele>9.75</ele>
        <time>2016-12-05T20:06:24Z</time>
      </trkpt>
      <trkpt lat="13.93062" lon="-61.06796">
        <ele>10.71</ele>
        <time>2016-12-05T20:06:42Z</time>
      </trkpt>
      <trkpt lat="13.93031" lon="-61.06806">
        <ele>9.75</ele>
        <time>2016-12-05T20:07:00Z</time>
      </trkpt>
      <trkpt lat="13.92992" lon="-61.06819">
        <ele>9.75</ele>
        <time>2016-12-05T20:07:22Z</time>
      </trkpt>
      <trkpt lat="13.92961" lon="-61.06828">
        <ele>9.27</ele>
        <time>2016-12-05T20:07:39Z</time>
      </trkpt>
      <trkpt lat="13.92926" lon="-61.06839">
        <ele>10.23</ele>
        <time>2016-12-05T20:07:59Z</time>
      </trkpt>
      <trkpt lat="13.92884" lon="-61.0685">
        <ele>9.75</ele>
        <time>2016-12-05T20:08:23Z</time>
      </trkpt>
      <trkpt lat="13.92833" lon="-61.06865">
        <ele>8.79</ele>
        <time>2016-12-05T20:08:47Z</time>
      </trkpt>
      <trkpt lat="13.92788" lon="-61.06881">
        <ele>8.31</ele>
        <time>2016-12-05T20:09:09Z</time>
      </trkpt>
      <trkpt lat="13.92749" lon="-61.06894">
        <ele>8.79</ele>
        <time>2016-12-05T20:09:29Z</time>
      </trkpt>
      <trkpt lat="13.92707" lon="-61.06908">
        <ele>9.27</ele>
        <time>2016-12-05T20:09:52Z</time>
      </trkpt>
      <trkpt lat="13.92655" lon="-61.06922">
        <ele>9.27</ele>
        <time>2016-12-05T20:10:13Z</time>
      </trkpt>
      <trkpt lat="13.9262" lon="-61.06934">
        <ele>8.79</ele>
        <time>2016-12-05T20:10:29Z</time>
      </trkpt>
      <trkpt lat="13.92588" lon="-61.06944">
        <ele>8.79</ele>
        <time>2016-12-05T20:10:44Z</time>
      </trkpt>
      <trkpt lat="13.92549" lon="-61.06956">
        <ele>8.79</ele>
        <time>2016-12-05T20:11:02Z</time>
      </trkpt>
      <trkpt lat="13.92505" lon="-61.0697">
        <ele>8.79</ele>
        <time>2016-12-05T20:11:21Z</time>
      </trkpt>
      <trkpt lat="13.9246" lon="-61.06986">
        <ele>9.27</ele>
        <time>2016-12-05T20:11:43Z</time>
      </trkpt>
      <trkpt lat="13.92418" lon="-61.07001">
        <ele>7.83</ele>
        <time>2016-12-05T20:12:05Z</time>
      </trkpt>
      <trkpt lat="13.92371" lon="-61.07016">
        <ele>6.87</ele>
        <time>2016-12-05T20:12:28Z</time>
      </trkpt>
      <trkpt lat="13.92322" lon="-61.07032">
        <ele>8.31</ele>
        <time>2016-12-05T20:12:52Z</time>
      </trkpt>
      <trkpt lat="13.92276" lon="-61.07046">
        <ele>8.31</ele>
        <time>2016-12-05T20:13:15Z</time>
      </trkpt>
      <trkpt lat="13.92236" lon="-61.07058">
        <ele>7.83</ele>
        <time>2016-12-05T20:13:36Z</time>
      </trkpt>
      <trkpt lat="13.92198" lon="-61.07068">
        <ele>7.83</ele>
        <time>2016-12-05T20:13:56Z</time>
      </trkpt>
      <trkpt lat="13.92148" lon="-61.07083">
        <ele>7.83</ele>
        <time>2016-12-05T20:14:21Z</time>
      </trkpt>
      <trkpt lat="13.92093" lon="-61.07098">
        <ele>7.35</ele>
        <time>2016-12-05T20:14:43Z</time>
      </trkpt>
      <trkpt lat="13.92031" lon="-61.07119">
        <ele>8.31</ele>
        <time>2016-12-05T20:15:08Z</time>
      </trkpt>
      <trkpt lat="13.91986" lon="-61.0713">
        <ele>7.35</ele>
        <time>2016-12-05T20:15:29Z</time>
      </trkpt>
      <trkpt lat="13.91943" lon="-61.07142">
        <ele>7.35</ele>
        <time>2016-12-05T20:15:51Z</time>
      </trkpt>
      <trkpt lat="13.919" lon="-61.07154">
        <ele>7.83</ele>
        <time>2016-12-05T20:16:14Z</time>
      </trkpt>
      <trkpt lat="13.91861" lon="-61.07166">
        <ele>7.83</ele>
        <time>2016-12-05T20:16:36Z</time>
      </trkpt>
      <trkpt lat="13.91812" lon="-61.0718">
        <ele>7.35</ele>
        <time>2016-12-05T20:17:01Z</time>
      </trkpt>
      <trkpt lat="13.9177" lon="-61.07193">
        <ele>7.35</ele>
        <time>2016-12-05T20:17:23Z</time>
      </trkpt>
      <trkpt lat="13.9173" lon="-61.07207">
        <ele>7.83</ele>
        <time>2016-12-05T20:17:42Z</time>
      </trkpt>
      <trkpt lat="13.91686" lon="-61.07222">
        <ele>8.31</ele>
        <time>2016-12-05T20:18:02Z</time>
      </trkpt>
      <trkpt lat="13.91648" lon="-61.07236">
        <ele>8.79</ele>
        <time>2016-12-05T20:18:18Z</time>
      </trkpt>
      <trkpt lat="13.91591" lon="-61.07252">
        <ele>7.83</ele>
        <time>2016-12-05T20:18:41Z</time>
      </trkpt>
      <trkpt lat="13.91542" lon="-61.07266">
        <ele>7.83</ele>
        <time>2016-12-05T20:19:03Z</time>
      </trkpt>
      <trkpt lat="13.91502" lon="-61.0728">
        <ele>8.31</ele>
        <time>2016-12-05T20:19:21Z</time>
      </trkpt>
      <trkpt lat="13.91458" lon="-61.07296">
        <ele>8.31</ele>
        <time>2016-12-05T20:19:42Z</time>
      </trkpt>
      <trkpt lat="13.91426" lon="-61.07309">
        <ele>8.79</ele>
        <time>2016-12-05T20:20:00Z</time>
      </trkpt>
      <trkpt lat="13.9139" lon="-61.0732">
        <ele>7.83</ele>
        <time>2016-12-05T20:20:19Z</time>
      </trkpt>
      <trkpt lat="13.91355" lon="-61.07333">
        <ele>7.83</ele>
        <time>2016-12-05T20:20:38Z</time>
      </trkpt>
      <trkpt lat="13.91306" lon="-61.07347">
        <ele>8.79</ele>
        <time>2016-12-05T20:21:02Z</time>
      </trkpt>
      <trkpt lat="13.9125" lon="-61.07364">
        <ele>8.79</ele>
        <time>2016-12-05T20:21:26Z</time>
      </trkpt>
      <trkpt lat="13.91201" lon="-61.07378">
        <ele>8.79</ele>
        <time>2016-12-05T20:21:46Z</time>
      </trkpt>
      <trkpt lat="13.91142" lon="-61.074">
        <ele>8.31</ele>
        <time>2016-12-05T20:22:14Z</time>
      </trkpt>
      <trkpt lat="13.91105" lon="-61.07414">
        <ele>8.31</ele>
        <time>2016-12-05T20:22:34Z</time>
      </trkpt>
      <trkpt lat="13.91073" lon="-61.07422">
        <ele>9.27</ele>
        <time>2016-12-05T20:22:51Z</time>
      </trkpt>
      <trkpt lat="13.91041" lon="-61.07433">
        <ele>8.31</ele>
        <time>2016-12-05T20:23:11Z</time>
      </trkpt>
      <trkpt lat="13.90997" lon="-61.07446">
        <ele>8.79</ele>
        <time>2016-12-05T20:23:33Z</time>
      </trkpt>
      <trkpt lat="13.90951" lon="-61.07461">
        <ele>8.31</ele>
        <time>2016-12-05T20:23:50Z</time>
      </trkpt>
      <trkpt lat="13.90902" lon="-61.07479">
        <ele>7.35</ele>
        <time>2016-12-05T20:24:07Z</time>
      </trkpt>
      <trkpt lat="13.90852" lon="-61.07497">
        <ele>8.31</ele>
        <time>2016-12-05T20:24:24Z</time>
      </trkpt>
      <trkpt lat="13.90798" lon="-61.07515">
        <ele>7.83</ele>
        <time>2016-12-05T20:24:43Z</time>
      </trkpt>
      <trkpt lat="13.90744" lon="-61.07535">
        <ele>8.31</ele>
        <time>2016-12-05T20:25:02Z</time>
      </trkpt>
      <trkpt lat="13.90697" lon="-61.07551">
        <ele>8.31</ele>
        <time>2016-12-05T20:25:17Z</time>
      </trkpt>
      <trkpt lat="13.90644" lon="-61.07565">
        <ele>9.27</ele>
        <time>2016-12-05T20:25:34Z</time>
      </trkpt>
      <trkpt lat="13.90589" lon="-61.07586">
        <ele>8.79</ele>
        <time>2016-12-05T20:25:54Z</time>
      </trkpt>
      <trkpt lat="13.90548" lon="-61.07597">
        <ele>9.27</ele>
        <time>2016-12-05T20:26:10Z</time>
      </trkpt>
      <trkpt lat="13.90512" lon="-61.07609">
        <ele>8.79</ele>
        <time>2016-12-05T20:26:26Z</time>
      </trkpt>
      <trkpt lat="13.90477" lon="-61.07621">
        <ele>8.31</ele>
        <time>2016-12-05T20:26:44Z</time>
      </trkpt>
      <trkpt lat="13.90434" lon="-61.07636">
        <ele>8.31</ele>
        <time>2016-12-05T20:27:06Z</time>
      </trkpt>
      <trkpt lat="13.90389" lon="-61.07651">
        <ele>8.79</ele>
        <time>2016-12-05T20:27:25Z</time>
      </trkpt>
      <trkpt lat="13.90352" lon="-61.07661">
        <ele>8.31</ele>
        <time>2016-12-05T20:27:39Z</time>
      </trkpt>
      <trkpt lat="13.903" lon="-61.07678">
        <ele>8.31</ele>
        <time>2016-12-05T20:27:58Z</time>
      </trkpt>
      <trkpt lat="13.9024" lon="-61.07697">
        <ele>8.31</ele>
        <time>2016-12-05T20:28:18Z</time>
      </trkpt>
      <trkpt lat="13.90197" lon="-61.07709">
        <ele>8.31</ele>
        <time>2016-12-05T20:28:32Z</time>
      </trkpt>
      <trkpt lat="13.90151" lon="-61.07722">
        <ele>8.31</ele>
        <time>2016-12-05T20:28:49Z</time>
      </trkpt>
      <trkpt lat="13.90097" lon="-61.07738">
        <ele>9.27</ele>
        <time>2016-12-05T20:29:10Z</time>
      </trkpt>
      <trkpt lat="13.90041" lon="-61.07757">
        <ele>8.79</ele>
        <time>2016-12-05T20:29:31Z</time>
      </trkpt>
      <trkpt lat="13.89991" lon="-61.07772">
        <ele>8.31</ele>
        <time>2016-12-05T20:29:52Z</time>
      </trkpt>
      <trkpt lat="13.89944" lon="-61.07788">
        <ele>8.31</ele>
        <time>2016-12-05T20:30:17Z</time>
      </trkpt>
      <trkpt lat="13.89903" lon="-61.078">
        <ele>8.79</ele>
        <time>2016-12-05T20:30:39Z</time>
      </trkpt>
      <trkpt lat="13.89863" lon="-61.07815">
        <ele>8.31</ele>
        <time>2016-12-05T20:31:03Z</time>
      </trkpt>
      <trkpt lat="13.89811" lon="-61.07831">
        <ele>8.79</ele>
        <time>2016-12-05T20:31:30Z</time>
      </trkpt>
      <trkpt lat="13.89761" lon="-61.07848">
        <ele>9.27</ele>
        <time>2016-12-05T20:31:53Z</time>
      </trkpt>
      <trkpt lat="13.89707" lon="-61.07865">
        <ele>8.79</ele>
        <time>2016-12-05T20:32:14Z</time>
      </trkpt>
      <trkpt lat="13.89669" lon="-61.07878">
        <ele>8.79</ele>
        <time>2016-12-05T20:32:28Z</time>
      </trkpt>
      <trkpt lat="13.89632" lon="-61.07888">
        <ele>9.27</ele>
        <time>2016-12-05T20:32:43Z</time>
      </trkpt>
      <trkpt lat="13.89594" lon="-61.079">
        <ele>9.27</ele>
        <time>2016-12-05T20:32:59Z</time>
      </trkpt>
      <trkpt lat="13.89543" lon="-61.07919">
        <ele>9.75</ele>
        <time>2016-12-05T20:33:25Z</time>
      </trkpt>
      <trkpt lat="13.89493" lon="-61.07933">
        <ele>9.75</ele>
        <time>2016-12-05T20:33:51Z</time>
      </trkpt>
      <trkpt lat="13.89446" lon="-61.07949">
        <ele>9.27</ele>
        <time>2016-12-05T20:34:14Z</time>
      </trkpt>
      <trkpt lat="13.8941" lon="-61.07961">
        <ele>8.79</ele>
        <time>2016-12-05T20:34:31Z</time>
      </trkpt>
      <trkpt lat="13.89371" lon="-61.07974">
        <ele>9.27</ele>
        <time>2016-12-05T20:34:49Z</time>
      </trkpt>
      <trkpt lat="13.89329" lon="-61.07989">
        <ele>8.79</ele>
        <time>2016-12-05T20:35:13Z</time>
      </trkpt>
      <trkpt lat="13.89299" lon="-61.07999">
        <ele>8.79</ele>
        <time>2016-12-05T20:35:31Z</time>
      </trkpt>
      <trkpt lat="13.89252" lon="-61.08014">
        <ele>8.79</ele>
        <time>2016-12-05T20:35:59Z</time>
      </trkpt>
      <trkpt lat="13.89214" lon="-61.08026">
        <ele>8.31</ele>
        <time>2016-12-05T20:36:20Z</time>
      </trkpt>
      <trkpt lat="13.89162" lon="-61.0804">
        <ele>8.79</ele>
        <time>2016-12-05T20:36:47Z</time>
      </trkpt>
      <trkpt lat="13.89122" lon="-61.08051">
        <ele>8.31</ele>
        <time>2016-12-05T20:37:08Z</time>
      </trkpt>
      <trkpt lat="13.89081" lon="-61.08061">
        <ele>7.83</ele>
        <time>2016-12-05T20:37:31Z</time>
      </trkpt>
      <trkpt lat="13.8905" lon="-61.0807">
        <ele>8.79</ele>
        <time>2016-12-05T20:37:50Z</time>
      </trkpt>
      <trkpt lat="13.89021" lon="-61.08078">
        <ele>8.31</ele>
        <time>2016-12-05T20:38:08Z</time>
      </trkpt>
      <trkpt lat="13.88983" lon="-61.08088">
        <ele>7.83</ele>
        <time>2016-12-05T20:38:30Z</time>
      </trkpt>
      <trkpt lat="13.88937" lon="-61.08099">
        <ele>8.31</ele>
        <time>2016-12-05T20:38:52Z</time>
      </trkpt>
      <trkpt lat="13.8889" lon="-61.08112">
        <ele>8.31</ele>
        <time>2016-12-05T20:39:16Z</time>
      </trkpt>
      <trkpt lat="13.88843" lon="-61.08125">
        <ele>8.79</ele>
        <time>2016-12-05T20:39:43Z</time>
      </trkpt>
      <trkpt lat="13.88809" lon="-61.08135">
        <ele>9.75</ele>
        <time>2016-12-05T20:40:07Z</time>
      </trkpt>
      <trkpt lat="13.88783" lon="-61.08144">
        <ele>10.23</ele>
        <time>2016-12-05T20:40:28Z</time>
      </trkpt>
      <trkpt lat="13.8876" lon="-61.08151">
        <ele>10.23</ele>
        <time>2016-12-05T20:40:50Z</time>
      </trkpt>
      <trkpt lat="13.88735" lon="-61.08161">
        <ele>10.71</ele>
        <time>2016-12-05T20:41:16Z</time>
      </trkpt>
      <trkpt lat="13.8871" lon="-61.0817">
        <ele>10.23</ele>
        <time>2016-12-05T20:41:38Z</time>
      </trkpt>
      <trkpt lat="13.88681" lon="-61.0818">
        <ele>11.19</ele>
        <time>2016-12-05T20:42:02Z</time>
      </trkpt>
      <trkpt lat="13.88654" lon="-61.08187">
        <ele>11.19</ele>
        <time>2016-12-05T20:42:23Z</time>
      </trkpt>
      <trkpt lat="13.88627" lon="-61.08195">
        <ele>11.19</ele>
        <time>2016-12-05T20:42:46Z</time>
      </trkpt>
      <trkpt lat="13.88599" lon="-61.08203">
        <ele>10.23</ele>
        <time>2016-12-05T20:43:12Z</time>
      </trkpt>
      <trkpt lat="13.88574" lon="-61.0821">
        <ele>10.71</ele>
        <time>2016-12-05T20:43:40Z</time>
      </trkpt>
      <trkpt lat="13.88555" lon="-61.08215">
        <ele>9.75</ele>
        <time>2016-12-05T20:44:04Z</time>
      </trkpt>
      <trkpt lat="13.88537" lon="-61.08219">
        <ele>10.71</ele>
        <time>2016-12-05T20:44:28Z</time>
      </trkpt>
      <trkpt lat="13.88521" lon="-61.08226">
        <ele>10.71</ele>
        <time>2016-12-05T20:44:52Z</time>
      </trkpt>
      <trkpt lat="13.88506" lon="-61.08231">
        <ele>10.71</ele>
        <time>2016-12-05T20:45:15Z</time>
      </trkpt>
      <trkpt lat="13.8849" lon="-61.08234">
        <ele>10.23</ele>
        <time>2016-12-05T20:45:33Z</time>
      </trkpt>
      <trkpt lat="13.88469" lon="-61.0824">
        <ele>10.23</ele>
        <time>2016-12-05T20:45:56Z</time>
      </trkpt>
      <trkpt lat="13.88444" lon="-61.08248">
        <ele>10.71</ele>
        <time>2016-12-05T20:46:15Z</time>
      </trkpt>
      <trkpt lat="13.88393" lon="-61.08261">
        <ele>10.23</ele>
        <time>2016-12-05T20:46:37Z</time>
      </trkpt>
      <trkpt lat="13.88336" lon="-61.08276">
        <ele>9.75</ele>
        <time>2016-12-05T20:47:00Z</time>
      </trkpt>
      <trkpt lat="13.88281" lon="-61.08289">
        <ele>10.23</ele>
        <time>2016-12-05T20:47:22Z</time>
      </trkpt>
      <trkpt lat="13.88229" lon="-61.08302">
        <ele>11.67</ele>
        <time>2016-12-05T20:47:43Z</time>
      </trkpt>
      <trkpt lat="13.88176" lon="-61.08314">
        <ele>12.15</ele>
        <time>2016-12-05T20:48:04Z</time>
      </trkpt>
      <trkpt lat="13.88121" lon="-61.08326">
        <ele>12.15</ele>
        <time>2016-12-05T20:48:26Z</time>
      </trkpt>
      <trkpt lat="13.88067" lon="-61.08334">
        <ele>11.67</ele>
        <time>2016-12-05T20:48:47Z</time>
      </trkpt>
      <trkpt lat="13.88009" lon="-61.08342">
        <ele>10.23</ele>
        <time>2016-12-05T20:49:10Z</time>
      </trkpt>
      <trkpt lat="13.87956" lon="-61.08349">
        <ele>10.71</ele>
        <time>2016-12-05T20:49:31Z</time>
      </trkpt>
      <trkpt lat="13.87909" lon="-61.08354">
        <ele>11.19</ele>
        <time>2016-12-05T20:49:50Z</time>
      </trkpt>
      <trkpt lat="13.87843" lon="-61.08363">
        <ele>10.23</ele>
        <time>2016-12-05T20:50:16Z</time>
      </trkpt>
      <trkpt lat="13.87787" lon="-61.08371">
        <ele>10.71</ele>
        <time>2016-12-05T20:50:38Z</time>
      </trkpt>
      <trkpt lat="13.87724" lon="-61.08381">
        <ele>12.15</ele>
        <time>2016-12-05T20:51:03Z</time>
      </trkpt>
      <trkpt lat="13.87656" lon="-61.08392">
        <ele>12.15</ele>
        <time>2016-12-05T20:51:29Z</time>
      </trkpt>
      <trkpt lat="13.87585" lon="-61.08403">
        <ele>12.15</ele>
        <time>2016-12-05T20:51:56Z</time>
      </trkpt>
      <trkpt lat="13.87519" lon="-61.08414">
        <ele>12.63</ele>
        <time>2016-12-05T20:52:21Z</time>
      </trkpt>
      <trkpt lat="13.87441" lon="-61.08424">
        <ele>11.67</ele>
        <time>2016-12-05T20:52:50Z</time>
      </trkpt>
      <trkpt lat="13.8738" lon="-61.08428">
        <ele>10.23</ele>
        <time>2016-12-05T20:53:13Z</time>
      </trkpt>
      <trkpt lat="13.87319" lon="-61.08434">
        <ele>9.75</ele>
        <time>2016-12-05T20:53:36Z</time>
      </trkpt>
      <trkpt lat="13.87261" lon="-61.08439">
        <ele>8.79</ele>
        <time>2016-12-05T20:53:58Z</time>
      </trkpt>
      <trkpt lat="13.87206" lon="-61.08445">
        <ele>8.79</ele>
        <time>2016-12-05T20:54:19Z</time>
      </trkpt>
      <trkpt lat="13.87144" lon="-61.0845">
        <ele>9.27</ele>
        <time>2016-12-05T20:54:43Z</time>
      </trkpt>
      <trkpt lat="13.87082" lon="-61.08453">
        <ele>10.71</ele>
        <time>2016-12-05T20:55:06Z</time>
      </trkpt>
      <trkpt lat="13.87015" lon="-61.08456">
        <ele>10.71</ele>
        <time>2016-12-05T20:55:32Z</time>
      </trkpt>
      <trkpt lat="13.86947" lon="-61.0846">
        <ele>12.63</ele>
        <time>2016-12-05T20:55:59Z</time>
      </trkpt>
      <trkpt lat="13.86878" lon="-61.08464">
        <ele>13.12</ele>
        <time>2016-12-05T20:56:26Z</time>
      </trkpt>
      <trkpt lat="13.86817" lon="-61.08467">
        <ele>13.12</ele>
        <time>2016-12-05T20:56:50Z</time>
      </trkpt>
      <trkpt lat="13.86757" lon="-61.0847">
        <ele>11.67</ele>
        <time>2016-12-05T20:57:14Z</time>
      </trkpt>
      <trkpt lat="13.86686" lon="-61.08474">
        <ele>12.63</ele>
        <time>2016-12-05T20:57:42Z</time>
      </trkpt>
      <trkpt lat="13.86631" lon="-61.08477">
        <ele>12.15</ele>
        <time>2016-12-05T20:58:04Z</time>
      </trkpt>
      <trkpt lat="13.8658" lon="-61.08482">
        <ele>11.19</ele>
        <time>2016-12-05T20:58:24Z</time>
      </trkpt>
      <trkpt lat="13.86514" lon="-61.08487">
        <ele>11.19</ele>
        <time>2016-12-05T20:58:51Z</time>
      </trkpt>
      <trkpt lat="13.86452" lon="-61.08493">
        <ele>11.19</ele>
        <time>2016-12-05T20:59:16Z</time>
      </trkpt>
      <trkpt lat="13.86394" lon="-61.08499">
        <ele>10.23</ele>
        <time>2016-12-05T20:59:39Z</time>
      </trkpt>
      <trkpt lat="13.86335" lon="-61.08505">
        <ele>11.19</ele>
        <time>2016-12-05T21:00:03Z</time>
      </trkpt>
      <trkpt lat="13.86284" lon="-61.08511">
        <ele>11.67</ele>
        <time>2016-12-05T21:00:24Z</time>
      </trkpt>
      <trkpt lat="13.86218" lon="-61.08517">
        <ele>11.67</ele>
        <time>2016-12-05T21:00:51Z</time>
      </trkpt>
      <trkpt lat="13.86161" lon="-61.08524">
        <ele>11.19</ele>
        <time>2016-12-05T21:01:14Z</time>
      </trkpt>
      <trkpt lat="13.86096" lon="-61.08534">
        <ele>9.75</ele>
        <time>2016-12-05T21:01:41Z</time>
      </trkpt>
      <trkpt lat="13.8604" lon="-61.08531">
        <ele>10.71</ele>
        <time>2016-12-05T21:02:04Z</time>
      </trkpt>
      <trkpt lat="13.85982" lon="-61.08525">
        <ele>9.75</ele>
        <time>2016-12-05T21:02:28Z</time>
      </trkpt>
      <trkpt lat="13.85927" lon="-61.08513">
        <ele>10.23</ele>
        <time>2016-12-05T21:02:51Z</time>
      </trkpt>
      <trkpt lat="13.85882" lon="-61.08498">
        <ele>8.79</ele>
        <time>2016-12-05T21:03:10Z</time>
      </trkpt>
      <trkpt lat="13.85835" lon="-61.08484">
        <ele>9.75</ele>
        <time>2016-12-05T21:03:30Z</time>
      </trkpt>
      <trkpt lat="13.85788" lon="-61.08469">
        <ele>10.23</ele>
        <time>2016-12-05T21:03:50Z</time>
      </trkpt>
      <trkpt lat="13.85726" lon="-61.0845">
        <ele>10.71</ele>
        <time>2016-12-05T21:04:16Z</time>
      </trkpt>
      <trkpt lat="13.85667" lon="-61.08434">
        <ele>10.71</ele>
        <time>2016-12-05T21:04:40Z</time>
      </trkpt>
      <trkpt lat="13.85608" lon="-61.08418">
        <ele>10.23</ele>
        <time>2016-12-05T21:05:04Z</time>
      </trkpt>
      <trkpt lat="13.85548" lon="-61.084">
        <ele>10.71</ele>
        <time>2016-12-05T21:05:29Z</time>
      </trkpt>
      <trkpt lat="13.85495" lon="-61.08384">
        <ele>10.71</ele>
        <time>2016-12-05T21:05:51Z</time>
      </trkpt>
      <trkpt lat="13.85456" lon="-61.08362">
        <ele>10.23</ele>
        <time>2016-12-05T21:06:11Z</time>
      </trkpt>
      <trkpt lat="13.85466" lon="-61.08337">
        <ele>10.23</ele>
        <time>2016-12-05T21:06:26Z</time>
      </trkpt>
      <trkpt lat="13.85497" lon="-61.08343">
        <ele>9.75</ele>
        <time>2016-12-05T21:06:43Z</time>
      </trkpt>
      <trkpt lat="13.8554" lon="-61.08342">
        <ele>9.75</ele>
        <time>2016-12-05T21:07:05Z</time>
      </trkpt>
      <trkpt lat="13.85572" lon="-61.08318">
        <ele>10.23</ele>
        <time>2016-12-05T21:07:26Z</time>
      </trkpt>
      <trkpt lat="13.85587" lon="-61.08277">
        <ele>9.75</ele>
        <time>2016-12-05T21:07:47Z</time>
      </trkpt>
      <trkpt lat="13.85613" lon="-61.08245">
        <ele>9.27</ele>
        <time>2016-12-05T21:08:07Z</time>
      </trkpt>
      <trkpt lat="13.85596" lon="-61.08216">
        <ele>8.79</ele>
        <time>2016-12-05T21:08:24Z</time>
      </trkpt>
      <trkpt lat="13.85566" lon="-61.08184">
        <ele>9.75</ele>
        <time>2016-12-05T21:08:44Z</time>
      </trkpt>
      <trkpt lat="13.85559" lon="-61.08129">
        <ele>9.75</ele>
        <time>2016-12-05T21:09:08Z</time>
      </trkpt>
      <trkpt lat="13.85548" lon="-61.08062">
        <ele>9.75</ele>
        <time>2016-12-05T21:09:37Z</time>
      </trkpt>
      <trkpt lat="13.85539" lon="-61.08007">
        <ele>10.23</ele>
        <time>2016-12-05T21:10:00Z</time>
      </trkpt>
      <trkpt lat="13.85531" lon="-61.07947">
        <ele>10.71</ele>
        <time>2016-12-05T21:10:25Z</time>
      </trkpt>
      <trkpt lat="13.85523" lon="-61.07878">
        <ele>10.23</ele>
        <time>2016-12-05T21:10:54Z</time>
      </trkpt>
      <trkpt lat="13.85518" lon="-61.07843">
        <ele>10.23</ele>
        <time>2016-12-05T21:11:10Z</time>
      </trkpt>
      <trkpt lat="13.8551" lon="-61.07807">
        <ele>11.19</ele>
        <time>2016-12-05T21:11:25Z</time>
      </trkpt>
      <trkpt lat="13.85509" lon="-61.07785">
        <ele>8.79</ele>
        <time>2016-12-05T21:11:33Z</time>
      </trkpt>
      <trkpt lat="13.85504" lon="-61.07754">
        <ele>8.31</ele>
        <time>2016-12-05T21:11:47Z</time>
      </trkpt>
      <trkpt lat="13.85499" lon="-61.07717">
        <ele>8.79</ele>
        <time>2016-12-05T21:12:03Z</time>
      </trkpt>
      <trkpt lat="13.85494" lon="-61.07684">
        <ele>8.79</ele>
        <time>2016-12-05T21:12:18Z</time>
      </trkpt>
      <trkpt lat="13.85491" lon="-61.07657">
        <ele>8.31</ele>
        <time>2016-12-05T21:12:30Z</time>
      </trkpt>
      <trkpt lat="13.85487" lon="-61.0763">
        <ele>7.83</ele>
        <time>2016-12-05T21:12:42Z</time>
      </trkpt>
      <trkpt lat="13.85482" lon="-61.07599">
        <ele>7.83</ele>
        <time>2016-12-05T21:12:56Z</time>
      </trkpt>
      <trkpt lat="13.85479" lon="-61.07565">
        <ele>9.27</ele>
        <time>2016-12-05T21:13:12Z</time>
      </trkpt>
      <trkpt lat="13.85476" lon="-61.07536">
        <ele>9.27</ele>
        <time>2016-12-05T21:13:25Z</time>
      </trkpt>
      <trkpt lat="13.85473" lon="-61.07501">
        <ele>9.27</ele>
        <time>2016-12-05T21:13:41Z</time>
      </trkpt>
      <trkpt lat="13.85471" lon="-61.07471">
        <ele>9.75</ele>
        <time>2016-12-05T21:13:55Z</time>
      </trkpt>
      <trkpt lat="13.85477" lon="-61.07419">
        <ele>9.75</ele>
        <time>2016-12-05T21:14:18Z</time>
      </trkpt>
      <trkpt lat="13.85477" lon="-61.07383">
        <ele>9.75</ele>
        <time>2016-12-05T21:14:34Z</time>
      </trkpt>
      <trkpt lat="13.85479" lon="-61.07348">
        <ele>10.23</ele>
        <time>2016-12-05T21:14:50Z</time>
      </trkpt>
      <trkpt lat="13.85481" lon="-61.07323">
        <ele>10.71</ele>
        <time>2016-12-05T21:15:02Z</time>
      </trkpt>
      <trkpt lat="13.85483" lon="-61.07315">
        <ele>10.71</ele>
        <time>2016-12-05T21:15:06Z</time>
      </trkpt>
      <trkpt lat="13.85484" lon="-61.07289">
        <ele>11.19</ele>
        <time>2016-12-05T21:15:18Z</time>
      </trkpt>
      <trkpt lat="13.85485" lon="-61.07242">
        <ele>13.6</ele>
        <time>2016-12-05T21:15:39Z</time>
      </trkpt>
      <trkpt lat="13.85487" lon="-61.07214">
        <ele>12.15</ele>
        <time>2016-12-05T21:15:52Z</time>
      </trkpt>
      <trkpt lat="13.85487" lon="-61.07175">
        <ele>12.15</ele>
        <time>2016-12-05T21:16:10Z</time>
      </trkpt>
      <trkpt lat="13.8549" lon="-61.07143">
        <ele>11.67</ele>
        <time>2016-12-05T21:16:25Z</time>
      </trkpt>
      <trkpt lat="13.8549" lon="-61.07109">
        <ele>12.15</ele>
        <time>2016-12-05T21:16:41Z</time>
      </trkpt>
      <trkpt lat="13.85492" lon="-61.07095">
        <ele>11.67</ele>
        <time>2016-12-05T21:16:48Z</time>
      </trkpt>
      <trkpt lat="13.85493" lon="-61.07084">
        <ele>11.19</ele>
        <time>2016-12-05T21:16:54Z</time>
      </trkpt>
      <trkpt lat="13.85495" lon="-61.07059">
        <ele>10.23</ele>
        <time>2016-12-05T21:17:08Z</time>
      </trkpt>
      <trkpt lat="13.85499" lon="-61.07039">
        <ele>8.31</ele>
        <time>2016-12-05T21:17:18Z</time>
      </trkpt>
      <trkpt lat="13.85495" lon="-61.07016">
        <ele>10.23</ele>
        <time>2016-12-05T21:17:31Z</time>
      </trkpt>
      <trkpt lat="13.85465" lon="-61.07002">
        <ele>11.67</ele>
        <time>2016-12-05T21:17:48Z</time>
      </trkpt>
      <trkpt lat="13.8543" lon="-61.06977">
        <ele>12.15</ele>
        <time>2016-12-05T21:18:09Z</time>
      </trkpt>
      <trkpt lat="13.85404" lon="-61.06942">
        <ele>13.6</ele>
        <time>2016-12-05T21:18:31Z</time>
      </trkpt>
      <trkpt lat="13.8538" lon="-61.06899">
        <ele>12.15</ele>
        <time>2016-12-05T21:18:57Z</time>
      </trkpt>
      <trkpt lat="13.85359" lon="-61.06868">
        <ele>11.19</ele>
        <time>2016-12-05T21:19:16Z</time>
      </trkpt>
      <trkpt lat="13.85341" lon="-61.06841">
        <ele>12.15</ele>
        <time>2016-12-05T21:19:33Z</time>
      </trkpt>
      <trkpt lat="13.85331" lon="-61.06819">
        <ele>12.15</ele>
        <time>2016-12-05T21:19:45Z</time>
      </trkpt>
      <trkpt lat="13.85317" lon="-61.06792">
        <ele>12.15</ele>
        <time>2016-12-05T21:19:59Z</time>
      </trkpt>
      <trkpt lat="13.8529" lon="-61.06747">
        <ele>12.15</ele>
        <time>2016-12-05T21:20:18Z</time>
      </trkpt>
      <trkpt lat="13.8527" lon="-61.06707">
        <ele>12.63</ele>
        <time>2016-12-05T21:20:34Z</time>
      </trkpt>
      <trkpt lat="13.85242" lon="-61.06657">
        <ele>12.63</ele>
        <time>2016-12-05T21:20:55Z</time>
      </trkpt>
      <trkpt lat="13.85215" lon="-61.06608">
        <ele>12.63</ele>
        <time>2016-12-05T21:21:15Z</time>
      </trkpt>
      <trkpt lat="13.85193" lon="-61.06566">
        <ele>12.15</ele>
        <time>2016-12-05T21:21:32Z</time>
      </trkpt>
      <trkpt lat="13.85174" lon="-61.06533">
        <ele>11.67</ele>
        <time>2016-12-05T21:21:46Z</time>
      </trkpt>
      <trkpt lat="13.85158" lon="-61.06502">
        <ele>10.71</ele>
        <time>2016-12-05T21:21:59Z</time>
      </trkpt>
      <trkpt lat="13.85146" lon="-61.06477">
        <ele>12.15</ele>
        <time>2016-12-05T21:22:11Z</time>
      </trkpt>
      <trkpt lat="13.85138" lon="-61.0646">
        <ele>10.71</ele>
        <time>2016-12-05T21:22:20Z</time>
      </trkpt>
      <trkpt lat="13.85133" lon="-61.06453">
        <ele>10.71</ele>
        <time>2016-12-05T21:22:24Z</time>
      </trkpt>
      <trkpt lat="13.85117" lon="-61.06424">
        <ele>10.71</ele>
        <time>2016-12-05T21:22:40Z</time>
      </trkpt>
      <trkpt lat="13.85103" lon="-61.06399">
        <ele>10.23</ele>
        <time>2016-12-05T21:22:54Z</time>
      </trkpt>
      <trkpt lat="13.85098" lon="-61.06388">
        <ele>9.27</ele>
        <time>2016-12-05T21:23:00Z</time>
      </trkpt>
      <trkpt lat="13.85084" lon="-61.06358">
        <ele>10.23</ele>
        <time>2016-12-05T21:23:20Z</time>
      </trkpt>
      <trkpt lat="13.85077" lon="-61.06346">
        <ele>8.79</ele>
        <time>2016-12-05T21:23:31Z</time>
      </trkpt>
      <trkpt lat="13.85074" lon="-61.06342">
        <ele>9.27</ele>
        <time>2016-12-05T21:23:35Z</time>
      </trkpt>
      <trkpt lat="13.85075" lon="-61.06314">
        <ele>10.23</ele>
        <time>2016-12-05T21:23:51Z</time>
      </trkpt>
      <trkpt lat="13.85082" lon="-61.06299">
        <ele>9.75</ele>
        <time>2016-12-05T21:24:01Z</time>
      </trkpt>
      <trkpt lat="13.85097" lon="-61.06276">
        <ele>9.27</ele>
        <time>2016-12-05T21:24:18Z</time>
      </trkpt>
      <trkpt lat="13.85103" lon="-61.06253">
        <ele>9.27</ele>
        <time>2016-12-05T21:24:34Z</time>
      </trkpt>
      <trkpt lat="13.85093" lon="-61.0623">
        <ele>10.23</ele>
        <time>2016-12-05T21:24:51Z</time>
      </trkpt>
      <trkpt lat="13.85077" lon="-61.06217">
        <ele>9.75</ele>
        <time>2016-12-05T21:25:07Z</time>
      </trkpt>
      <trkpt lat="13.85056" lon="-61.06211">
        <ele>9.27</ele>
        <time>2016-12-05T21:25:21Z</time>
      </trkpt>
      <trkpt lat="13.8504" lon="-61.06208">
        <ele>9.75</ele>
        <time>2016-12-05T21:25:31Z</time>
      </trkpt>
      <trkpt lat="13.85034" lon="-61.06208">
        <ele>9.75</ele>
        <time>2016-12-05T21:25:35Z</time>
      </trkpt>
      <trkpt lat="13.85027" lon="-61.0621">
        <ele>9.75</ele>
        <time>2016-12-05T21:25:40Z</time>
      </trkpt>
      <trkpt lat="13.85001" lon="-61.06209">
        <ele>11.19</ele>
        <time>2016-12-05T21:25:57Z</time>
      </trkpt>
      <trkpt lat="13.84998" lon="-61.06193">
        <ele>12.63</ele>
        <time>2016-12-05T21:26:14Z</time>
      </trkpt>
      <trkpt lat="13.85006" lon="-61.06187">
        <ele>10.23</ele>
        <time>2016-12-05T21:26:29Z</time>
      </trkpt>
      <trkpt lat="13.85012" lon="-61.06187">
        <ele>10.71</ele>
        <time>2016-12-05T21:26:46Z</time>
      </trkpt>
      <trkpt lat="13.85014" lon="-61.06187">
        <ele>9.75</ele>
        <time>2016-12-05T21:27:06Z</time>
      </trkpt>
      <trkpt lat="13.85015" lon="-61.06189">
        <ele>10.23</ele>
        <time>2016-12-05T21:27:20Z</time>
      </trkpt>
      <trkpt lat="13.85015" lon="-61.06189">
        <ele>10.23</ele>
        <time>2016-12-05T21:27:21Z</time>
      </trkpt>
      <trkpt lat="13.85019" lon="-61.06189">
        <ele>7.83</ele>
        <time>2016-12-05T21:27:30Z</time>
      </trkpt>
      <trkpt lat="13.85019" lon="-61.06189">
        <ele>7.35</ele>
        <time>2016-12-05T21:27:32Z</time>
      </trkpt>
      <trkpt lat="13.85017" lon="-61.0619">
        <ele>6.39</ele>
        <time>2016-12-05T21:27:35Z</time>
      </trkpt>
      <trkpt lat="13.85017" lon="-61.06191">
        <ele>5.91</ele>
        <time>2016-12-05T21:27:46Z</time>
      </trkpt>
      <trkpt lat="13.85018" lon="-61.06192">
        <ele>6.39</ele>
        <time>2016-12-05T21:27:57Z</time>
      </trkpt>
      <trkpt lat="13.85014" lon="-61.06193">
        <ele>6.39</ele>
        <time>2016-12-05T21:28:11Z</time>
      </trkpt>
      <trkpt lat="13.85011" lon="-61.06195">
        <ele>5.91</ele>
        <time>2016-12-05T21:28:20Z</time>
      </trkpt>
      <trkpt lat="13.85013" lon="-61.06193">
        <ele>5.91</ele>
        <time>2016-12-05T21:28:23Z</time>
      </trkpt>
      <trkpt lat="13.85015" lon="-61.06194">
        <ele>3.98</ele>
        <time>2016-12-05T21:28:34Z</time>
      </trkpt>
      <trkpt lat="13.85016" lon="-61.06195">
        <ele>3.98</ele>
        <time>2016-12-05T21:28:46Z</time>
      </trkpt>
      <trkpt lat="13.85013" lon="-61.06196">
        <ele>6.39</ele>
        <time>2016-12-05T21:28:56Z</time>
      </trkpt>
      <trkpt lat="13.85015" lon="-61.06196">
        <ele>6.87</ele>
        <time>2016-12-05T21:29:07Z</time>
      </trkpt>
      <trkpt lat="13.85016" lon="-61.06196">
        <ele>6.87</ele>
        <time>2016-12-05T21:29:21Z</time>
      </trkpt>
      <trkpt lat="13.85018" lon="-61.06196">
        <ele>6.87</ele>
        <time>2016-12-05T21:29:34Z</time>
      </trkpt>
      <trkpt lat="13.85015" lon="-61.06199">
        <ele>6.39</ele>
        <time>2016-12-05T21:29:46Z</time>
      </trkpt>
      <trkpt lat="13.85016" lon="-61.06202">
        <ele>7.83</ele>
        <time>2016-12-05T21:30:00Z</time>
      </trkpt>
      <trkpt lat="13.85017" lon="-61.06202">
        <ele>8.79</ele>
        <time>2016-12-05T21:30:09Z</time>
      </trkpt>
      <trkpt lat="13.85017" lon="-61.06202">
        <ele>8.79</ele>
        <time>2016-12-05T21:30:11Z</time>
      </trkpt>
    </trkseg>
  </trk>
</gpx>